<?xml version='1.0' encoding='UTF-8'?><gpx version="1.1" creator="JPX - https://github.com/jenetics/jpx" xmlns="http://www.topografix.com/GPX/1/1"><trk><trkseg><trkpt lat="44.4649685" lon="7.3499861"><ele>633.0</ele><time>2026-04-28T15:50:40.429Z</time></trkpt><trkpt lat="44.4648723" lon="7.3500697"><ele>633.0</ele><time>2026-04-28T15:50:41.496Z</time></trkpt><trkpt lat="44.4647671" lon="7.3501158"><ele>633.0</ele><time>2026-04-28T15:50:43.45Z</time></trkpt><trkpt lat="44.4646919" lon="7.350144"><ele>633.0</ele><time>2026-04-28T15:50:45.453Z</time></trkpt><trkpt lat="44.4646122" lon="7.3501607"><ele>633.0</ele><time>2026-04-28T15:50:47.462Z</time></trkpt><trkpt lat="44.4645495" lon="7.3501196"><ele>633.0</ele><time>2026-04-28T15:50:49.452Z</time></trkpt><trkpt lat="44.4645253" lon="7.3500221"><ele>633.0</ele><time>2026-04-28T15:50:51.447Z</time></trkpt><trkpt lat="44.4645056" lon="7.3499181"><ele>633.0</ele><time>2026-04-28T15:50:53.456Z</time></trkpt><trkpt lat="44.464464" lon="7.3498282"><ele>633.0</ele><time>2026-04-28T15:50:55.481Z</time></trkpt><trkpt lat="44.464417" lon="7.3497633"><ele>633.0</ele><time>2026-04-28T15:50:57.463Z</time></trkpt><trkpt lat="44.4643536" lon="7.3497014"><ele>633.0</ele><time>2026-04-28T15:51:00.461Z</time></trkpt><trkpt lat="44.4642944" lon="7.3496376"><ele>633.0</ele><time>2026-04-28T15:51:02.446Z</time></trkpt><trkpt lat="44.4642206" lon="7.3495691"><ele>633.0</ele><time>2026-04-28T15:51:04.45Z</time></trkpt><trkpt lat="44.4641621" lon="7.349483"><ele>633.0</ele><time>2026-04-28T15:51:07.454Z</time></trkpt><trkpt lat="44.4641747" lon="7.3493734"><ele>633.0</ele><time>2026-04-28T15:51:09.439Z</time></trkpt><trkpt lat="44.4641961" lon="7.3492564"><ele>633.0</ele><time>2026-04-28T15:51:11.443Z</time></trkpt><trkpt lat="44.4642306" lon="7.349136"><ele>633.0</ele><time>2026-04-28T15:51:13.454Z</time></trkpt><trkpt lat="44.4642196" lon="7.3490408"><ele>633.0</ele><time>2026-04-28T15:51:15.463Z</time></trkpt><trkpt lat="44.4641782" lon="7.3489031"><ele>633.3333333333334</ele><time>2026-04-28T15:51:17.463Z</time></trkpt><trkpt lat="44.4641487" lon="7.3487826"><ele>633.6666666666666</ele><time>2026-04-28T15:51:19.513Z</time></trkpt><trkpt lat="44.4641131" lon="7.3486617"><ele>634.0</ele><time>2026-04-28T15:51:21.452Z</time></trkpt><trkpt lat="44.4641044" lon="7.3485386"><ele>634.3333333333333</ele><time>2026-04-28T15:51:23.468Z</time></trkpt><trkpt lat="44.4640814" lon="7.3484299"><ele>634.6666666666666</ele><time>2026-04-28T15:51:25.46Z</time></trkpt><trkpt lat="44.4640626" lon="7.3483176"><ele>635.0</ele><time>2026-04-28T15:51:27.46Z</time></trkpt><trkpt lat="44.4640438" lon="7.3481924"><ele>635.0</ele><time>2026-04-28T15:51:29.459Z</time></trkpt><trkpt lat="44.4640235" lon="7.3480731"><ele>635.0</ele><time>2026-04-28T15:51:31.52Z</time></trkpt><trkpt lat="44.4640086" lon="7.3479637"><ele>635.0</ele><time>2026-04-28T15:51:33.454Z</time></trkpt><trkpt lat="44.4639866" lon="7.3478497"><ele>635.0</ele><time>2026-04-28T15:51:35.449Z</time></trkpt><trkpt lat="44.4639652" lon="7.3477375"><ele>635.0</ele><time>2026-04-28T15:51:37.451Z</time></trkpt><trkpt lat="44.4639708" lon="7.3476305"><ele>635.0</ele><time>2026-04-28T15:51:39.443Z</time></trkpt><trkpt lat="44.4639815" lon="7.3475014"><ele>635.0</ele><time>2026-04-28T15:51:41.453Z</time></trkpt><trkpt lat="44.4639941" lon="7.3473699"><ele>635.0</ele><time>2026-04-28T15:51:43.46Z</time></trkpt><trkpt lat="44.4640274" lon="7.3472322"><ele>635.0</ele><time>2026-04-28T15:51:45.467Z</time></trkpt><trkpt lat="44.4640213" lon="7.3471016"><ele>635.0</ele><time>2026-04-28T15:51:47.468Z</time></trkpt><trkpt lat="44.4640057" lon="7.346984"><ele>635.0</ele><time>2026-04-28T15:51:49.469Z</time></trkpt><trkpt lat="44.4639488" lon="7.346839"><ele>634.8</ele><time>2026-04-28T15:51:51.478Z</time></trkpt><trkpt lat="44.4638887" lon="7.3467106"><ele>634.6</ele><time>2026-04-28T15:51:53.458Z</time></trkpt><trkpt lat="44.4638381" lon="7.3465921"><ele>634.4</ele><time>2026-04-28T15:51:55.466Z</time></trkpt><trkpt lat="44.4637704" lon="7.3464889"><ele>634.2</ele><time>2026-04-28T15:51:57.46Z</time></trkpt><trkpt lat="44.4637129" lon="7.346376"><ele>634.0</ele><time>2026-04-28T15:51:59.468Z</time></trkpt><trkpt lat="44.4636535" lon="7.3462578"><ele>634.0</ele><time>2026-04-28T15:52:01.464Z</time></trkpt><trkpt lat="44.463598" lon="7.3461413"><ele>634.0</ele><time>2026-04-28T15:52:03.465Z</time></trkpt><trkpt lat="44.4635323" lon="7.3460301"><ele>634.0</ele><time>2026-04-28T15:52:05.457Z</time></trkpt><trkpt lat="44.4634674" lon="7.3459119"><ele>634.0</ele><time>2026-04-28T15:52:07.451Z</time></trkpt><trkpt lat="44.4634027" lon="7.3458056"><ele>634.0</ele><time>2026-04-28T15:52:09.457Z</time></trkpt><trkpt lat="44.4633365" lon="7.3456971"><ele>634.0</ele><time>2026-04-28T15:52:11.544Z</time></trkpt><trkpt lat="44.4632694" lon="7.3455675"><ele>634.0</ele><time>2026-04-28T15:52:13.47Z</time></trkpt><trkpt lat="44.4631816" lon="7.3454604"><ele>634.0</ele><time>2026-04-28T15:52:15.479Z</time></trkpt><trkpt lat="44.4630882" lon="7.3453855"><ele>634.0</ele><time>2026-04-28T15:52:17.477Z</time></trkpt><trkpt lat="44.4630109" lon="7.345318"><ele>634.0</ele><time>2026-04-28T15:52:19.478Z</time></trkpt><trkpt lat="44.4629356" lon="7.3452306"><ele>633.4</ele><time>2026-04-28T15:52:21.473Z</time></trkpt><trkpt lat="44.4628596" lon="7.3451158"><ele>632.8</ele><time>2026-04-28T15:52:23.512Z</time></trkpt><trkpt lat="44.4627949" lon="7.345009"><ele>632.2</ele><time>2026-04-28T15:52:25.48Z</time></trkpt><trkpt lat="44.4627418" lon="7.3448736"><ele>631.6</ele><time>2026-04-28T15:52:27.474Z</time></trkpt><trkpt lat="44.4627074" lon="7.344772"><ele>631.0</ele><time>2026-04-28T15:52:29.471Z</time></trkpt><trkpt lat="44.4626913" lon="7.3446529"><ele>631.0</ele><time>2026-04-28T15:52:31.479Z</time></trkpt><trkpt lat="44.4626757" lon="7.344532"><ele>631.0</ele><time>2026-04-28T15:52:33.475Z</time></trkpt><trkpt lat="44.4626761" lon="7.3444108"><ele>631.0</ele><time>2026-04-28T15:52:35.465Z</time></trkpt><trkpt lat="44.4626748" lon="7.3443002"><ele>631.0</ele><time>2026-04-28T15:52:37.456Z</time></trkpt><trkpt lat="44.4626754" lon="7.3441922"><ele>631.0</ele><time>2026-04-28T15:52:39.463Z</time></trkpt><trkpt lat="44.4626524" lon="7.3440751"><ele>631.0</ele><time>2026-04-28T15:52:41.466Z</time></trkpt><trkpt lat="44.4626496" lon="7.3439524"><ele>631.3333333333334</ele><time>2026-04-28T15:52:43.48Z</time></trkpt><trkpt lat="44.4626645" lon="7.3438391"><ele>631.6666666666667</ele><time>2026-04-28T15:52:45.47Z</time></trkpt><trkpt lat="44.4626799" lon="7.3437215"><ele>632.0</ele><time>2026-04-28T15:52:47.461Z</time></trkpt><trkpt lat="44.4626874" lon="7.3435996"><ele>632.3333333333334</ele><time>2026-04-28T15:52:49.47Z</time></trkpt><trkpt lat="44.4626802" lon="7.343475"><ele>632.6666666666666</ele><time>2026-04-28T15:52:51.477Z</time></trkpt><trkpt lat="44.4626796" lon="7.3433642"><ele>633.0</ele><time>2026-04-28T15:52:53.488Z</time></trkpt><trkpt lat="44.4626693" lon="7.3432548"><ele>633.0</ele><time>2026-04-28T15:52:55.472Z</time></trkpt><trkpt lat="44.4626448" lon="7.3431057"><ele>633.0</ele><time>2026-04-28T15:52:57.473Z</time></trkpt><trkpt lat="44.4626197" lon="7.3429325"><ele>633.0</ele><time>2026-04-28T15:52:59.527Z</time></trkpt><trkpt lat="44.4626192" lon="7.3428374"><ele>633.0</ele><time>2026-04-28T15:53:00.479Z</time></trkpt><trkpt lat="44.4626053" lon="7.3426867"><ele>633.0</ele><time>2026-04-28T15:53:02.479Z</time></trkpt><trkpt lat="44.462583" lon="7.3425641"><ele>633.0</ele><time>2026-04-28T15:53:04.47Z</time></trkpt><trkpt lat="44.4625594" lon="7.3424396"><ele>633.0</ele><time>2026-04-28T15:53:06.519Z</time></trkpt><trkpt lat="44.4625129" lon="7.3423061"><ele>633.0</ele><time>2026-04-28T15:53:08.462Z</time></trkpt><trkpt lat="44.4624763" lon="7.3421839"><ele>633.0</ele><time>2026-04-28T15:53:10.47Z</time></trkpt><trkpt lat="44.4624428" lon="7.3420637"><ele>633.0</ele><time>2026-04-28T15:53:12.459Z</time></trkpt><trkpt lat="44.4624167" lon="7.3419366"><ele>633.1999999999999</ele><time>2026-04-28T15:53:14.473Z</time></trkpt><trkpt lat="44.4624087" lon="7.3418035"><ele>633.4</ele><time>2026-04-28T15:53:16.468Z</time></trkpt><trkpt lat="44.4624139" lon="7.3416656"><ele>633.5999999999999</ele><time>2026-04-28T15:53:18.473Z</time></trkpt><trkpt lat="44.4624414" lon="7.3415306"><ele>633.8</ele><time>2026-04-28T15:53:20.537Z</time></trkpt><trkpt lat="44.4624703" lon="7.3413949"><ele>634.0</ele><time>2026-04-28T15:53:22.477Z</time></trkpt><trkpt lat="44.462506" lon="7.3412629"><ele>633.2</ele><time>2026-04-28T15:53:24.487Z</time></trkpt><trkpt lat="44.4625367" lon="7.3411443"><ele>632.4</ele><time>2026-04-28T15:53:26.479Z</time></trkpt><trkpt lat="44.4625681" lon="7.341042"><ele>631.6</ele><time>2026-04-28T15:53:28.49Z</time></trkpt><trkpt lat="44.4626168" lon="7.3409198"><ele>630.8</ele><time>2026-04-28T15:53:30.477Z</time></trkpt><trkpt lat="44.4626786" lon="7.3407798"><ele>630.0</ele><time>2026-04-28T15:53:32.474Z</time></trkpt><trkpt lat="44.4627006" lon="7.3406658"><ele>630.0</ele><time>2026-04-28T15:53:34.487Z</time></trkpt><trkpt lat="44.4627217" lon="7.3405537"><ele>630.0</ele><time>2026-04-28T15:53:36.548Z</time></trkpt><trkpt lat="44.4627827" lon="7.3404449"><ele>630.0</ele><time>2026-04-28T15:53:38.475Z</time></trkpt><trkpt lat="44.4628343" lon="7.34031"><ele>630.0</ele><time>2026-04-28T15:53:40.485Z</time></trkpt><trkpt lat="44.462875" lon="7.34018"><ele>630.0</ele><time>2026-04-28T15:53:42.488Z</time></trkpt><trkpt lat="44.4628936" lon="7.3399947"><ele>631.2</ele><time>2026-04-28T15:53:44.486Z</time></trkpt><trkpt lat="44.4629081" lon="7.3398998"><ele>632.4</ele><time>2026-04-28T15:53:45.476Z</time></trkpt><trkpt lat="44.4629464" lon="7.3397366"><ele>633.6</ele><time>2026-04-28T15:53:47.475Z</time></trkpt><trkpt lat="44.462962" lon="7.3395774"><ele>634.8</ele><time>2026-04-28T15:53:49.47Z</time></trkpt><trkpt lat="44.4629672" lon="7.3394163"><ele>636.0</ele><time>2026-04-28T15:53:51.467Z</time></trkpt><trkpt lat="44.4629838" lon="7.3392588"><ele>636.0</ele><time>2026-04-28T15:53:53.481Z</time></trkpt><trkpt lat="44.4629811" lon="7.3391208"><ele>636.0</ele><time>2026-04-28T15:53:55.49Z</time></trkpt><trkpt lat="44.4629774" lon="7.3390238"><ele>636.0</ele><time>2026-04-28T15:53:56.479Z</time></trkpt><trkpt lat="44.4629908" lon="7.3389337"><ele>636.0</ele><time>2026-04-28T15:53:57.542Z</time></trkpt><trkpt lat="44.4630095" lon="7.3388391"><ele>636.0</ele><time>2026-04-28T15:53:58.497Z</time></trkpt><trkpt lat="44.4630367" lon="7.3387415"><ele>636.0</ele><time>2026-04-28T15:53:59.476Z</time></trkpt><trkpt lat="44.463066" lon="7.3386497"><ele>635.6666666666666</ele><time>2026-04-28T15:54:00.49Z</time></trkpt><trkpt lat="44.4631" lon="7.3385602"><ele>635.3333333333334</ele><time>2026-04-28T15:54:01.462Z</time></trkpt><trkpt lat="44.4631331" lon="7.3384711"><ele>635.0</ele><time>2026-04-28T15:54:02.508Z</time></trkpt><trkpt lat="44.4631592" lon="7.3383848"><ele>634.6666666666667</ele><time>2026-04-28T15:54:03.478Z</time></trkpt><trkpt lat="44.4631887" lon="7.3382996"><ele>634.3333333333334</ele><time>2026-04-28T15:54:04.479Z</time></trkpt><trkpt lat="44.4632168" lon="7.3381963"><ele>634.0</ele><time>2026-04-28T15:54:05.477Z</time></trkpt><trkpt lat="44.4632569" lon="7.3380655"><ele>632.6666666666667</ele><time>2026-04-28T15:54:06.484Z</time></trkpt><trkpt lat="44.463297" lon="7.3379431"><ele>631.3333333333334</ele><time>2026-04-28T15:54:07.476Z</time></trkpt><trkpt lat="44.463345" lon="7.3378334"><ele>630.0</ele><time>2026-04-28T15:54:08.472Z</time></trkpt><trkpt lat="44.4633813" lon="7.337735"><ele>628.6666666666666</ele><time>2026-04-28T15:54:09.478Z</time></trkpt><trkpt lat="44.4634192" lon="7.3376391"><ele>627.3333333333333</ele><time>2026-04-28T15:54:10.494Z</time></trkpt><trkpt lat="44.4634483" lon="7.3375506"><ele>626.0</ele><time>2026-04-28T15:54:11.471Z</time></trkpt><trkpt lat="44.463446" lon="7.3373646"><ele>626.0</ele><time>2026-04-28T15:54:13.483Z</time></trkpt><trkpt lat="44.4634945" lon="7.3372305"><ele>626.0</ele><time>2026-04-28T15:54:14.478Z</time></trkpt><trkpt lat="44.4635673" lon="7.3370873"><ele>626.0</ele><time>2026-04-28T15:54:15.468Z</time></trkpt><trkpt lat="44.4636146" lon="7.3369645"><ele>626.0</ele><time>2026-04-28T15:54:16.49Z</time></trkpt><trkpt lat="44.4636616" lon="7.3368478"><ele>626.0</ele><time>2026-04-28T15:54:17.482Z</time></trkpt><trkpt lat="44.4637008" lon="7.3367288"><ele>627.0</ele><time>2026-04-28T15:54:18.475Z</time></trkpt><trkpt lat="44.4637384" lon="7.3366223"><ele>628.0</ele><time>2026-04-28T15:54:19.482Z</time></trkpt><trkpt lat="44.4637591" lon="7.3365288"><ele>629.0</ele><time>2026-04-28T15:54:20.484Z</time></trkpt><trkpt lat="44.463815" lon="7.3363705"><ele>630.0</ele><time>2026-04-28T15:54:22.494Z</time></trkpt><trkpt lat="44.4638527" lon="7.3362859"><ele>631.0</ele><time>2026-04-28T15:54:23.481Z</time></trkpt><trkpt lat="44.4638915" lon="7.3361641"><ele>632.0</ele><time>2026-04-28T15:54:24.488Z</time></trkpt><trkpt lat="44.4639327" lon="7.3360207"><ele>632.0</ele><time>2026-04-28T15:54:25.482Z</time></trkpt><trkpt lat="44.4639594" lon="7.3359079"><ele>632.0</ele><time>2026-04-28T15:54:26.493Z</time></trkpt><trkpt lat="44.4640305" lon="7.3357966"><ele>632.0</ele><time>2026-04-28T15:54:28.497Z</time></trkpt><trkpt lat="44.4640876" lon="7.3356979"><ele>632.0</ele><time>2026-04-28T15:54:30.49Z</time></trkpt><trkpt lat="44.4641329" lon="7.3355817"><ele>632.0</ele><time>2026-04-28T15:54:32.481Z</time></trkpt><trkpt lat="44.4641452" lon="7.3354906"><ele>632.0</ele><time>2026-04-28T15:54:34.499Z</time></trkpt><trkpt lat="44.4641689" lon="7.3353494"><ele>630.6</ele><time>2026-04-28T15:54:36.495Z</time></trkpt><trkpt lat="44.4641994" lon="7.3351636"><ele>629.2</ele><time>2026-04-28T15:54:38.481Z</time></trkpt><trkpt lat="44.4642186" lon="7.3350399"><ele>627.8</ele><time>2026-04-28T15:54:39.478Z</time></trkpt><trkpt lat="44.4642275" lon="7.3349204"><ele>626.4</ele><time>2026-04-28T15:54:40.494Z</time></trkpt><trkpt lat="44.4642472" lon="7.3348252"><ele>625.0</ele><time>2026-04-28T15:54:41.483Z</time></trkpt><trkpt lat="44.464255" lon="7.3347269"><ele>624.1666666666667</ele><time>2026-04-28T15:54:42.485Z</time></trkpt><trkpt lat="44.4642558" lon="7.3345583"><ele>623.3333333333334</ele><time>2026-04-28T15:54:44.495Z</time></trkpt><trkpt lat="44.4642606" lon="7.3344572"><ele>622.5</ele><time>2026-04-28T15:54:45.494Z</time></trkpt><trkpt lat="44.4642499" lon="7.3343607"><ele>621.6666666666666</ele><time>2026-04-28T15:54:46.528Z</time></trkpt><trkpt lat="44.4642423" lon="7.3342607"><ele>620.8333333333333</ele><time>2026-04-28T15:54:47.499Z</time></trkpt><trkpt lat="44.4642651" lon="7.3341098"><ele>620.0</ele><time>2026-04-28T15:54:49.495Z</time></trkpt><trkpt lat="44.4642622" lon="7.3340206"><ele>620.0</ele><time>2026-04-28T15:54:50.493Z</time></trkpt><trkpt lat="44.4642697" lon="7.3337782"><ele>620.0</ele><time>2026-04-28T15:54:53.393Z</time></trkpt><trkpt lat="44.464283" lon="7.3336029"><ele>620.0</ele><time>2026-04-28T15:54:55.396Z</time></trkpt><trkpt lat="44.4643026" lon="7.3335014"><ele>620.0</ele><time>2026-04-28T15:54:57.425Z</time></trkpt><trkpt lat="44.4642124" lon="7.3334255"><ele>620.0</ele><time>2026-04-28T15:55:00.404Z</time></trkpt><trkpt lat="44.4641413" lon="7.33331"><ele>620.0</ele><time>2026-04-28T15:55:02.417Z</time></trkpt><trkpt lat="44.4640829" lon="7.3332092"><ele>620.0</ele><time>2026-04-28T15:55:04.399Z</time></trkpt><trkpt lat="44.4640685" lon="7.3330597"><ele>620.0</ele><time>2026-04-28T15:55:06.403Z</time></trkpt><trkpt lat="44.4640583" lon="7.332967"><ele>620.0</ele><time>2026-04-28T15:55:07.415Z</time></trkpt><trkpt lat="44.4640436" lon="7.3328725"><ele>620.0</ele><time>2026-04-28T15:55:08.421Z</time></trkpt><trkpt lat="44.4640334" lon="7.3327808"><ele>620.0</ele><time>2026-04-28T15:55:09.413Z</time></trkpt><trkpt lat="44.4640099" lon="7.3326902"><ele>620.0</ele><time>2026-04-28T15:55:10.48Z</time></trkpt><trkpt lat="44.4639703" lon="7.3325821"><ele>620.0</ele><time>2026-04-28T15:55:11.411Z</time></trkpt><trkpt lat="44.4639415" lon="7.3324906"><ele>620.0</ele><time>2026-04-28T15:55:12.406Z</time></trkpt><trkpt lat="44.4639098" lon="7.3324077"><ele>620.0</ele><time>2026-04-28T15:55:13.422Z</time></trkpt><trkpt lat="44.4638988" lon="7.332248"><ele>620.0</ele><time>2026-04-28T15:55:15.449Z</time></trkpt><trkpt lat="44.4639226" lon="7.3321141"><ele>620.0</ele><time>2026-04-28T15:55:17.416Z</time></trkpt><trkpt lat="44.4638692" lon="7.3320358"><ele>620.0</ele><time>2026-04-28T15:55:20.411Z</time></trkpt><trkpt lat="44.4637941" lon="7.3320777"><ele>620.0</ele><time>2026-04-28T15:55:22.4Z</time></trkpt><trkpt lat="44.4637021" lon="7.3321096"><ele>620.0</ele><time>2026-04-28T15:55:24.406Z</time></trkpt><trkpt lat="44.4636278" lon="7.3321257"><ele>620.0</ele><time>2026-04-28T15:55:26.43Z</time></trkpt><trkpt lat="44.4635441" lon="7.3321798"><ele>620.0</ele><time>2026-04-28T15:55:29.437Z</time></trkpt><trkpt lat="44.4634934" lon="7.3322395"><ele>622.5</ele><time>2026-04-28T15:55:31.437Z</time></trkpt><trkpt lat="44.4634538" lon="7.3323312"><ele>625.0</ele><time>2026-04-28T15:55:33.416Z</time></trkpt><trkpt lat="44.4634124" lon="7.3324203"><ele>627.5</ele><time>2026-04-28T15:55:35.433Z</time></trkpt><trkpt lat="44.4633388" lon="7.3324799"><ele>630.0</ele><time>2026-04-28T15:55:37.415Z</time></trkpt><trkpt lat="44.4632862" lon="7.3325715"><ele>632.5</ele><time>2026-04-28T15:55:39.433Z</time></trkpt><trkpt lat="44.4632361" lon="7.3326711"><ele>635.0</ele><time>2026-04-28T15:55:41.451Z</time></trkpt><trkpt lat="44.4631894" lon="7.3328036"><ele>635.0</ele><time>2026-04-28T15:55:43.435Z</time></trkpt><trkpt lat="44.463171" lon="7.3328978"><ele>635.0</ele><time>2026-04-28T15:55:45.421Z</time></trkpt><trkpt lat="44.4631422" lon="7.3329886"><ele>635.0</ele><time>2026-04-28T15:55:47.427Z</time></trkpt><trkpt lat="44.4631188" lon="7.3330913"><ele>635.0</ele><time>2026-04-28T15:55:49.428Z</time></trkpt><trkpt lat="44.4630921" lon="7.3331888"><ele>635.0</ele><time>2026-04-28T15:55:51.425Z</time></trkpt><trkpt lat="44.4630453" lon="7.3333141"><ele>635.0</ele><time>2026-04-28T15:55:54.424Z</time></trkpt><trkpt lat="44.4630167" lon="7.3334359"><ele>633.3333333333333</ele><time>2026-04-28T15:55:56.427Z</time></trkpt><trkpt lat="44.4629908" lon="7.333545"><ele>631.6666666666666</ele><time>2026-04-28T15:55:58.435Z</time></trkpt><trkpt lat="44.4629877" lon="7.3336782"><ele>630.0</ele><time>2026-04-28T15:56:00.421Z</time></trkpt><trkpt lat="44.4629692" lon="7.3337913"><ele>628.3333333333334</ele><time>2026-04-28T15:56:02.422Z</time></trkpt><trkpt lat="44.4629706" lon="7.3339097"><ele>626.6666666666667</ele><time>2026-04-28T15:56:04.426Z</time></trkpt><trkpt lat="44.4629646" lon="7.3340214"><ele>625.0</ele><time>2026-04-28T15:56:06.428Z</time></trkpt><trkpt lat="44.4629522" lon="7.3341514"><ele>631.4</ele><time>2026-04-28T15:56:08.432Z</time></trkpt><trkpt lat="44.4629353" lon="7.3342725"><ele>637.8</ele><time>2026-04-28T15:56:10.425Z</time></trkpt><trkpt lat="44.4629123" lon="7.3344151"><ele>644.2</ele><time>2026-04-28T15:56:12.416Z</time></trkpt><trkpt lat="44.4629005" lon="7.3345487"><ele>650.6</ele><time>2026-04-28T15:56:14.42Z</time></trkpt><trkpt lat="44.4628851" lon="7.3346592"><ele>657.0</ele><time>2026-04-28T15:56:16.436Z</time></trkpt><trkpt lat="44.4628581" lon="7.3347991"><ele>657.0</ele><time>2026-04-28T15:56:18.429Z</time></trkpt><trkpt lat="44.4628025" lon="7.3348971"><ele>657.0</ele><time>2026-04-28T15:56:20.435Z</time></trkpt><trkpt lat="44.462768" lon="7.3350316"><ele>657.0</ele><time>2026-04-28T15:56:22.431Z</time></trkpt><trkpt lat="44.4627337" lon="7.335131"><ele>657.0</ele><time>2026-04-28T15:56:23.437Z</time></trkpt><trkpt lat="44.4626992" lon="7.3352254"><ele>657.0</ele><time>2026-04-28T15:56:24.425Z</time></trkpt><trkpt lat="44.4626542" lon="7.3352979"><ele>657.0</ele><time>2026-04-28T15:56:25.46Z</time></trkpt><trkpt lat="44.4626141" lon="7.3353736"><ele>657.0</ele><time>2026-04-28T15:56:26.436Z</time></trkpt><trkpt lat="44.462545" lon="7.3355038"><ele>657.0</ele><time>2026-04-28T15:56:28.43Z</time></trkpt><trkpt lat="44.4625149" lon="7.3356367"><ele>657.0</ele><time>2026-04-28T15:56:30.435Z</time></trkpt><trkpt lat="44.4624809" lon="7.3357829"><ele>657.0</ele><time>2026-04-28T15:56:32.433Z</time></trkpt><trkpt lat="44.4624595" lon="7.3358733"><ele>657.0</ele><time>2026-04-28T15:56:33.44Z</time></trkpt><trkpt lat="44.4623962" lon="7.3360192"><ele>653.4</ele><time>2026-04-28T15:56:35.441Z</time></trkpt><trkpt lat="44.4623459" lon="7.3361557"><ele>649.8000000000001</ele><time>2026-04-28T15:56:37.436Z</time></trkpt><trkpt lat="44.4622905" lon="7.3362856"><ele>646.2</ele><time>2026-04-28T15:56:39.465Z</time></trkpt><trkpt lat="44.4622488" lon="7.3364365"><ele>642.6</ele><time>2026-04-28T15:56:41.434Z</time></trkpt><trkpt lat="44.4622099" lon="7.3365673"><ele>639.0</ele><time>2026-04-28T15:56:43.449Z</time></trkpt><trkpt lat="44.4621942" lon="7.3366827"><ele>639.8</ele><time>2026-04-28T15:56:45.519Z</time></trkpt><trkpt lat="44.462187" lon="7.3368007"><ele>640.5999999999999</ele><time>2026-04-28T15:56:47.451Z</time></trkpt><trkpt lat="44.4621787" lon="7.3369611"><ele>641.4</ele><time>2026-04-28T15:56:49.443Z</time></trkpt><trkpt lat="44.4621476" lon="7.3371141"><ele>642.1999999999999</ele><time>2026-04-28T15:56:51.439Z</time></trkpt><trkpt lat="44.4620995" lon="7.337219"><ele>643.0</ele><time>2026-04-28T15:56:53.44Z</time></trkpt><trkpt lat="44.4620777" lon="7.3373617"><ele>643.0</ele><time>2026-04-28T15:56:55.445Z</time></trkpt><trkpt lat="44.4619995" lon="7.3374918"><ele>643.0</ele><time>2026-04-28T15:56:57.453Z</time></trkpt><trkpt lat="44.4619259" lon="7.3375444"><ele>643.0</ele><time>2026-04-28T15:56:58.443Z</time></trkpt><trkpt lat="44.4618499" lon="7.3376486"><ele>643.0</ele><time>2026-04-28T15:57:00.438Z</time></trkpt><trkpt lat="44.4617954" lon="7.3377636"><ele>643.0</ele><time>2026-04-28T15:57:02.443Z</time></trkpt><trkpt lat="44.4617854" lon="7.337893"><ele>643.0</ele><time>2026-04-28T15:57:04.452Z</time></trkpt><trkpt lat="44.4617461" lon="7.3379927"><ele>643.0</ele><time>2026-04-28T15:57:06.465Z</time></trkpt><trkpt lat="44.4616713" lon="7.3380448"><ele>643.0</ele><time>2026-04-28T15:57:08.444Z</time></trkpt><trkpt lat="44.4616096" lon="7.3380922"><ele>643.0</ele><time>2026-04-28T15:57:10.446Z</time></trkpt><trkpt lat="44.4615654" lon="7.338182"><ele>643.0</ele><time>2026-04-28T15:57:12.454Z</time></trkpt><trkpt lat="44.4615372" lon="7.3382884"><ele>643.0</ele><time>2026-04-28T15:57:14.44Z</time></trkpt><trkpt lat="44.4614716" lon="7.3383872"><ele>646.2</ele><time>2026-04-28T15:57:16.465Z</time></trkpt><trkpt lat="44.4614105" lon="7.3384487"><ele>649.4</ele><time>2026-04-28T15:57:17.449Z</time></trkpt><trkpt lat="44.4613931" lon="7.3385436"><ele>652.6</ele><time>2026-04-28T15:57:18.484Z</time></trkpt><trkpt lat="44.4613294" lon="7.3386416"><ele>655.8000000000001</ele><time>2026-04-28T15:57:20.47Z</time></trkpt><trkpt lat="44.4612466" lon="7.3387627"><ele>659.0</ele><time>2026-04-28T15:57:22.449Z</time></trkpt><trkpt lat="44.461215" lon="7.3388964"><ele>659.0</ele><time>2026-04-28T15:57:24.462Z</time></trkpt><trkpt lat="44.4611929" lon="7.3390143"><ele>659.0</ele><time>2026-04-28T15:57:26.452Z</time></trkpt><trkpt lat="44.4611817" lon="7.3391214"><ele>659.0</ele><time>2026-04-28T15:57:28.461Z</time></trkpt><trkpt lat="44.4612066" lon="7.3392409"><ele>659.0</ele><time>2026-04-28T15:57:30.459Z</time></trkpt><trkpt lat="44.4612502" lon="7.339356"><ele>659.0</ele><time>2026-04-28T15:57:33.443Z</time></trkpt><trkpt lat="44.4613137" lon="7.3394643"><ele>659.0</ele><time>2026-04-28T15:57:36.454Z</time></trkpt><trkpt lat="44.461365" lon="7.3395464"><ele>652.8333333333333</ele><time>2026-04-28T15:57:38.474Z</time></trkpt><trkpt lat="44.4614188" lon="7.3396351"><ele>646.6666666666666</ele><time>2026-04-28T15:57:40.462Z</time></trkpt><trkpt lat="44.4614984" lon="7.3397676"><ele>640.5</ele><time>2026-04-28T15:57:42.507Z</time></trkpt><trkpt lat="44.4615111" lon="7.3398547"><ele>634.3333333333334</ele><time>2026-04-28T15:57:43.454Z</time></trkpt><trkpt lat="44.4615002" lon="7.3399584"><ele>628.1666666666667</ele><time>2026-04-28T15:57:44.461Z</time></trkpt><trkpt lat="44.4614643" lon="7.3400562"><ele>622.0</ele><time>2026-04-28T15:57:45.444Z</time></trkpt><trkpt lat="44.4614202" lon="7.3401679"><ele>622.0</ele><time>2026-04-28T15:57:46.466Z</time></trkpt><trkpt lat="44.4613913" lon="7.3402951"><ele>622.0</ele><time>2026-04-28T15:57:47.463Z</time></trkpt><trkpt lat="44.4613547" lon="7.3404374"><ele>622.0</ele><time>2026-04-28T15:57:48.474Z</time></trkpt><trkpt lat="44.4612932" lon="7.3405634"><ele>622.0</ele><time>2026-04-28T15:57:49.464Z</time></trkpt><trkpt lat="44.4612103" lon="7.3406877"><ele>622.0</ele><time>2026-04-28T15:57:50.466Z</time></trkpt><trkpt lat="44.4611316" lon="7.3408115"><ele>623.2</ele><time>2026-04-28T15:57:51.463Z</time></trkpt><trkpt lat="44.4610653" lon="7.3409303"><ele>624.4000000000001</ele><time>2026-04-28T15:57:52.475Z</time></trkpt><trkpt lat="44.4609953" lon="7.3410452"><ele>625.5999999999999</ele><time>2026-04-28T15:57:53.455Z</time></trkpt><trkpt lat="44.4609348" lon="7.341168"><ele>626.8</ele><time>2026-04-28T15:57:54.524Z</time></trkpt><trkpt lat="44.4608795" lon="7.3412868"><ele>628.0</ele><time>2026-04-28T15:57:55.455Z</time></trkpt><trkpt lat="44.4608381" lon="7.3414054"><ele>628.0</ele><time>2026-04-28T15:57:56.451Z</time></trkpt><trkpt lat="44.4608088" lon="7.3415187"><ele>628.0</ele><time>2026-04-28T15:57:57.467Z</time></trkpt><trkpt lat="44.4607874" lon="7.3416239"><ele>628.0</ele><time>2026-04-28T15:57:58.477Z</time></trkpt><trkpt lat="44.460761" lon="7.3417213"><ele>628.0</ele><time>2026-04-28T15:57:59.463Z</time></trkpt><trkpt lat="44.4607363" lon="7.3418188"><ele>628.0</ele><time>2026-04-28T15:58:00.532Z</time></trkpt><trkpt lat="44.4607102" lon="7.3419105"><ele>628.0</ele><time>2026-04-28T15:58:01.463Z</time></trkpt><trkpt lat="44.4606907" lon="7.342016"><ele>628.0</ele><time>2026-04-28T15:58:02.474Z</time></trkpt><trkpt lat="44.4606493" lon="7.3420867"><ele>628.0</ele><time>2026-04-28T15:58:03.45Z</time></trkpt><trkpt lat="44.4605937" lon="7.3422113"><ele>628.0</ele><time>2026-04-28T15:58:05.473Z</time></trkpt><trkpt lat="44.4605565" lon="7.3423484"><ele>628.0</ele><time>2026-04-28T15:58:07.495Z</time></trkpt><trkpt lat="44.460515" lon="7.3424706"><ele>628.0</ele><time>2026-04-28T15:58:09.47Z</time></trkpt><trkpt lat="44.4604986" lon="7.3426095"><ele>625.8</ele><time>2026-04-28T15:58:11.472Z</time></trkpt><trkpt lat="44.4604921" lon="7.342753"><ele>623.5999999999999</ele><time>2026-04-28T15:58:13.487Z</time></trkpt><trkpt lat="44.4604811" lon="7.342904"><ele>621.4000000000001</ele><time>2026-04-28T15:58:15.457Z</time></trkpt><trkpt lat="44.4604793" lon="7.343078"><ele>619.2</ele><time>2026-04-28T15:58:17.474Z</time></trkpt><trkpt lat="44.4604775" lon="7.3432327"><ele>617.0</ele><time>2026-04-28T15:58:19.472Z</time></trkpt><trkpt lat="44.4604758" lon="7.3433839"><ele>616.3333333333333</ele><time>2026-04-28T15:58:21.482Z</time></trkpt><trkpt lat="44.4604849" lon="7.3435542"><ele>615.6666666666666</ele><time>2026-04-28T15:58:23.476Z</time></trkpt><trkpt lat="44.4604961" lon="7.3436985"><ele>615.0</ele><time>2026-04-28T15:58:25.488Z</time></trkpt><trkpt lat="44.4605139" lon="7.3437847"><ele>614.3333333333334</ele><time>2026-04-28T15:58:26.483Z</time></trkpt><trkpt lat="44.460534" lon="7.3438736"><ele>613.6666666666667</ele><time>2026-04-28T15:58:27.471Z</time></trkpt><trkpt lat="44.4605575" lon="7.3439654"><ele>613.0</ele><time>2026-04-28T15:58:28.491Z</time></trkpt><trkpt lat="44.4605646" lon="7.3440965"><ele>612.6</ele><time>2026-04-28T15:58:30.512Z</time></trkpt><trkpt lat="44.4605354" lon="7.3442393"><ele>612.1999999999999</ele><time>2026-04-28T15:58:32.481Z</time></trkpt><trkpt lat="44.4605111" lon="7.3443681"><ele>611.8</ele><time>2026-04-28T15:58:34.493Z</time></trkpt><trkpt lat="44.4604824" lon="7.3444958"><ele>611.4</ele><time>2026-04-28T15:58:36.562Z</time></trkpt><trkpt lat="44.4604592" lon="7.3446166"><ele>611.0</ele><time>2026-04-28T15:58:38.474Z</time></trkpt><trkpt lat="44.4604233" lon="7.3447593"><ele>619.8</ele><time>2026-04-28T15:58:40.486Z</time></trkpt><trkpt lat="44.460378" lon="7.3448963"><ele>628.6</ele><time>2026-04-28T15:58:42.497Z</time></trkpt><trkpt lat="44.4603622" lon="7.3450227"><ele>637.4</ele><time>2026-04-28T15:58:44.511Z</time></trkpt><trkpt lat="44.4603426" lon="7.345154"><ele>646.2</ele><time>2026-04-28T15:58:46.507Z</time></trkpt><trkpt lat="44.4603131" lon="7.3452929"><ele>655.0</ele><time>2026-04-28T15:58:48.503Z</time></trkpt><trkpt lat="44.460297" lon="7.3454373"><ele>655.0</ele><time>2026-04-28T15:58:50.497Z</time></trkpt><trkpt lat="44.4602998" lon="7.345528"><ele>655.0</ele><time>2026-04-28T15:58:51.49Z</time></trkpt><trkpt lat="44.4603033" lon="7.3456778"><ele>655.0</ele><time>2026-04-28T15:58:53.495Z</time></trkpt><trkpt lat="44.4603193" lon="7.3457802"><ele>655.0</ele><time>2026-04-28T15:58:54.506Z</time></trkpt><trkpt lat="44.4603293" lon="7.3458793"><ele>655.0</ele><time>2026-04-28T15:58:55.508Z</time></trkpt><trkpt lat="44.4603451" lon="7.3460467"><ele>655.0</ele><time>2026-04-28T15:58:57.561Z</time></trkpt><trkpt lat="44.4603569" lon="7.3461397"><ele>653.6</ele><time>2026-04-28T15:58:58.502Z</time></trkpt><trkpt lat="44.4603494" lon="7.3462782"><ele>652.2</ele><time>2026-04-28T15:59:00.51Z</time></trkpt><trkpt lat="44.4603581" lon="7.3464524"><ele>650.8</ele><time>2026-04-28T15:59:02.503Z</time></trkpt><trkpt lat="44.4603437" lon="7.3465857"><ele>649.4</ele><time>2026-04-28T15:59:04.512Z</time></trkpt><trkpt lat="44.4603154" lon="7.3466944"><ele>648.0</ele><time>2026-04-28T15:59:06.539Z</time></trkpt><trkpt lat="44.4602956" lon="7.3467823"><ele>647.0</ele><time>2026-04-28T15:59:07.49Z</time></trkpt><trkpt lat="44.4602684" lon="7.3469369"><ele>646.0</ele><time>2026-04-28T15:59:09.5Z</time></trkpt><trkpt lat="44.4602535" lon="7.347093"><ele>645.0</ele><time>2026-04-28T15:59:11.549Z</time></trkpt><trkpt lat="44.4602575" lon="7.3472403"><ele>644.0</ele><time>2026-04-28T15:59:13.506Z</time></trkpt><trkpt lat="44.4602736" lon="7.347371"><ele>643.0</ele><time>2026-04-28T15:59:15.497Z</time></trkpt><trkpt lat="44.4602916" lon="7.3475085"><ele>642.25</ele><time>2026-04-28T15:59:17.508Z</time></trkpt><trkpt lat="44.4603338" lon="7.347663"><ele>641.5</ele><time>2026-04-28T15:59:19.516Z</time></trkpt><trkpt lat="44.4603757" lon="7.3478018"><ele>640.75</ele><time>2026-04-28T15:59:21.519Z</time></trkpt><trkpt lat="44.4604429" lon="7.3479233"><ele>640.0</ele><time>2026-04-28T15:59:23.573Z</time></trkpt><trkpt lat="44.4605268" lon="7.3480595"><ele>637.3333333333334</ele><time>2026-04-28T15:59:26.393Z</time></trkpt><trkpt lat="44.4605761" lon="7.3481147"><ele>634.6666666666667</ele><time>2026-04-28T15:59:27.497Z</time></trkpt><trkpt lat="44.4606501" lon="7.3482059"><ele>632.0</ele><time>2026-04-28T15:59:29.511Z</time></trkpt><trkpt lat="44.4607602" lon="7.3482999"><ele>629.3333333333334</ele><time>2026-04-28T15:59:32.409Z</time></trkpt><trkpt lat="44.4607977" lon="7.3483726"><ele>626.6666666666666</ele><time>2026-04-28T15:59:34.407Z</time></trkpt><trkpt lat="44.4608498" lon="7.3484263"><ele>624.0</ele><time>2026-04-28T15:59:36.41Z</time></trkpt><trkpt lat="44.4609075" lon="7.348548"><ele>624.0</ele><time>2026-04-28T15:59:39.409Z</time></trkpt><trkpt lat="44.4609686" lon="7.3486455"><ele>624.0</ele><time>2026-04-28T15:59:41.417Z</time></trkpt><trkpt lat="44.4610416" lon="7.3487396"><ele>624.0</ele><time>2026-04-28T15:59:43.415Z</time></trkpt><trkpt lat="44.4611098" lon="7.3488247"><ele>624.0</ele><time>2026-04-28T15:59:45.427Z</time></trkpt><trkpt lat="44.4611822" lon="7.3489126"><ele>624.0</ele><time>2026-04-28T15:59:47.486Z</time></trkpt><trkpt lat="44.4612536" lon="7.348998"><ele>624.6</ele><time>2026-04-28T15:59:49.422Z</time></trkpt><trkpt lat="44.4613275" lon="7.3490888"><ele>625.2</ele><time>2026-04-28T15:59:51.423Z</time></trkpt><trkpt lat="44.4614032" lon="7.3491838"><ele>625.8000000000001</ele><time>2026-04-28T15:59:53.427Z</time></trkpt><trkpt lat="44.4614804" lon="7.3492933"><ele>626.4</ele><time>2026-04-28T15:59:55.415Z</time></trkpt><trkpt lat="44.4615319" lon="7.3494203"><ele>627.0</ele><time>2026-04-28T15:59:57.413Z</time></trkpt><trkpt lat="44.4615664" lon="7.3495348"><ele>627.0</ele><time>2026-04-28T15:59:59.424Z</time></trkpt><trkpt lat="44.4615939" lon="7.3496475"><ele>627.0</ele><time>2026-04-28T16:00:01.435Z</time></trkpt><trkpt lat="44.461605" lon="7.3497729"><ele>627.0</ele><time>2026-04-28T16:00:03.427Z</time></trkpt><trkpt lat="44.4615873" lon="7.3498943"><ele>627.0</ele><time>2026-04-28T16:00:05.42Z</time></trkpt><trkpt lat="44.4615809" lon="7.3500222"><ele>627.0</ele><time>2026-04-28T16:00:07.427Z</time></trkpt><trkpt lat="44.4615782" lon="7.3501647"><ele>626.8000000000001</ele><time>2026-04-28T16:00:09.43Z</time></trkpt><trkpt lat="44.4615824" lon="7.350321"><ele>626.6</ele><time>2026-04-28T16:00:11.424Z</time></trkpt><trkpt lat="44.4615527" lon="7.3504554"><ele>626.4000000000001</ele><time>2026-04-28T16:00:13.434Z</time></trkpt><trkpt lat="44.461554" lon="7.3506022"><ele>626.2</ele><time>2026-04-28T16:00:15.428Z</time></trkpt><trkpt lat="44.4615426" lon="7.3507826"><ele>626.0</ele><time>2026-04-28T16:00:17.433Z</time></trkpt><trkpt lat="44.4615494" lon="7.3508848"><ele>626.0</ele><time>2026-04-28T16:00:18.425Z</time></trkpt><trkpt lat="44.4615613" lon="7.3509823"><ele>626.0</ele><time>2026-04-28T16:00:19.467Z</time></trkpt><trkpt lat="44.461578" lon="7.3510757"><ele>626.0</ele><time>2026-04-28T16:00:20.432Z</time></trkpt><trkpt lat="44.461603" lon="7.35117"><ele>626.0</ele><time>2026-04-28T16:00:21.417Z</time></trkpt><trkpt lat="44.4616275" lon="7.3512784"><ele>626.0</ele><time>2026-04-28T16:00:22.435Z</time></trkpt><trkpt lat="44.4616404" lon="7.3513835"><ele>626.0</ele><time>2026-04-28T16:00:23.414Z</time></trkpt><trkpt lat="44.4616498" lon="7.3514717"><ele>626.0</ele><time>2026-04-28T16:00:24.461Z</time></trkpt><trkpt lat="44.4616418" lon="7.3516183"><ele>625.8333333333333</ele><time>2026-04-28T16:00:26.423Z</time></trkpt><trkpt lat="44.4615974" lon="7.3517455"><ele>625.6666666666666</ele><time>2026-04-28T16:00:28.441Z</time></trkpt><trkpt lat="44.4615681" lon="7.351871"><ele>625.5</ele><time>2026-04-28T16:00:30.478Z</time></trkpt><trkpt lat="44.4615351" lon="7.3519953"><ele>625.3333333333334</ele><time>2026-04-28T16:00:32.436Z</time></trkpt><trkpt lat="44.4615199" lon="7.3520939"><ele>625.1666666666667</ele><time>2026-04-28T16:00:34.436Z</time></trkpt><trkpt lat="44.461504" lon="7.352203"><ele>625.0</ele><time>2026-04-28T16:00:36.445Z</time></trkpt><trkpt lat="44.461489" lon="7.3522901"><ele>624.8571428571429</ele><time>2026-04-28T16:00:38.464Z</time></trkpt><trkpt lat="44.461423" lon="7.3524101"><ele>624.7142857142858</ele><time>2026-04-28T16:00:41.453Z</time></trkpt><trkpt lat="44.4613626" lon="7.3523688"><ele>624.5714285714287</ele><time>2026-04-28T16:00:44.449Z</time></trkpt><trkpt lat="44.4613199" lon="7.3522929"><ele>624.4285714285714</ele><time>2026-04-28T16:00:46.441Z</time></trkpt><trkpt lat="44.4612785" lon="7.3522203"><ele>624.2857142857142</ele><time>2026-04-28T16:00:48.435Z</time></trkpt><trkpt lat="44.4612198" lon="7.3521626"><ele>624.1428571428572</ele><time>2026-04-28T16:00:51.456Z</time></trkpt><trkpt lat="44.4611621" lon="7.3521261"><ele>624.0</ele><time>2026-04-28T16:00:53.463Z</time></trkpt><trkpt lat="44.4610861" lon="7.3520818"><ele>624.8333333333334</ele><time>2026-04-28T16:00:56.456Z</time></trkpt><trkpt lat="44.4610004" lon="7.3520398"><ele>625.6666666666666</ele><time>2026-04-28T16:00:58.508Z</time></trkpt><trkpt lat="44.4609043" lon="7.3520161"><ele>626.5</ele><time>2026-04-28T16:01:01.449Z</time></trkpt><trkpt lat="44.4608426" lon="7.3519951"><ele>627.3333333333333</ele><time>2026-04-28T16:01:03.485Z</time></trkpt><trkpt lat="44.4607829" lon="7.351965"><ele>628.1666666666666</ele><time>2026-04-28T16:01:05.46Z</time></trkpt><trkpt lat="44.4607115" lon="7.3519235"><ele>629.0</ele><time>2026-04-28T16:01:07.454Z</time></trkpt><trkpt lat="44.4606589" lon="7.3518731"><ele>629.0</ele><time>2026-04-28T16:01:09.45Z</time></trkpt><trkpt lat="44.4605927" lon="7.3518529"><ele>629.0</ele><time>2026-04-28T16:01:11.459Z</time></trkpt><trkpt lat="44.4605283" lon="7.3518415"><ele>629.0</ele><time>2026-04-28T16:01:13.487Z</time></trkpt><trkpt lat="44.4604411" lon="7.3518177"><ele>629.0</ele><time>2026-04-28T16:01:16.458Z</time></trkpt><trkpt lat="44.4603781" lon="7.351801"><ele>629.0</ele><time>2026-04-28T16:01:18.45Z</time></trkpt><trkpt lat="44.4603041" lon="7.3517949"><ele>629.0</ele><time>2026-04-28T16:01:21.465Z</time></trkpt><trkpt lat="44.4602407" lon="7.3518057"><ele>629.0</ele><time>2026-04-28T16:01:23.463Z</time></trkpt><trkpt lat="44.4601595" lon="7.3517729"><ele>629.7142857142857</ele><time>2026-04-28T16:01:26.474Z</time></trkpt><trkpt lat="44.4600979" lon="7.3517467"><ele>630.4285714285714</ele><time>2026-04-28T16:01:28.463Z</time></trkpt><trkpt lat="44.4600333" lon="7.3517204"><ele>631.1428571428571</ele><time>2026-04-28T16:01:30.453Z</time></trkpt><trkpt lat="44.4599596" lon="7.3516898"><ele>631.8571428571429</ele><time>2026-04-28T16:01:32.456Z</time></trkpt><trkpt lat="44.4598824" lon="7.3516721"><ele>632.5714285714286</ele><time>2026-04-28T16:01:35.464Z</time></trkpt><trkpt lat="44.4597969" lon="7.351651"><ele>633.2857142857143</ele><time>2026-04-28T16:01:38.458Z</time></trkpt><trkpt lat="44.4597347" lon="7.3516337"><ele>634.0</ele><time>2026-04-28T16:01:40.467Z</time></trkpt><trkpt lat="44.4596459" lon="7.3516192"><ele>635.3333333333334</ele><time>2026-04-28T16:01:43.474Z</time></trkpt><trkpt lat="44.4595812" lon="7.3516063"><ele>636.6666666666667</ele><time>2026-04-28T16:01:45.472Z</time></trkpt><trkpt lat="44.4595074" lon="7.3515792"><ele>638.0</ele><time>2026-04-28T16:01:48.48Z</time></trkpt><trkpt lat="44.4594467" lon="7.3515554"><ele>639.3333333333334</ele><time>2026-04-28T16:01:50.487Z</time></trkpt><trkpt lat="44.4593615" lon="7.3515184"><ele>640.6666666666666</ele><time>2026-04-28T16:01:53.479Z</time></trkpt><trkpt lat="44.4592893" lon="7.3514762"><ele>642.0</ele><time>2026-04-28T16:01:55.468Z</time></trkpt><trkpt lat="44.4592122" lon="7.3514198"><ele>642.3333333333334</ele><time>2026-04-28T16:01:58.481Z</time></trkpt><trkpt lat="44.4591451" lon="7.3513728"><ele>642.6666666666666</ele><time>2026-04-28T16:02:00.478Z</time></trkpt><trkpt lat="44.459077" lon="7.3513017"><ele>643.0</ele><time>2026-04-28T16:02:03.466Z</time></trkpt><trkpt lat="44.4590347" lon="7.351198"><ele>643.3333333333333</ele><time>2026-04-28T16:02:06.473Z</time></trkpt><trkpt lat="44.459027" lon="7.3510688"><ele>643.6666666666666</ele><time>2026-04-28T16:02:09.462Z</time></trkpt><trkpt lat="44.4590199" lon="7.3509661"><ele>644.0</ele><time>2026-04-28T16:02:11.476Z</time></trkpt><trkpt lat="44.459033" lon="7.3508728"><ele>644.0</ele><time>2026-04-28T16:02:13.498Z</time></trkpt><trkpt lat="44.4590367" lon="7.3507547"><ele>644.0</ele><time>2026-04-28T16:02:15.485Z</time></trkpt><trkpt lat="44.4590404" lon="7.3506666"><ele>644.0</ele><time>2026-04-28T16:02:17.477Z</time></trkpt><trkpt lat="44.4590373" lon="7.350562"><ele>644.0</ele><time>2026-04-28T16:02:20.486Z</time></trkpt><trkpt lat="44.4590357" lon="7.3504371"><ele>644.0</ele><time>2026-04-28T16:02:23.497Z</time></trkpt><trkpt lat="44.4590407" lon="7.350311"><ele>644.0</ele><time>2026-04-28T16:02:26.493Z</time></trkpt><trkpt lat="44.4590411" lon="7.3501842"><ele>644.3333333333333</ele><time>2026-04-28T16:02:29.499Z</time></trkpt><trkpt lat="44.4590228" lon="7.3500896"><ele>644.6666666666666</ele><time>2026-04-28T16:02:31.489Z</time></trkpt><trkpt lat="44.458997" lon="7.3499952"><ele>645.0</ele><time>2026-04-28T16:02:33.483Z</time></trkpt><trkpt lat="44.4589554" lon="7.3499142"><ele>645.3333333333334</ele><time>2026-04-28T16:02:35.494Z</time></trkpt><trkpt lat="44.458882" lon="7.3498294"><ele>645.6666666666667</ele><time>2026-04-28T16:02:37.501Z</time></trkpt><trkpt lat="44.4587987" lon="7.3497789"><ele>646.0</ele><time>2026-04-28T16:02:40.511Z</time></trkpt><trkpt lat="44.4587148" lon="7.3497679"><ele>648.1666666666667</ele><time>2026-04-28T16:02:43.501Z</time></trkpt><trkpt lat="44.4586259" lon="7.3497566"><ele>650.3333333333334</ele><time>2026-04-28T16:02:46.517Z</time></trkpt><trkpt lat="44.4585433" lon="7.349732"><ele>652.5</ele><time>2026-04-28T16:02:49.491Z</time></trkpt><trkpt lat="44.4584773" lon="7.3497005"><ele>654.6666666666666</ele><time>2026-04-28T16:02:51.502Z</time></trkpt><trkpt lat="44.458414" lon="7.3496766"><ele>656.8333333333333</ele><time>2026-04-28T16:02:53.497Z</time></trkpt><trkpt lat="44.4583246" lon="7.349659"><ele>659.0</ele><time>2026-04-28T16:02:56.49Z</time></trkpt><trkpt lat="44.4582549" lon="7.3496202"><ele>659.1666666666666</ele><time>2026-04-28T16:02:59.506Z</time></trkpt><trkpt lat="44.4581942" lon="7.3495668"><ele>659.3333333333333</ele><time>2026-04-28T16:03:02.513Z</time></trkpt><trkpt lat="44.45814" lon="7.3494843"><ele>659.5</ele><time>2026-04-28T16:03:05.507Z</time></trkpt><trkpt lat="44.4580789" lon="7.3494234"><ele>659.6666666666666</ele><time>2026-04-28T16:03:10.514Z</time></trkpt><trkpt lat="44.4580139" lon="7.3494008"><ele>659.8333333333334</ele><time>2026-04-28T16:03:13.513Z</time></trkpt><trkpt lat="44.4579433" lon="7.3493558"><ele>660.0</ele><time>2026-04-28T16:03:16.52Z</time></trkpt><trkpt lat="44.4578696" lon="7.3493104"><ele>661.6666666666666</ele><time>2026-04-28T16:03:18.531Z</time></trkpt><trkpt lat="44.4577994" lon="7.3492302"><ele>663.3333333333334</ele><time>2026-04-28T16:03:21.501Z</time></trkpt><trkpt lat="44.4577491" lon="7.3491606"><ele>665.0</ele><time>2026-04-28T16:03:23.498Z</time></trkpt><trkpt lat="44.4577044" lon="7.3490939"><ele>666.6666666666667</ele><time>2026-04-28T16:03:25.506Z</time></trkpt><trkpt lat="44.4576363" lon="7.3490395"><ele>668.3333333333334</ele><time>2026-04-28T16:03:28.411Z</time></trkpt><trkpt lat="44.4575765" lon="7.3489758"><ele>670.0</ele><time>2026-04-28T16:03:31.412Z</time></trkpt><trkpt lat="44.457507" lon="7.3489178"><ele>670.0</ele><time>2026-04-28T16:03:34.399Z</time></trkpt><trkpt lat="44.4574324" lon="7.3488795"><ele>670.0</ele><time>2026-04-28T16:03:39.408Z</time></trkpt><trkpt lat="44.4573746" lon="7.3488226"><ele>670.0</ele><time>2026-04-28T16:03:43.401Z</time></trkpt><trkpt lat="44.4572935" lon="7.3488011"><ele>670.0</ele><time>2026-04-28T16:03:47.407Z</time></trkpt><trkpt lat="44.4572324" lon="7.3487419"><ele>670.0</ele><time>2026-04-28T16:03:51.407Z</time></trkpt><trkpt lat="44.4571536" lon="7.3486954"><ele>670.0</ele><time>2026-04-28T16:03:55.414Z</time></trkpt><trkpt lat="44.4570872" lon="7.3486127"><ele>671.4285714285713</ele><time>2026-04-28T16:03:58.4Z</time></trkpt><trkpt lat="44.4570345" lon="7.3485206"><ele>672.8571428571429</ele><time>2026-04-28T16:04:01.482Z</time></trkpt><trkpt lat="44.4569919" lon="7.3484292"><ele>674.2857142857142</ele><time>2026-04-28T16:04:04.417Z</time></trkpt><trkpt lat="44.4569827" lon="7.3483217"><ele>675.7142857142857</ele><time>2026-04-28T16:04:07.423Z</time></trkpt><trkpt lat="44.4569512" lon="7.3482363"><ele>677.1428571428571</ele><time>2026-04-28T16:04:10.432Z</time></trkpt><trkpt lat="44.4569419" lon="7.348131"><ele>678.5714285714286</ele><time>2026-04-28T16:04:14.428Z</time></trkpt><trkpt lat="44.4569292" lon="7.3480433"><ele>680.0</ele><time>2026-04-28T16:04:17.424Z</time></trkpt><trkpt lat="44.4568857" lon="7.3479471"><ele>681.2857142857143</ele><time>2026-04-28T16:04:21.437Z</time></trkpt><trkpt lat="44.4568377" lon="7.3478669"><ele>682.5714285714286</ele><time>2026-04-28T16:04:24.418Z</time></trkpt><trkpt lat="44.4567918" lon="7.3477877"><ele>683.8571428571429</ele><time>2026-04-28T16:04:28.421Z</time></trkpt><trkpt lat="44.456746" lon="7.3477191"><ele>685.1428571428571</ele><time>2026-04-28T16:04:31.425Z</time></trkpt><trkpt lat="44.4567048" lon="7.3476183"><ele>686.4285714285714</ele><time>2026-04-28T16:04:36.437Z</time></trkpt><trkpt lat="44.4566612" lon="7.347528"><ele>687.7142857142857</ele><time>2026-04-28T16:04:40.473Z</time></trkpt><trkpt lat="44.4566033" lon="7.3474863"><ele>689.0</ele><time>2026-04-28T16:04:43.442Z</time></trkpt><trkpt lat="44.456521" lon="7.3474733"><ele>689.0</ele><time>2026-04-28T16:04:46.442Z</time></trkpt><trkpt lat="44.4564371" lon="7.3474411"><ele>689.0</ele><time>2026-04-28T16:04:49.458Z</time></trkpt><trkpt lat="44.4563644" lon="7.3474035"><ele>689.0</ele><time>2026-04-28T16:04:52.447Z</time></trkpt><trkpt lat="44.4562806" lon="7.347351"><ele>689.0</ele><time>2026-04-28T16:04:55.516Z</time></trkpt><trkpt lat="44.4562145" lon="7.3473361"><ele>689.0</ele><time>2026-04-28T16:04:57.44Z</time></trkpt><trkpt lat="44.4561393" lon="7.3473063"><ele>689.0</ele><time>2026-04-28T16:05:00.443Z</time></trkpt><trkpt lat="44.4560709" lon="7.3473087"><ele>689.3333333333333</ele><time>2026-04-28T16:05:03.453Z</time></trkpt><trkpt lat="44.4559973" lon="7.3473131"><ele>689.6666666666666</ele><time>2026-04-28T16:05:06.446Z</time></trkpt><trkpt lat="44.4559157" lon="7.3473273"><ele>690.0</ele><time>2026-04-28T16:05:09.448Z</time></trkpt><trkpt lat="44.4558528" lon="7.3472924"><ele>690.3333333333334</ele><time>2026-04-28T16:05:12.509Z</time></trkpt><trkpt lat="44.4557768" lon="7.3472848"><ele>690.6666666666667</ele><time>2026-04-28T16:05:15.442Z</time></trkpt><trkpt lat="44.4556966" lon="7.347317"><ele>691.0</ele><time>2026-04-28T16:05:18.448Z</time></trkpt><trkpt lat="44.455622" lon="7.3473247"><ele>690.9999999999999</ele><time>2026-04-28T16:05:21.52Z</time></trkpt><trkpt lat="44.4555439" lon="7.3472912"><ele>691.0</ele><time>2026-04-28T16:05:25.454Z</time></trkpt><trkpt lat="44.4554681" lon="7.3472856"><ele>691.0</ele><time>2026-04-28T16:05:28.446Z</time></trkpt><trkpt lat="44.4553906" lon="7.3472964"><ele>691.0</ele><time>2026-04-28T16:05:31.457Z</time></trkpt><trkpt lat="44.4553209" lon="7.3473121"><ele>691.0</ele><time>2026-04-28T16:05:34.462Z</time></trkpt><trkpt lat="44.4552576" lon="7.347308"><ele>690.9999999999999</ele><time>2026-04-28T16:05:37.463Z</time></trkpt><trkpt lat="44.4551943" lon="7.347316"><ele>691.0</ele><time>2026-04-28T16:05:40.47Z</time></trkpt><trkpt lat="44.4551022" lon="7.3472742"><ele>692.5</ele><time>2026-04-28T16:05:44.465Z</time></trkpt><trkpt lat="44.4550223" lon="7.3472907"><ele>694.0</ele><time>2026-04-28T16:05:47.466Z</time></trkpt><trkpt lat="44.4549501" lon="7.3473394"><ele>695.5</ele><time>2026-04-28T16:05:51.471Z</time></trkpt><trkpt lat="44.4548887" lon="7.347417"><ele>697.0</ele><time>2026-04-28T16:05:54.48Z</time></trkpt><trkpt lat="44.4548126" lon="7.3474565"><ele>698.5</ele><time>2026-04-28T16:05:56.476Z</time></trkpt><trkpt lat="44.4547094" lon="7.3474167"><ele>700.0</ele><time>2026-04-28T16:05:58.468Z</time></trkpt><trkpt lat="44.4546321" lon="7.3473861"><ele>702.0</ele><time>2026-04-28T16:06:00.487Z</time></trkpt><trkpt lat="44.4545667" lon="7.3473523"><ele>704.0</ele><time>2026-04-28T16:06:02.471Z</time></trkpt><trkpt lat="44.4544752" lon="7.3473825"><ele>706.0</ele><time>2026-04-28T16:06:05.471Z</time></trkpt><trkpt lat="44.4543801" lon="7.3473747"><ele>708.0</ele><time>2026-04-28T16:06:08.481Z</time></trkpt><trkpt lat="44.4542836" lon="7.34732"><ele>710.0</ele><time>2026-04-28T16:06:10.482Z</time></trkpt><trkpt lat="44.45422" lon="7.3473155"><ele>712.0</ele><time>2026-04-28T16:06:12.483Z</time></trkpt><trkpt lat="44.4541561" lon="7.3473383"><ele>711.9999999999999</ele><time>2026-04-28T16:06:15.474Z</time></trkpt><trkpt lat="44.4540698" lon="7.3473537"><ele>712.0</ele><time>2026-04-28T16:06:18.484Z</time></trkpt><trkpt lat="44.4540051" lon="7.3473179"><ele>712.0</ele><time>2026-04-28T16:06:21.465Z</time></trkpt><trkpt lat="44.4539437" lon="7.3472887"><ele>712.0</ele><time>2026-04-28T16:06:24.521Z</time></trkpt><trkpt lat="44.4538717" lon="7.3472389"><ele>712.0</ele><time>2026-04-28T16:06:29.465Z</time></trkpt><trkpt lat="44.4537974" lon="7.3472179"><ele>711.9999999999999</ele><time>2026-04-28T16:06:33.473Z</time></trkpt><trkpt lat="44.4537293" lon="7.3471983"><ele>712.0</ele><time>2026-04-28T16:06:36.515Z</time></trkpt><trkpt lat="44.4536725" lon="7.3471446"><ele>713.3333333333334</ele><time>2026-04-28T16:06:39.466Z</time></trkpt><trkpt lat="44.453586" lon="7.3471034"><ele>714.6666666666667</ele><time>2026-04-28T16:06:42.489Z</time></trkpt><trkpt lat="44.453523" lon="7.3471105"><ele>716.0</ele><time>2026-04-28T16:06:44.473Z</time></trkpt><trkpt lat="44.4534129" lon="7.3470328"><ele>717.3333333333334</ele><time>2026-04-28T16:06:48.475Z</time></trkpt><trkpt lat="44.4533597" lon="7.3469801"><ele>718.6666666666666</ele><time>2026-04-28T16:06:58.484Z</time></trkpt><trkpt lat="44.4532773" lon="7.3469089"><ele>720.0</ele><time>2026-04-28T16:07:00.499Z</time></trkpt><trkpt lat="44.4532044" lon="7.3469312"><ele>720.0</ele><time>2026-04-28T16:07:05.484Z</time></trkpt><trkpt lat="44.453135" lon="7.3468987"><ele>720.0</ele><time>2026-04-28T16:07:09.489Z</time></trkpt><trkpt lat="44.4530581" lon="7.3468667"><ele>720.0</ele><time>2026-04-28T16:07:12.498Z</time></trkpt><trkpt lat="44.4529888" lon="7.3468776"><ele>720.0</ele><time>2026-04-28T16:07:14.545Z</time></trkpt><trkpt lat="44.4529194" lon="7.346855"><ele>720.0</ele><time>2026-04-28T16:07:16.501Z</time></trkpt><trkpt lat="44.4528565" lon="7.3468446"><ele>720.0</ele><time>2026-04-28T16:07:20.499Z</time></trkpt><trkpt lat="44.4527946" lon="7.3469143"><ele>720.0</ele><time>2026-04-28T16:07:24.491Z</time></trkpt><trkpt lat="44.4527307" lon="7.3469195"><ele>721.3333333333334</ele><time>2026-04-28T16:07:28.5Z</time></trkpt><trkpt lat="44.4526691" lon="7.3468896"><ele>722.6666666666666</ele><time>2026-04-28T16:07:30.491Z</time></trkpt><trkpt lat="44.4525907" lon="7.3468029"><ele>724.0</ele><time>2026-04-28T16:07:33.491Z</time></trkpt><trkpt lat="44.452511" lon="7.3467932"><ele>725.3333333333333</ele><time>2026-04-28T16:07:35.522Z</time></trkpt><trkpt lat="44.4524291" lon="7.3467789"><ele>726.6666666666666</ele><time>2026-04-28T16:07:39.492Z</time></trkpt><trkpt lat="44.4523562" lon="7.3467718"><ele>728.0</ele><time>2026-04-28T16:07:43.495Z</time></trkpt><trkpt lat="44.4522889" lon="7.3468364"><ele>728.0</ele><time>2026-04-28T16:07:47.489Z</time></trkpt><trkpt lat="44.4522669" lon="7.3469302"><ele>728.0</ele><time>2026-04-28T16:07:49.484Z</time></trkpt><trkpt lat="44.4521955" lon="7.3470044"><ele>728.0</ele><time>2026-04-28T16:07:51.4Z</time></trkpt><trkpt lat="44.4521113" lon="7.3470201"><ele>728.0</ele><time>2026-04-28T16:07:54.492Z</time></trkpt><trkpt lat="44.4520293" lon="7.3470422"><ele>728.0</ele><time>2026-04-28T16:07:57.485Z</time></trkpt><trkpt lat="44.4519701" lon="7.346957"><ele>728.0</ele><time>2026-04-28T16:08:00.517Z</time></trkpt><trkpt lat="44.451931" lon="7.346886"><ele>729.5999999999999</ele><time>2026-04-28T16:08:04.393Z</time></trkpt><trkpt lat="44.4518718" lon="7.3468377"><ele>731.1999999999999</ele><time>2026-04-28T16:08:06.499Z</time></trkpt><trkpt lat="44.4517602" lon="7.346798"><ele>732.8</ele><time>2026-04-28T16:08:12.381Z</time></trkpt><trkpt lat="44.4516763" lon="7.3467857"><ele>734.4</ele><time>2026-04-28T16:08:15.491Z</time></trkpt><trkpt lat="44.4515826" lon="7.3467532"><ele>736.0</ele><time>2026-04-28T16:08:19.399Z</time></trkpt><trkpt lat="44.4515017" lon="7.3466819"><ele>736.0</ele><time>2026-04-28T16:08:22.493Z</time></trkpt><trkpt lat="44.4514174" lon="7.3467145"><ele>736.0</ele><time>2026-04-28T16:08:26.396Z</time></trkpt><trkpt lat="44.4513456" lon="7.3467541"><ele>736.0</ele><time>2026-04-28T16:08:29.492Z</time></trkpt><trkpt lat="44.4512786" lon="7.3466856"><ele>736.0</ele><time>2026-04-28T16:08:33.388Z</time></trkpt><trkpt lat="44.4512118" lon="7.3466385"><ele>736.0</ele><time>2026-04-28T16:08:38.501Z</time></trkpt><trkpt lat="44.4511469" lon="7.3466383"><ele>736.0</ele><time>2026-04-28T16:08:40.5Z</time></trkpt><trkpt lat="44.4510893" lon="7.3465961"><ele>738.0</ele><time>2026-04-28T16:08:43.49Z</time></trkpt><trkpt lat="44.4510554" lon="7.3466734"><ele>740.0</ele><time>2026-04-28T16:08:52.493Z</time></trkpt><trkpt lat="44.4510029" lon="7.3466057"><ele>742.0</ele><time>2026-04-28T16:08:55.502Z</time></trkpt><trkpt lat="44.4509725" lon="7.3465213"><ele>744.0</ele><time>2026-04-28T16:08:58.498Z</time></trkpt><trkpt lat="44.4509082" lon="7.3464791"><ele>746.0</ele><time>2026-04-28T16:09:03.485Z</time></trkpt><trkpt lat="44.4508134" lon="7.3464778"><ele>748.0</ele><time>2026-04-28T16:09:06.506Z</time></trkpt><trkpt lat="44.4507597" lon="7.3464219"><ele>750.0</ele><time>2026-04-28T16:09:08.487Z</time></trkpt><trkpt lat="44.450719" lon="7.3462663"><ele>751.3333333333334</ele><time>2026-04-28T16:09:10.499Z</time></trkpt><trkpt lat="44.450745" lon="7.3461832"><ele>752.6666666666666</ele><time>2026-04-28T16:09:12.479Z</time></trkpt><trkpt lat="44.4506884" lon="7.3461084"><ele>754.0</ele><time>2026-04-28T16:09:15.472Z</time></trkpt><trkpt lat="44.4506097" lon="7.3461123"><ele>755.3333333333333</ele><time>2026-04-28T16:09:22.491Z</time></trkpt><trkpt lat="44.450542" lon="7.346019"><ele>756.6666666666666</ele><time>2026-04-28T16:09:24.491Z</time></trkpt><trkpt lat="44.4504676" lon="7.3460321"><ele>758.0</ele><time>2026-04-28T16:09:27.484Z</time></trkpt><trkpt lat="44.4504138" lon="7.3459784"><ele>758.8333333333333</ele><time>2026-04-28T16:09:31.478Z</time></trkpt><trkpt lat="44.4503765" lon="7.3458871"><ele>759.6666666666666</ele><time>2026-04-28T16:09:33.491Z</time></trkpt><trkpt lat="44.4502949" lon="7.3458968"><ele>760.5</ele><time>2026-04-28T16:09:36.485Z</time></trkpt><trkpt lat="44.4502453" lon="7.3458113"><ele>761.3333333333334</ele><time>2026-04-28T16:09:39.482Z</time></trkpt><trkpt lat="44.4502164" lon="7.3459053"><ele>762.1666666666667</ele><time>2026-04-28T16:09:45.463Z</time></trkpt><trkpt lat="44.4502323" lon="7.3459937"><ele>763.0</ele><time>2026-04-28T16:09:47.469Z</time></trkpt><trkpt lat="44.4501443" lon="7.3459212"><ele>763.0</ele><time>2026-04-28T16:09:50.474Z</time></trkpt><trkpt lat="44.4500789" lon="7.3459357"><ele>763.0</ele><time>2026-04-28T16:09:57.461Z</time></trkpt><trkpt lat="44.4500094" lon="7.3458914"><ele>763.0</ele><time>2026-04-28T16:10:00.477Z</time></trkpt><trkpt lat="44.4499262" lon="7.3458035"><ele>763.0</ele><time>2026-04-28T16:10:02.478Z</time></trkpt><trkpt lat="44.449871" lon="7.3457443"><ele>763.0</ele><time>2026-04-28T16:10:04.496Z</time></trkpt><trkpt lat="44.4498002" lon="7.3457174"><ele>763.0</ele><time>2026-04-28T16:10:06.476Z</time></trkpt><trkpt lat="44.4497395" lon="7.3457703"><ele>763.0</ele><time>2026-04-28T16:10:10.488Z</time></trkpt><trkpt lat="44.4497143" lon="7.3456628"><ele>763.0</ele><time>2026-04-28T16:10:18.478Z</time></trkpt><trkpt lat="44.4496188" lon="7.345659"><ele>763.0</ele><time>2026-04-28T16:10:22.481Z</time></trkpt><trkpt lat="44.4495206" lon="7.3456595"><ele>763.0</ele><time>2026-04-28T16:10:25.453Z</time></trkpt><trkpt lat="44.449417" lon="7.3455791"><ele>763.0</ele><time>2026-04-28T16:10:27.475Z</time></trkpt><trkpt lat="44.4493691" lon="7.3455218"><ele>764.8333333333334</ele><time>2026-04-28T16:10:30.493Z</time></trkpt><trkpt lat="44.4493034" lon="7.3455309"><ele>766.6666666666667</ele><time>2026-04-28T16:10:36.485Z</time></trkpt><trkpt lat="44.4492256" lon="7.3454808"><ele>768.5</ele><time>2026-04-28T16:10:41.471Z</time></trkpt><trkpt lat="44.4491809" lon="7.3454117"><ele>770.3333333333334</ele><time>2026-04-28T16:10:43.462Z</time></trkpt><trkpt lat="44.4491073" lon="7.3454931"><ele>772.1666666666666</ele><time>2026-04-28T16:10:46.476Z</time></trkpt><trkpt lat="44.4490417" lon="7.3455487"><ele>774.0</ele><time>2026-04-28T16:10:53.473Z</time></trkpt><trkpt lat="44.4489767" lon="7.3455866"><ele>774.0</ele><time>2026-04-28T16:10:56.472Z</time></trkpt><trkpt lat="44.4489215" lon="7.3456347"><ele>774.0</ele><time>2026-04-28T16:10:58.466Z</time></trkpt><trkpt lat="44.44886" lon="7.3457307"><ele>774.0</ele><time>2026-04-28T16:11:00.482Z</time></trkpt><trkpt lat="44.4487798" lon="7.3457462"><ele>774.0</ele><time>2026-04-28T16:11:03.464Z</time></trkpt><trkpt lat="44.4488352" lon="7.3456814"><ele>774.0</ele><time>2026-04-28T16:11:14.47Z</time></trkpt><trkpt lat="44.4488988" lon="7.3456531"><ele>774.0</ele><time>2026-04-28T16:11:18.48Z</time></trkpt><trkpt lat="44.4489409" lon="7.3455581"><ele>776.2857142857143</ele><time>2026-04-28T16:11:26.478Z</time></trkpt><trkpt lat="44.4490048" lon="7.3454964"><ele>778.5714285714287</ele><time>2026-04-28T16:11:30.47Z</time></trkpt><trkpt lat="44.4490609" lon="7.3454288"><ele>780.8571428571429</ele><time>2026-04-28T16:11:34.482Z</time></trkpt><trkpt lat="44.4491095" lon="7.3453702"><ele>783.1428571428571</ele><time>2026-04-28T16:11:39.471Z</time></trkpt><trkpt lat="44.4491873" lon="7.3453491"><ele>785.4285714285714</ele><time>2026-04-28T16:11:43.454Z</time></trkpt><trkpt lat="44.4492647" lon="7.3453038"><ele>787.7142857142857</ele><time>2026-04-28T16:11:46.468Z</time></trkpt><trkpt lat="44.449331" lon="7.3452923"><ele>790.0</ele><time>2026-04-28T16:11:51.462Z</time></trkpt><trkpt lat="44.4493817" lon="7.3452151"><ele>790.0</ele><time>2026-04-28T16:11:54.481Z</time></trkpt><trkpt lat="44.4494248" lon="7.3451449"><ele>790.0</ele><time>2026-04-28T16:11:56.472Z</time></trkpt><trkpt lat="44.4494891" lon="7.3450848"><ele>790.0</ele><time>2026-04-28T16:11:59.477Z</time></trkpt><trkpt lat="44.4495331" lon="7.3451595"><ele>790.0</ele><time>2026-04-28T16:12:04.452Z</time></trkpt><trkpt lat="44.4494592" lon="7.3451197"><ele>790.0</ele><time>2026-04-28T16:12:23.448Z</time></trkpt><trkpt lat="44.4494147" lon="7.3450525"><ele>790.0</ele><time>2026-04-28T16:12:27.447Z</time></trkpt><trkpt lat="44.4493631" lon="7.3451402"><ele>790.0</ele><time>2026-04-28T16:12:34.446Z</time></trkpt><trkpt lat="44.4492772" lon="7.3451383"><ele>790.0</ele><time>2026-04-28T16:12:36.46Z</time></trkpt><trkpt lat="44.449208" lon="7.3451108"><ele>790.0</ele><time>2026-04-28T16:12:39.451Z</time></trkpt><trkpt lat="44.4491234" lon="7.3451073"><ele>790.0</ele><time>2026-04-28T16:12:45.454Z</time></trkpt><trkpt lat="44.4490637" lon="7.3450612"><ele>790.0</ele><time>2026-04-28T16:12:50.448Z</time></trkpt><trkpt lat="44.4489964" lon="7.3450237"><ele>790.0</ele><time>2026-04-28T16:12:55.452Z</time></trkpt><trkpt lat="44.4489437" lon="7.3449642"><ele>790.0</ele><time>2026-04-28T16:13:02.444Z</time></trkpt><trkpt lat="44.4488807" lon="7.3449169"><ele>790.0</ele><time>2026-04-28T16:13:06.468Z</time></trkpt><trkpt lat="44.4488031" lon="7.3448866"><ele>790.4285714285714</ele><time>2026-04-28T16:13:10.452Z</time></trkpt><trkpt lat="44.4487334" lon="7.3448701"><ele>790.8571428571429</ele><time>2026-04-28T16:13:13.451Z</time></trkpt><trkpt lat="44.4486699" lon="7.3448095"><ele>791.2857142857143</ele><time>2026-04-28T16:13:19.452Z</time></trkpt><trkpt lat="44.4486352" lon="7.3447245"><ele>791.7142857142858</ele><time>2026-04-28T16:13:23.448Z</time></trkpt><trkpt lat="44.4485789" lon="7.3446692"><ele>792.1428571428571</ele><time>2026-04-28T16:13:27.47Z</time></trkpt><trkpt lat="44.4485157" lon="7.3446595"><ele>792.5714285714287</ele><time>2026-04-28T16:13:30.438Z</time></trkpt><trkpt lat="44.448444" lon="7.3446357"><ele>793.0</ele><time>2026-04-28T16:13:32.486Z</time></trkpt><trkpt lat="44.4483803" lon="7.3446042"><ele>798.8333333333333</ele><time>2026-04-28T16:13:35.434Z</time></trkpt><trkpt lat="44.4483216" lon="7.3445691"><ele>804.6666666666666</ele><time>2026-04-28T16:13:40.447Z</time></trkpt><trkpt lat="44.4482215" lon="7.3445686"><ele>810.5</ele><time>2026-04-28T16:13:41.435Z</time></trkpt><trkpt lat="44.4481362" lon="7.3445878"><ele>816.3333333333333</ele><time>2026-04-28T16:13:43.449Z</time></trkpt><trkpt lat="44.44807" lon="7.3445595"><ele>822.1666666666666</ele><time>2026-04-28T16:13:46.452Z</time></trkpt><trkpt lat="44.4480054" lon="7.3445872"><ele>828.0</ele><time>2026-04-28T16:13:49.461Z</time></trkpt><trkpt lat="44.4479561" lon="7.3445192"><ele>828.0000000000001</ele><time>2026-04-28T16:13:53.435Z</time></trkpt><trkpt lat="44.4478981" lon="7.3444838"><ele>828.0</ele><time>2026-04-28T16:13:55.445Z</time></trkpt><trkpt lat="44.4478247" lon="7.3444552"><ele>828.0</ele><time>2026-04-28T16:13:58.472Z</time></trkpt><trkpt lat="44.4477293" lon="7.3444401"><ele>828.0</ele><time>2026-04-28T16:14:00.444Z</time></trkpt><trkpt lat="44.4476642" lon="7.3444037"><ele>828.0</ele><time>2026-04-28T16:14:04.444Z</time></trkpt><trkpt lat="44.4476084" lon="7.3443516"><ele>828.0000000000001</ele><time>2026-04-28T16:14:16.446Z</time></trkpt><trkpt lat="44.4475464" lon="7.3443896"><ele>828.0</ele><time>2026-04-28T16:14:19.434Z</time></trkpt><trkpt lat="44.4474792" lon="7.3443703"><ele>828.0000000000001</ele><time>2026-04-28T16:14:23.428Z</time></trkpt><trkpt lat="44.4474183" lon="7.3443224"><ele>828.0</ele><time>2026-04-28T16:14:28.428Z</time></trkpt><trkpt lat="44.4473544" lon="7.344287"><ele>828.0</ele><time>2026-04-28T16:14:33.436Z</time></trkpt><trkpt lat="44.4472976" lon="7.3442464"><ele>828.0</ele><time>2026-04-28T16:14:36.466Z</time></trkpt><trkpt lat="44.4472337" lon="7.344217"><ele>828.0</ele><time>2026-04-28T16:14:39.432Z</time></trkpt><trkpt lat="44.4471629" lon="7.3441858"><ele>828.0000000000001</ele><time>2026-04-28T16:14:44.439Z</time></trkpt><trkpt lat="44.4470943" lon="7.3441448"><ele>828.0</ele><time>2026-04-28T16:14:48.431Z</time></trkpt><trkpt lat="44.4470483" lon="7.3440609"><ele>828.0000000000001</ele><time>2026-04-28T16:14:53.424Z</time></trkpt><trkpt lat="44.4469852" lon="7.3440023"><ele>828.0</ele><time>2026-04-28T16:14:58.437Z</time></trkpt><trkpt lat="44.4469319" lon="7.3439526"><ele>828.0</ele><time>2026-04-28T16:15:01.448Z</time></trkpt><trkpt lat="44.4469166" lon="7.3438439"><ele>828.0</ele><time>2026-04-28T16:15:04.478Z</time></trkpt><trkpt lat="44.446942" lon="7.3437484"><ele>828.0</ele><time>2026-04-28T16:15:06.417Z</time></trkpt><trkpt lat="44.4469282" lon="7.3436608"><ele>828.0000000000001</ele><time>2026-04-28T16:15:08.439Z</time></trkpt><trkpt lat="44.446861" lon="7.3436105"><ele>828.0</ele><time>2026-04-28T16:15:13.432Z</time></trkpt><trkpt lat="44.4467927" lon="7.3436194"><ele>831.8571428571429</ele><time>2026-04-28T16:15:16.425Z</time></trkpt><trkpt lat="44.4467283" lon="7.3436787"><ele>835.7142857142858</ele><time>2026-04-28T16:15:20.427Z</time></trkpt><trkpt lat="44.4466534" lon="7.343709"><ele>839.5714285714287</ele><time>2026-04-28T16:15:24.425Z</time></trkpt><trkpt lat="44.4465941" lon="7.3436672"><ele>843.4285714285714</ele><time>2026-04-28T16:15:31.422Z</time></trkpt><trkpt lat="44.446528" lon="7.3436939"><ele>847.2857142857142</ele><time>2026-04-28T16:15:34.414Z</time></trkpt><trkpt lat="44.4464641" lon="7.3437106"><ele>851.1428571428572</ele><time>2026-04-28T16:15:38.428Z</time></trkpt><trkpt lat="44.4464024" lon="7.3436479"><ele>855.0</ele><time>2026-04-28T16:15:43.424Z</time></trkpt><trkpt lat="44.4463791" lon="7.3435622"><ele>855.0</ele><time>2026-04-28T16:15:47.431Z</time></trkpt><trkpt lat="44.4463131" lon="7.3434704"><ele>855.0</ele><time>2026-04-28T16:15:50.444Z</time></trkpt><trkpt lat="44.4462385" lon="7.3434311"><ele>855.0</ele><time>2026-04-28T16:15:53.425Z</time></trkpt><trkpt lat="44.4461962" lon="7.3433578"><ele>855.0</ele><time>2026-04-28T16:15:56.424Z</time></trkpt><trkpt lat="44.446123" lon="7.3432979"><ele>855.0</ele><time>2026-04-28T16:15:59.429Z</time></trkpt><trkpt lat="44.4460542" lon="7.343252"><ele>855.0</ele><time>2026-04-28T16:16:02.409Z</time></trkpt><trkpt lat="44.4459944" lon="7.3432022"><ele>853.5714285714286</ele><time>2026-04-28T16:16:08.42Z</time></trkpt><trkpt lat="44.4459276" lon="7.3431699"><ele>852.1428571428571</ele><time>2026-04-28T16:16:12.428Z</time></trkpt><trkpt lat="44.4458626" lon="7.3431496"><ele>850.7142857142857</ele><time>2026-04-28T16:16:16.425Z</time></trkpt><trkpt lat="44.4458139" lon="7.343092"><ele>849.2857142857142</ele><time>2026-04-28T16:16:21.43Z</time></trkpt><trkpt lat="44.4457409" lon="7.3430963"><ele>847.8571428571429</ele><time>2026-04-28T16:16:26.418Z</time></trkpt><trkpt lat="44.4456798" lon="7.3430679"><ele>846.4285714285713</ele><time>2026-04-28T16:16:29.416Z</time></trkpt><trkpt lat="44.4456145" lon="7.3430589"><ele>845.0</ele><time>2026-04-28T16:16:33.419Z</time></trkpt><trkpt lat="44.4455517" lon="7.3430426"><ele>845.2857142857142</ele><time>2026-04-28T16:16:38.411Z</time></trkpt><trkpt lat="44.4454877" lon="7.3430051"><ele>845.5714285714286</ele><time>2026-04-28T16:16:42.411Z</time></trkpt><trkpt lat="44.4454377" lon="7.342949"><ele>845.8571428571429</ele><time>2026-04-28T16:16:46.418Z</time></trkpt><trkpt lat="44.4453747" lon="7.3429599"><ele>846.1428571428571</ele><time>2026-04-28T16:16:50.428Z</time></trkpt><trkpt lat="44.445285" lon="7.3429746"><ele>846.4285714285714</ele><time>2026-04-28T16:17:01.423Z</time></trkpt><trkpt lat="44.4453006" lon="7.343062"><ele>846.7142857142857</ele><time>2026-04-28T16:17:06.406Z</time></trkpt><trkpt lat="44.4453607" lon="7.3431347"><ele>847.0</ele><time>2026-04-28T16:17:13.416Z</time></trkpt><trkpt lat="44.4454351" lon="7.3431374"><ele>846.6666666666666</ele><time>2026-04-28T16:17:19.43Z</time></trkpt><trkpt lat="44.4455104" lon="7.3431452"><ele>846.3333333333333</ele><time>2026-04-28T16:17:25.42Z</time></trkpt><trkpt lat="44.4455725" lon="7.3431295"><ele>846.0</ele><time>2026-04-28T16:17:28.408Z</time></trkpt><trkpt lat="44.4456405" lon="7.3431259"><ele>845.6666666666667</ele><time>2026-04-28T16:17:31.408Z</time></trkpt><trkpt lat="44.4457081" lon="7.3431404"><ele>845.3333333333334</ele><time>2026-04-28T16:17:34.418Z</time></trkpt><trkpt lat="44.4458396" lon="7.343056"><ele>845.0</ele><time>2026-04-28T16:17:37.467Z</time></trkpt><trkpt lat="44.4459134" lon="7.3430126"><ele>849.9999999999999</ele><time>2026-04-28T16:17:38.411Z</time></trkpt><trkpt lat="44.4459799" lon="7.3429617"><ele>855.0</ele><time>2026-04-28T16:17:40.405Z</time></trkpt><trkpt lat="44.4460479" lon="7.3429685"><ele>860.0</ele><time>2026-04-28T16:17:44.412Z</time></trkpt><trkpt lat="44.4461227" lon="7.3429443"><ele>865.0</ele><time>2026-04-28T16:17:49.406Z</time></trkpt><trkpt lat="44.4461851" lon="7.3429882"><ele>870.0</ele><time>2026-04-28T16:17:59.448Z</time></trkpt><trkpt lat="44.4462374" lon="7.3430451"><ele>874.9999999999999</ele><time>2026-04-28T16:18:04.393Z</time></trkpt><trkpt lat="44.4463009" lon="7.3429919"><ele>880.0</ele><time>2026-04-28T16:18:10.431Z</time></trkpt><trkpt lat="44.4463742" lon="7.3429685"><ele>880.4285714285713</ele><time>2026-04-28T16:18:15.395Z</time></trkpt><trkpt lat="44.4464444" lon="7.3429297"><ele>880.8571428571429</ele><time>2026-04-28T16:18:20.409Z</time></trkpt><trkpt lat="44.446489" lon="7.3429961"><ele>881.2857142857142</ele><time>2026-04-28T16:18:24.507Z</time></trkpt><trkpt lat="44.4465472" lon="7.3429584"><ele>881.7142857142857</ele><time>2026-04-28T16:18:25.492Z</time></trkpt><trkpt lat="44.4465943" lon="7.3428905"><ele>882.1428571428571</ele><time>2026-04-28T16:18:27.494Z</time></trkpt><trkpt lat="44.4466327" lon="7.3428077"><ele>882.5714285714286</ele><time>2026-04-28T16:18:31.489Z</time></trkpt><trkpt lat="44.446692" lon="7.3427587"><ele>883.0</ele><time>2026-04-28T16:18:35.485Z</time></trkpt><trkpt lat="44.4467442" lon="7.3426893"><ele>882.9999999999999</ele><time>2026-04-28T16:18:40.496Z</time></trkpt><trkpt lat="44.4467978" lon="7.3426145"><ele>883.0</ele><time>2026-04-28T16:18:44.499Z</time></trkpt><trkpt lat="44.4468359" lon="7.3425038"><ele>883.0</ele><time>2026-04-28T16:18:49.486Z</time></trkpt><trkpt lat="44.4467853" lon="7.3424448"><ele>883.0</ele><time>2026-04-28T16:18:55.482Z</time></trkpt><trkpt lat="44.4467335" lon="7.3425363"><ele>882.9999999999999</ele><time>2026-04-28T16:18:58.486Z</time></trkpt><trkpt lat="44.4466713" lon="7.3425955"><ele>883.0</ele><time>2026-04-28T16:19:00.496Z</time></trkpt><trkpt lat="44.4466049" lon="7.3426252"><ele>883.0</ele><time>2026-04-28T16:19:02.485Z</time></trkpt><trkpt lat="44.4465397" lon="7.3426597"><ele>883.0</ele><time>2026-04-28T16:19:06.488Z</time></trkpt><trkpt lat="44.4464828" lon="7.3427499"><ele>883.0</ele><time>2026-04-28T16:19:10.49Z</time></trkpt><trkpt lat="44.4464408" lon="7.3428181"><ele>883.0</ele><time>2026-04-28T16:19:13.474Z</time></trkpt><trkpt lat="44.4463753" lon="7.3428099"><ele>883.0</ele><time>2026-04-28T16:19:24.502Z</time></trkpt><trkpt lat="44.446341" lon="7.3427348"><ele>883.0</ele><time>2026-04-28T16:19:28.488Z</time></trkpt><trkpt lat="44.4462861" lon="7.3426587"><ele>883.0</ele><time>2026-04-28T16:19:32.49Z</time></trkpt><trkpt lat="44.4462212" lon="7.3426014"><ele>882.5714285714286</ele><time>2026-04-28T16:19:40.498Z</time></trkpt><trkpt lat="44.4461613" lon="7.3425341"><ele>882.1428571428571</ele><time>2026-04-28T16:19:44.491Z</time></trkpt><trkpt lat="44.446097" lon="7.3424758"><ele>881.7142857142857</ele><time>2026-04-28T16:19:48.505Z</time></trkpt><trkpt lat="44.4460222" lon="7.3424361"><ele>881.2857142857142</ele><time>2026-04-28T16:19:52.491Z</time></trkpt><trkpt lat="44.4459612" lon="7.3424066"><ele>880.8571428571429</ele><time>2026-04-28T16:19:54.491Z</time></trkpt><trkpt lat="44.4459047" lon="7.3423463"><ele>880.4285714285713</ele><time>2026-04-28T16:19:58.498Z</time></trkpt><trkpt lat="44.445827" lon="7.3423215"><ele>880.0</ele><time>2026-04-28T16:20:03.471Z</time></trkpt><trkpt lat="44.4457582" lon="7.3422881"><ele>879.9999999999999</ele><time>2026-04-28T16:20:06.48Z</time></trkpt><trkpt lat="44.4457129" lon="7.3422239"><ele>880.0</ele><time>2026-04-28T16:20:11.471Z</time></trkpt><trkpt lat="44.4456773" lon="7.3421373"><ele>880.0</ele><time>2026-04-28T16:20:15.469Z</time></trkpt><trkpt lat="44.4456174" lon="7.3420842"><ele>880.0</ele><time>2026-04-28T16:20:19.479Z</time></trkpt><trkpt lat="44.4455464" lon="7.3421208"><ele>880.0</ele><time>2026-04-28T16:20:22.48Z</time></trkpt><trkpt lat="44.4454757" lon="7.3421008"><ele>879.9999999999999</ele><time>2026-04-28T16:20:26.48Z</time></trkpt><trkpt lat="44.4454543" lon="7.3420101"><ele>880.0</ele><time>2026-04-28T16:20:28.489Z</time></trkpt><trkpt lat="44.4454227" lon="7.3419309"><ele>881.9999999999999</ele><time>2026-04-28T16:20:31.463Z</time></trkpt><trkpt lat="44.4453665" lon="7.3418843"><ele>884.0</ele><time>2026-04-28T16:20:38.468Z</time></trkpt><trkpt lat="44.4452992" lon="7.3418515"><ele>886.0</ele><time>2026-04-28T16:20:41.46Z</time></trkpt><trkpt lat="44.4452516" lon="7.341779"><ele>888.0</ele><time>2026-04-28T16:20:44.481Z</time></trkpt><trkpt lat="44.4451852" lon="7.3417301"><ele>890.0</ele><time>2026-04-28T16:20:50.468Z</time></trkpt><trkpt lat="44.4451436" lon="7.3416533"><ele>891.9999999999999</ele><time>2026-04-28T16:20:55.47Z</time></trkpt><trkpt lat="44.4450948" lon="7.341567"><ele>894.0</ele><time>2026-04-28T16:20:59.478Z</time></trkpt><trkpt lat="44.4450452" lon="7.3414842"><ele>894.0</ele><time>2026-04-28T16:21:02.46Z</time></trkpt><trkpt lat="44.444986" lon="7.3414087"><ele>894.0</ele><time>2026-04-28T16:21:06.478Z</time></trkpt><trkpt lat="44.4449111" lon="7.3413965"><ele>894.0</ele><time>2026-04-28T16:21:10.48Z</time></trkpt><trkpt lat="44.4448343" lon="7.341346"><ele>894.0</ele><time>2026-04-28T16:21:14.469Z</time></trkpt><trkpt lat="44.4447778" lon="7.3412948"><ele>894.0</ele><time>2026-04-28T16:21:18.462Z</time></trkpt><trkpt lat="44.4447064" lon="7.3412393"><ele>894.0</ele><time>2026-04-28T16:21:22.509Z</time></trkpt><trkpt lat="44.4446273" lon="7.3411539"><ele>896.1428571428571</ele><time>2026-04-28T16:21:25.459Z</time></trkpt><trkpt lat="44.4445689" lon="7.3411058"><ele>898.2857142857142</ele><time>2026-04-28T16:21:27.457Z</time></trkpt><trkpt lat="44.4445379" lon="7.3410168"><ele>900.4285714285713</ele><time>2026-04-28T16:21:32.453Z</time></trkpt><trkpt lat="44.4445908" lon="7.3409568"><ele>902.5714285714286</ele><time>2026-04-28T16:21:38.443Z</time></trkpt><trkpt lat="44.4446536" lon="7.3409202"><ele>904.7142857142858</ele><time>2026-04-28T16:21:40.455Z</time></trkpt><trkpt lat="44.4446898" lon="7.3408398"><ele>906.8571428571428</ele><time>2026-04-28T16:21:42.502Z</time></trkpt><trkpt lat="44.4446874" lon="7.3407354"><ele>909.0</ele><time>2026-04-28T16:21:47.442Z</time></trkpt><trkpt lat="44.4446328" lon="7.3406668"><ele>909.0</ele><time>2026-04-28T16:21:52.459Z</time></trkpt><trkpt lat="44.4445366" lon="7.340622"><ele>909.0</ele><time>2026-04-28T16:21:55.444Z</time></trkpt><trkpt lat="44.4444775" lon="7.3405833"><ele>909.0</ele><time>2026-04-28T16:21:57.449Z</time></trkpt><trkpt lat="44.4443758" lon="7.3405362"><ele>909.0</ele><time>2026-04-28T16:22:00.432Z</time></trkpt><trkpt lat="44.4443138" lon="7.3405174"><ele>909.0</ele><time>2026-04-28T16:22:01.456Z</time></trkpt><trkpt lat="44.444225" lon="7.3405016"><ele>909.0</ele><time>2026-04-28T16:22:02.45Z</time></trkpt><trkpt lat="44.4441224" lon="7.3405241"><ele>909.0</ele><time>2026-04-28T16:22:04.44Z</time></trkpt><trkpt lat="44.4440409" lon="7.3405347"><ele>909.0</ele><time>2026-04-28T16:22:07.46Z</time></trkpt><trkpt lat="44.4439528" lon="7.3406001"><ele>909.0</ele><time>2026-04-28T16:22:10.441Z</time></trkpt><trkpt lat="44.4438874" lon="7.3406489"><ele>909.0</ele><time>2026-04-28T16:22:12.44Z</time></trkpt><trkpt lat="44.4438208" lon="7.3406035"><ele>909.0</ele><time>2026-04-28T16:22:16.444Z</time></trkpt><trkpt lat="44.4437549" lon="7.3405981"><ele>909.0</ele><time>2026-04-28T16:22:20.451Z</time></trkpt><trkpt lat="44.4436949" lon="7.3405504"><ele>913.7142857142857</ele><time>2026-04-28T16:22:27.448Z</time></trkpt><trkpt lat="44.4436795" lon="7.3404559"><ele>918.4285714285716</ele><time>2026-04-28T16:22:31.482Z</time></trkpt><trkpt lat="44.4436469" lon="7.3403699"><ele>923.1428571428572</ele><time>2026-04-28T16:22:35.439Z</time></trkpt><trkpt lat="44.4435687" lon="7.3403512"><ele>927.8571428571429</ele><time>2026-04-28T16:22:39.438Z</time></trkpt><trkpt lat="44.4434801" lon="7.340391"><ele>932.5714285714287</ele><time>2026-04-28T16:22:41.437Z</time></trkpt><trkpt lat="44.4434136" lon="7.3404241"><ele>937.2857142857144</ele><time>2026-04-28T16:22:43.491Z</time></trkpt><trkpt lat="44.4433547" lon="7.3403852"><ele>942.0000000000001</ele><time>2026-04-28T16:22:46.432Z</time></trkpt><trkpt lat="44.4432985" lon="7.3403352"><ele>942.0000000000001</ele><time>2026-04-28T16:22:49.451Z</time></trkpt><trkpt lat="44.4432154" lon="7.3403279"><ele>942.0</ele><time>2026-04-28T16:22:55.441Z</time></trkpt><trkpt lat="44.4431602" lon="7.3402718"><ele>942.0000000000001</ele><time>2026-04-28T16:22:59.441Z</time></trkpt><trkpt lat="44.4430994" lon="7.3402392"><ele>942.0000000000001</ele><time>2026-04-28T16:23:02.438Z</time></trkpt><trkpt lat="44.4430546" lon="7.3401655"><ele>942.0</ele><time>2026-04-28T16:23:08.47Z</time></trkpt><trkpt lat="44.4429852" lon="7.3400991"><ele>942.0000000000001</ele><time>2026-04-28T16:23:15.418Z</time></trkpt><trkpt lat="44.4429207" lon="7.3401184"><ele>942.0000000000001</ele><time>2026-04-28T16:23:21.432Z</time></trkpt><trkpt lat="44.4429758" lon="7.3401734"><ele>942.0000000000001</ele><time>2026-04-28T16:23:28.431Z</time></trkpt><trkpt lat="44.4430429" lon="7.3401654"><ele>942.0</ele><time>2026-04-28T16:23:31.435Z</time></trkpt><trkpt lat="44.4431063" lon="7.3402109"><ele>942.0000000000001</ele><time>2026-04-28T16:23:35.415Z</time></trkpt><trkpt lat="44.4431733" lon="7.3402445"><ele>942.0000000000001</ele><time>2026-04-28T16:23:39.426Z</time></trkpt><trkpt lat="44.4432309" lon="7.3402824"><ele>942.0</ele><time>2026-04-28T16:23:43.43Z</time></trkpt><trkpt lat="44.4433067" lon="7.3402782"><ele>942.0000000000001</ele><time>2026-04-28T16:23:46.419Z</time></trkpt><trkpt lat="44.443377" lon="7.3402522"><ele>942.0000000000001</ele><time>2026-04-28T16:23:49.425Z</time></trkpt><trkpt lat="44.4434428" lon="7.3402403"><ele>942.0000000000001</ele><time>2026-04-28T16:23:52.429Z</time></trkpt><trkpt lat="44.4435152" lon="7.3402303"><ele>942.0</ele><time>2026-04-28T16:23:55.43Z</time></trkpt><trkpt lat="44.4435857" lon="7.3402215"><ele>942.0000000000001</ele><time>2026-04-28T16:23:59.426Z</time></trkpt><trkpt lat="44.443648" lon="7.3402576"><ele>942.0000000000001</ele><time>2026-04-28T16:24:05.429Z</time></trkpt><trkpt lat="44.4437061" lon="7.3403121"><ele>942.0</ele><time>2026-04-28T16:24:08.41Z</time></trkpt><trkpt lat="44.4437729" lon="7.3403287"><ele>942.0000000000001</ele><time>2026-04-28T16:24:11.423Z</time></trkpt><trkpt lat="44.4438364" lon="7.3403422"><ele>942.0000000000001</ele><time>2026-04-28T16:24:15.421Z</time></trkpt><trkpt lat="44.4439234" lon="7.3403238"><ele>942.6666666666666</ele><time>2026-04-28T16:24:18.421Z</time></trkpt><trkpt lat="44.4439979" lon="7.3403219"><ele>943.3333333333333</ele><time>2026-04-28T16:24:21.446Z</time></trkpt><trkpt lat="44.4440672" lon="7.3403129"><ele>944.0</ele><time>2026-04-28T16:24:23.421Z</time></trkpt><trkpt lat="44.4441526" lon="7.3402633"><ele>944.6666666666666</ele><time>2026-04-28T16:24:25.421Z</time></trkpt><trkpt lat="44.4442043" lon="7.3401978"><ele>945.3333333333333</ele><time>2026-04-28T16:24:27.419Z</time></trkpt><trkpt lat="44.4442718" lon="7.3401234"><ele>946.0</ele><time>2026-04-28T16:24:29.437Z</time></trkpt><trkpt lat="44.4443248" lon="7.3400601"><ele>946.0</ele><time>2026-04-28T16:24:30.43Z</time></trkpt><trkpt lat="44.4443924" lon="7.3400144"><ele>945.9999999999999</ele><time>2026-04-28T16:24:31.421Z</time></trkpt><trkpt lat="44.4444384" lon="7.3399332"><ele>945.9999999999999</ele><time>2026-04-28T16:24:32.431Z</time></trkpt><trkpt lat="44.4444998" lon="7.3398129"><ele>946.0</ele><time>2026-04-28T16:24:34.423Z</time></trkpt><trkpt lat="44.4446187" lon="7.3397931"><ele>946.0</ele><time>2026-04-28T16:24:40.424Z</time></trkpt><trkpt lat="44.4447022" lon="7.3397644"><ele>945.9999999999999</ele><time>2026-04-28T16:24:42.413Z</time></trkpt><trkpt lat="44.4447555" lon="7.339664"><ele>946.0</ele><time>2026-04-28T16:24:44.431Z</time></trkpt><trkpt lat="44.4446879" lon="7.3397287"><ele>946.0</ele><time>2026-04-28T16:24:53.427Z</time></trkpt><trkpt lat="44.4446297" lon="7.3397773"><ele>946.0</ele><time>2026-04-28T16:24:56.422Z</time></trkpt><trkpt lat="44.4445547" lon="7.3397864"><ele>945.9999999999999</ele><time>2026-04-28T16:25:00.427Z</time></trkpt><trkpt lat="44.4444753" lon="7.3398042"><ele>946.0</ele><time>2026-04-28T16:25:07.412Z</time></trkpt><trkpt lat="44.4444027" lon="7.3398306"><ele>946.0</ele><time>2026-04-28T16:25:14.416Z</time></trkpt><trkpt lat="44.4443374" lon="7.3398355"><ele>946.0</ele><time>2026-04-28T16:25:17.413Z</time></trkpt><trkpt lat="44.4442541" lon="7.3398164"><ele>946.0</ele><time>2026-04-28T16:25:21.422Z</time></trkpt><trkpt lat="44.4441759" lon="7.3398008"><ele>946.0</ele><time>2026-04-28T16:25:25.416Z</time></trkpt><trkpt lat="44.444116" lon="7.3397736"><ele>946.0</ele><time>2026-04-28T16:25:28.416Z</time></trkpt><trkpt lat="44.4440452" lon="7.339729"><ele>946.0</ele><time>2026-04-28T16:25:31.417Z</time></trkpt><trkpt lat="44.4439741" lon="7.3396889"><ele>946.0</ele><time>2026-04-28T16:25:36.408Z</time></trkpt><trkpt lat="44.4439135" lon="7.3396568"><ele>951.5714285714287</ele><time>2026-04-28T16:25:40.406Z</time></trkpt><trkpt lat="44.4438458" lon="7.3396299"><ele>957.1428571428571</ele><time>2026-04-28T16:25:46.407Z</time></trkpt><trkpt lat="44.4437691" lon="7.3395872"><ele>962.7142857142858</ele><time>2026-04-28T16:25:49.423Z</time></trkpt><trkpt lat="44.4437102" lon="7.339542"><ele>968.2857142857143</ele><time>2026-04-28T16:25:56.418Z</time></trkpt><trkpt lat="44.4436444" lon="7.3395335"><ele>973.8571428571429</ele><time>2026-04-28T16:26:02.424Z</time></trkpt><trkpt lat="44.4435791" lon="7.3395532"><ele>979.4285714285714</ele><time>2026-04-28T16:26:07.39Z</time></trkpt><trkpt lat="44.44351" lon="7.339561"><ele>985.0</ele><time>2026-04-28T16:26:10.394Z</time></trkpt><trkpt lat="44.4433956" lon="7.3395013"><ele>984.9999999999999</ele><time>2026-04-28T16:26:17.404Z</time></trkpt><trkpt lat="44.4433216" lon="7.3394689"><ele>985.0</ele><time>2026-04-28T16:26:21.406Z</time></trkpt><trkpt lat="44.4432598" lon="7.3393975"><ele>985.0</ele><time>2026-04-28T16:26:25.415Z</time></trkpt><trkpt lat="44.4431811" lon="7.3393734"><ele>985.0</ele><time>2026-04-28T16:26:29.407Z</time></trkpt><trkpt lat="44.4430996" lon="7.3394258"><ele>984.9999999999999</ele><time>2026-04-28T16:26:36.409Z</time></trkpt><trkpt lat="44.4430201" lon="7.3394325"><ele>985.0</ele><time>2026-04-28T16:26:43.392Z</time></trkpt><trkpt lat="44.4429533" lon="7.3394115"><ele>985.1428571428572</ele><time>2026-04-28T16:26:46.408Z</time></trkpt><trkpt lat="44.4428871" lon="7.3393855"><ele>985.2857142857144</ele><time>2026-04-28T16:26:48.391Z</time></trkpt><trkpt lat="44.4428251" lon="7.3393449"><ele>985.4285714285714</ele><time>2026-04-28T16:26:51.405Z</time></trkpt><trkpt lat="44.4427764" lon="7.3392839"><ele>985.5714285714287</ele><time>2026-04-28T16:26:57.507Z</time></trkpt><trkpt lat="44.4426981" lon="7.3393031"><ele>985.7142857142858</ele><time>2026-04-28T16:27:00.403Z</time></trkpt><trkpt lat="44.4426236" lon="7.3393174"><ele>985.8571428571429</ele><time>2026-04-28T16:27:03.495Z</time></trkpt><trkpt lat="44.4425553" lon="7.3393455"><ele>986.0</ele><time>2026-04-28T16:27:06.395Z</time></trkpt><trkpt lat="44.442489" lon="7.3393132"><ele>986.0000000000001</ele><time>2026-04-28T16:27:09.485Z</time></trkpt><trkpt lat="44.4424378" lon="7.3392326"><ele>986.0</ele><time>2026-04-28T16:27:13.386Z</time></trkpt><trkpt lat="44.4423702" lon="7.3391914"><ele>986.0</ele><time>2026-04-28T16:27:18.491Z</time></trkpt><trkpt lat="44.4423073" lon="7.3391746"><ele>986.0</ele><time>2026-04-28T16:27:22.494Z</time></trkpt><trkpt lat="44.4422371" lon="7.3391705"><ele>986.0000000000001</ele><time>2026-04-28T16:27:26.502Z</time></trkpt><trkpt lat="44.4421573" lon="7.3391213"><ele>986.0</ele><time>2026-04-28T16:27:31.507Z</time></trkpt><trkpt lat="44.4420671" lon="7.3391051"><ele>986.1666666666667</ele><time>2026-04-28T16:27:35.51Z</time></trkpt><trkpt lat="44.4419973" lon="7.339139"><ele>986.3333333333334</ele><time>2026-04-28T16:27:37.544Z</time></trkpt><trkpt lat="44.4419121" lon="7.3391813"><ele>986.5</ele><time>2026-04-28T16:27:39.498Z</time></trkpt><trkpt lat="44.4418254" lon="7.3392125"><ele>986.6666666666667</ele><time>2026-04-28T16:27:41.495Z</time></trkpt><trkpt lat="44.4417519" lon="7.3392377"><ele>986.8333333333334</ele><time>2026-04-28T16:27:44.489Z</time></trkpt><trkpt lat="44.4416715" lon="7.3392252"><ele>987.0</ele><time>2026-04-28T16:27:49.495Z</time></trkpt><trkpt lat="44.4416051" lon="7.3392274"><ele>987.0</ele><time>2026-04-28T16:27:53.496Z</time></trkpt><trkpt lat="44.4415388" lon="7.3392531"><ele>987.0</ele><time>2026-04-28T16:27:59.49Z</time></trkpt><trkpt lat="44.4414589" lon="7.339288"><ele>987.0</ele><time>2026-04-28T16:28:02.518Z</time></trkpt><trkpt lat="44.4413849" lon="7.3392885"><ele>987.0</ele><time>2026-04-28T16:28:04.541Z</time></trkpt><trkpt lat="44.4412959" lon="7.3392481"><ele>987.0</ele><time>2026-04-28T16:28:06.508Z</time></trkpt><trkpt lat="44.4412306" lon="7.339243"><ele>987.0</ele><time>2026-04-28T16:28:08.499Z</time></trkpt><trkpt lat="44.441157" lon="7.3392542"><ele>989.2857142857142</ele><time>2026-04-28T16:28:11.487Z</time></trkpt><trkpt lat="44.4410814" lon="7.3392526"><ele>991.5714285714286</ele><time>2026-04-28T16:28:16.493Z</time></trkpt><trkpt lat="44.4410171" lon="7.3392261"><ele>993.8571428571429</ele><time>2026-04-28T16:28:19.483Z</time></trkpt><trkpt lat="44.4409586" lon="7.3391664"><ele>996.1428571428571</ele><time>2026-04-28T16:28:23.492Z</time></trkpt><trkpt lat="44.4408937" lon="7.3391481"><ele>998.4285714285713</ele><time>2026-04-28T16:28:28.498Z</time></trkpt><trkpt lat="44.4408255" lon="7.3391617"><ele>1000.7142857142857</ele><time>2026-04-28T16:28:31.494Z</time></trkpt><trkpt lat="44.440899" lon="7.3391357"><ele>1003.0</ele><time>2026-04-28T16:28:45.477Z</time></trkpt><trkpt lat="44.4409688" lon="7.3391589"><ele>1003.0</ele><time>2026-04-28T16:28:51.483Z</time></trkpt><trkpt lat="44.4410305" lon="7.3391834"><ele>1002.9999999999999</ele><time>2026-04-28T16:28:55.476Z</time></trkpt><trkpt lat="44.4410947" lon="7.3391802"><ele>1003.0</ele><time>2026-04-28T16:29:00.488Z</time></trkpt><trkpt lat="44.4411716" lon="7.3391909"><ele>1003.0</ele><time>2026-04-28T16:29:04.496Z</time></trkpt><trkpt lat="44.4412292" lon="7.339128"><ele>1002.9999999999999</ele><time>2026-04-28T16:29:08.485Z</time></trkpt><trkpt lat="44.4412831" lon="7.3390592"><ele>1003.0</ele><time>2026-04-28T16:29:15.467Z</time></trkpt><trkpt lat="44.4413529" lon="7.3390549"><ele>1003.0</ele><time>2026-04-28T16:29:19.499Z</time></trkpt><trkpt lat="44.4414165" lon="7.3390312"><ele>1005.1428571428571</ele><time>2026-04-28T16:29:22.483Z</time></trkpt><trkpt lat="44.4414725" lon="7.3389695"><ele>1007.2857142857142</ele><time>2026-04-28T16:29:26.492Z</time></trkpt><trkpt lat="44.4415167" lon="7.3389031"><ele>1009.4285714285713</ele><time>2026-04-28T16:29:31.487Z</time></trkpt><trkpt lat="44.4415977" lon="7.3388712"><ele>1011.5714285714284</ele><time>2026-04-28T16:29:35.487Z</time></trkpt><trkpt lat="44.4416681" lon="7.3388345"><ele>1013.7142857142857</ele><time>2026-04-28T16:29:39.485Z</time></trkpt><trkpt lat="44.4417294" lon="7.3388135"><ele>1015.8571428571427</ele><time>2026-04-28T16:29:42.492Z</time></trkpt><trkpt lat="44.4418004" lon="7.3388301"><ele>1017.9999999999999</ele><time>2026-04-28T16:29:47.476Z</time></trkpt><trkpt lat="44.441882" lon="7.338824"><ele>1017.9999999999999</ele><time>2026-04-28T16:29:53.473Z</time></trkpt><trkpt lat="44.4419449" lon="7.3388114"><ele>1018.0</ele><time>2026-04-28T16:29:59.487Z</time></trkpt><trkpt lat="44.4420188" lon="7.3387674"><ele>1018.0</ele><time>2026-04-28T16:30:03.481Z</time></trkpt><trkpt lat="44.4420828" lon="7.3387569"><ele>1018.0</ele><time>2026-04-28T16:30:06.502Z</time></trkpt><trkpt lat="44.4421868" lon="7.3387306"><ele>1017.9999999999999</ele><time>2026-04-28T16:30:08.5Z</time></trkpt><trkpt lat="44.442252" lon="7.3387498"><ele>1018.0</ele><time>2026-04-28T16:30:10.496Z</time></trkpt><trkpt lat="44.4423402" lon="7.3387509"><ele>1018.6666666666666</ele><time>2026-04-28T16:30:13.477Z</time></trkpt><trkpt lat="44.4424096" lon="7.3387249"><ele>1019.3333333333333</ele><time>2026-04-28T16:30:17.465Z</time></trkpt><trkpt lat="44.442487" lon="7.3387033"><ele>1020.0</ele><time>2026-04-28T16:30:23.476Z</time></trkpt><trkpt lat="44.4425744" lon="7.3387153"><ele>1020.6666666666667</ele><time>2026-04-28T16:30:26.494Z</time></trkpt><trkpt lat="44.4426505" lon="7.3387362"><ele>1021.3333333333334</ele><time>2026-04-28T16:30:29.481Z</time></trkpt><trkpt lat="44.4427296" lon="7.3387197"><ele>1022.0</ele><time>2026-04-28T16:30:36.489Z</time></trkpt><trkpt lat="44.4427984" lon="7.3387111"><ele>1022.0</ele><time>2026-04-28T16:30:40.493Z</time></trkpt><trkpt lat="44.4428634" lon="7.3386877"><ele>1022.0</ele><time>2026-04-28T16:30:43.466Z</time></trkpt><trkpt lat="44.4428961" lon="7.3386027"><ele>1022.0</ele><time>2026-04-28T16:30:46.485Z</time></trkpt><trkpt lat="44.4429123" lon="7.3385123"><ele>1022.0</ele><time>2026-04-28T16:30:50.474Z</time></trkpt><trkpt lat="44.4428768" lon="7.338404"><ele>1022.0</ele><time>2026-04-28T16:30:57.474Z</time></trkpt><trkpt lat="44.4428457" lon="7.3383218"><ele>1022.0</ele><time>2026-04-28T16:31:01.476Z</time></trkpt><trkpt lat="44.4427804" lon="7.33827"><ele>1022.0</ele><time>2026-04-28T16:31:05.459Z</time></trkpt><trkpt lat="44.4427109" lon="7.33828"><ele>1022.0000000000001</ele><time>2026-04-28T16:31:11.536Z</time></trkpt><trkpt lat="44.4426414" lon="7.3382496"><ele>1022.0</ele><time>2026-04-28T16:31:18.472Z</time></trkpt><trkpt lat="44.4425671" lon="7.3382157"><ele>1022.0</ele><time>2026-04-28T16:31:21.472Z</time></trkpt><trkpt lat="44.4425132" lon="7.3381194"><ele>1022.0</ele><time>2026-04-28T16:31:25.466Z</time></trkpt><trkpt lat="44.442442" lon="7.3380643"><ele>1022.0000000000001</ele><time>2026-04-28T16:31:27.459Z</time></trkpt><trkpt lat="44.4423782" lon="7.3380548"><ele>1022.0</ele><time>2026-04-28T16:31:29.48Z</time></trkpt><trkpt lat="44.4423" lon="7.3380512"><ele>1025.7142857142858</ele><time>2026-04-28T16:31:34.575Z</time></trkpt><trkpt lat="44.4422312" lon="7.3379977"><ele>1029.4285714285716</ele><time>2026-04-28T16:31:40.477Z</time></trkpt><trkpt lat="44.4421676" lon="7.3380005"><ele>1033.142857142857</ele><time>2026-04-28T16:31:45.47Z</time></trkpt><trkpt lat="44.4420983" lon="7.3379609"><ele>1036.857142857143</ele><time>2026-04-28T16:31:48.479Z</time></trkpt><trkpt lat="44.4420236" lon="7.3379251"><ele>1040.5714285714287</ele><time>2026-04-28T16:31:51.484Z</time></trkpt><trkpt lat="44.4419623" lon="7.3378789"><ele>1044.2857142857142</ele><time>2026-04-28T16:31:54.49Z</time></trkpt><trkpt lat="44.4419107" lon="7.3377892"><ele>1048.0</ele><time>2026-04-28T16:31:58.496Z</time></trkpt><trkpt lat="44.4418437" lon="7.3377546"><ele>1048.0</ele><time>2026-04-28T16:32:01.48Z</time></trkpt><trkpt lat="44.441778" lon="7.3377368"><ele>1048.0</ele><time>2026-04-28T16:32:03.471Z</time></trkpt><trkpt lat="44.4417191" lon="7.337697"><ele>1048.0</ele><time>2026-04-28T16:32:07.47Z</time></trkpt><trkpt lat="44.4416575" lon="7.3376459"><ele>1048.0</ele><time>2026-04-28T16:32:11.47Z</time></trkpt><trkpt lat="44.44159" lon="7.3375958"><ele>1048.0</ele><time>2026-04-28T16:32:15.466Z</time></trkpt><trkpt lat="44.4415334" lon="7.3375273"><ele>1048.0</ele><time>2026-04-28T16:32:19.469Z</time></trkpt><trkpt lat="44.4414629" lon="7.3374846"><ele>1048.0</ele><time>2026-04-28T16:32:24.463Z</time></trkpt><trkpt lat="44.4414109" lon="7.3374346"><ele>1048.0</ele><time>2026-04-28T16:32:27.477Z</time></trkpt><trkpt lat="44.441393" lon="7.3373459"><ele>1048.0</ele><time>2026-04-28T16:32:30.464Z</time></trkpt><trkpt lat="44.4413013" lon="7.3373584"><ele>1048.0</ele><time>2026-04-28T16:32:35.464Z</time></trkpt><trkpt lat="44.4413716" lon="7.3373788"><ele>1048.0</ele><time>2026-04-28T16:32:56.435Z</time></trkpt><trkpt lat="44.4414379" lon="7.3374103"><ele>1048.0</ele><time>2026-04-28T16:32:58.436Z</time></trkpt><trkpt lat="44.4415016" lon="7.3373381"><ele>1048.0</ele><time>2026-04-28T16:33:00.449Z</time></trkpt><trkpt lat="44.4414444" lon="7.3374296"><ele>1048.0</ele><time>2026-04-28T16:33:03.45Z</time></trkpt><trkpt lat="44.441365" lon="7.3374021"><ele>1048.0</ele><time>2026-04-28T16:33:05.453Z</time></trkpt><trkpt lat="44.4412923" lon="7.3373646"><ele>1048.0</ele><time>2026-04-28T16:33:07.444Z</time></trkpt><trkpt lat="44.441201" lon="7.337365"><ele>1048.0</ele><time>2026-04-28T16:33:09.44Z</time></trkpt><trkpt lat="44.4411298" lon="7.3374162"><ele>1048.0</ele><time>2026-04-28T16:33:11.456Z</time></trkpt><trkpt lat="44.4410351" lon="7.3374319"><ele>1048.0</ele><time>2026-04-28T16:33:13.448Z</time></trkpt><trkpt lat="44.4409412" lon="7.3374182"><ele>1047.4285714285716</ele><time>2026-04-28T16:33:15.459Z</time></trkpt><trkpt lat="44.4409963" lon="7.3374867"><ele>1046.857142857143</ele><time>2026-04-28T16:33:20.435Z</time></trkpt><trkpt lat="44.4410731" lon="7.3374849"><ele>1046.2857142857142</ele><time>2026-04-28T16:33:23.441Z</time></trkpt><trkpt lat="44.4410796" lon="7.3373959"><ele>1045.7142857142858</ele><time>2026-04-28T16:33:27.444Z</time></trkpt><trkpt lat="44.4410372" lon="7.3373061"><ele>1045.142857142857</ele><time>2026-04-28T16:33:34.454Z</time></trkpt><trkpt lat="44.4409954" lon="7.3372357"><ele>1044.5714285714287</ele><time>2026-04-28T16:33:38.435Z</time></trkpt><trkpt lat="44.4409397" lon="7.3371823"><ele>1044.0</ele><time>2026-04-28T16:33:42.442Z</time></trkpt><trkpt lat="44.4408692" lon="7.3371215"><ele>1050.5</ele><time>2026-04-28T16:33:49.438Z</time></trkpt><trkpt lat="44.4408074" lon="7.3370829"><ele>1057.0</ele><time>2026-04-28T16:34:00.431Z</time></trkpt><trkpt lat="44.4408515" lon="7.3371522"><ele>1063.5</ele><time>2026-04-28T16:34:21.427Z</time></trkpt><trkpt lat="44.4409166" lon="7.3370538"><ele>1070.0</ele><time>2026-04-28T16:34:28.426Z</time></trkpt><trkpt lat="44.4409651" lon="7.3369622"><ele>1076.5</ele><time>2026-04-28T16:34:30.422Z</time></trkpt><trkpt lat="44.4410141" lon="7.3369064"><ele>1083.0</ele><time>2026-04-28T16:34:32.43Z</time></trkpt><trkpt lat="44.4410805" lon="7.3368346"><ele>1083.0</ele><time>2026-04-28T16:34:35.436Z</time></trkpt><trkpt lat="44.4411448" lon="7.3368097"><ele>1083.0</ele><time>2026-04-28T16:34:44.431Z</time></trkpt><trkpt lat="44.4412128" lon="7.3367733"><ele>1083.0</ele><time>2026-04-28T16:34:46.426Z</time></trkpt><trkpt lat="44.4412831" lon="7.3369462"><ele>1083.0</ele><time>2026-04-28T16:34:51.426Z</time></trkpt><trkpt lat="44.4413291" lon="7.3370242"><ele>1083.0</ele><time>2026-04-28T16:34:56.432Z</time></trkpt><trkpt lat="44.4414955" lon="7.3370462"><ele>1082.6</ele><time>2026-04-28T16:35:16.431Z</time></trkpt><trkpt lat="44.4416713" lon="7.3370321"><ele>1082.1999999999998</ele><time>2026-04-28T16:35:30.425Z</time></trkpt><trkpt lat="44.4417404" lon="7.3370155"><ele>1081.8</ele><time>2026-04-28T16:35:33.454Z</time></trkpt><trkpt lat="44.4418089" lon="7.3369991"><ele>1081.3999999999999</ele><time>2026-04-28T16:35:41.424Z</time></trkpt><trkpt lat="44.4418833" lon="7.3369831"><ele>1081.0</ele><time>2026-04-28T16:35:44.428Z</time></trkpt><trkpt lat="44.4419526" lon="7.3369607"><ele>1081.0</ele><time>2026-04-28T16:35:47.427Z</time></trkpt><trkpt lat="44.4420304" lon="7.3370059"><ele>1081.0</ele><time>2026-04-28T16:35:52.433Z</time></trkpt><trkpt lat="44.4420961" lon="7.3369804"><ele>1081.0</ele><time>2026-04-28T16:35:55.483Z</time></trkpt><trkpt lat="44.4421664" lon="7.3369663"><ele>1081.0</ele><time>2026-04-28T16:35:59.429Z</time></trkpt><trkpt lat="44.4422374" lon="7.3369337"><ele>1081.0</ele><time>2026-04-28T16:36:05.482Z</time></trkpt><trkpt lat="44.4423128" lon="7.3368929"><ele>1081.0</ele><time>2026-04-28T16:36:10.499Z</time></trkpt><trkpt lat="44.442385" lon="7.3368739"><ele>1082.6666666666665</ele><time>2026-04-28T16:36:15.438Z</time></trkpt><trkpt lat="44.4424539" lon="7.3368786"><ele>1084.3333333333333</ele><time>2026-04-28T16:36:19.434Z</time></trkpt><trkpt lat="44.4425181" lon="7.3368978"><ele>1086.0</ele><time>2026-04-28T16:36:25.421Z</time></trkpt><trkpt lat="44.4425913" lon="7.3369099"><ele>1087.6666666666667</ele><time>2026-04-28T16:36:28.428Z</time></trkpt><trkpt lat="44.442611" lon="7.3370129"><ele>1089.3333333333335</ele><time>2026-04-28T16:36:34.415Z</time></trkpt><trkpt lat="44.4427256" lon="7.3370025"><ele>1091.0</ele><time>2026-04-28T16:36:38.427Z</time></trkpt><trkpt lat="44.4428207" lon="7.3369475"><ele>1091.0</ele><time>2026-04-28T16:36:40.407Z</time></trkpt><trkpt lat="44.4428935" lon="7.3369001"><ele>1091.0</ele><time>2026-04-28T16:36:42.415Z</time></trkpt><trkpt lat="44.4429631" lon="7.3368901"><ele>1091.0</ele><time>2026-04-28T16:36:44.425Z</time></trkpt><trkpt lat="44.4430369" lon="7.336853"><ele>1091.0</ele><time>2026-04-28T16:36:46.421Z</time></trkpt><trkpt lat="44.4430235" lon="7.3370002"><ele>1091.0</ele><time>2026-04-28T16:36:49.421Z</time></trkpt><trkpt lat="44.4430323" lon="7.3371129"><ele>1091.0</ele><time>2026-04-28T16:36:51.404Z</time></trkpt><trkpt lat="44.4430895" lon="7.3371657"><ele>1088.857142857143</ele><time>2026-04-28T16:36:54.417Z</time></trkpt><trkpt lat="44.4431543" lon="7.3370889"><ele>1086.7142857142858</ele><time>2026-04-28T16:36:56.409Z</time></trkpt><trkpt lat="44.4432141" lon="7.3371269"><ele>1084.5714285714287</ele><time>2026-04-28T16:37:01.414Z</time></trkpt><trkpt lat="44.4432781" lon="7.3371393"><ele>1082.4285714285716</ele><time>2026-04-28T16:37:04.408Z</time></trkpt><trkpt lat="44.4433392" lon="7.3371655"><ele>1080.2857142857144</ele><time>2026-04-28T16:37:07.411Z</time></trkpt><trkpt lat="44.4433976" lon="7.3372235"><ele>1078.142857142857</ele><time>2026-04-28T16:37:12.417Z</time></trkpt><trkpt lat="44.4434485" lon="7.3371715"><ele>1076.0</ele><time>2026-04-28T16:37:15.408Z</time></trkpt><trkpt lat="44.4433859" lon="7.3372115"><ele>1076.0</ele><time>2026-04-28T16:37:24.412Z</time></trkpt><trkpt lat="44.4433236" lon="7.3372365"><ele>1076.0</ele><time>2026-04-28T16:37:26.397Z</time></trkpt><trkpt lat="44.4433077" lon="7.3371255"><ele>1076.0</ele><time>2026-04-28T16:37:29.403Z</time></trkpt><trkpt lat="44.4432532" lon="7.3370495"><ele>1076.0</ele><time>2026-04-28T16:37:34.4Z</time></trkpt><trkpt lat="44.4431815" lon="7.33701"><ele>1076.0</ele><time>2026-04-28T16:37:35.414Z</time></trkpt><trkpt lat="44.4430978" lon="7.336956"><ele>1076.0</ele><time>2026-04-28T16:37:37.409Z</time></trkpt><trkpt lat="44.4430401" lon="7.3368696"><ele>1078.142857142857</ele><time>2026-04-28T16:37:40.433Z</time></trkpt><trkpt lat="44.4429662" lon="7.3368174"><ele>1080.2857142857144</ele><time>2026-04-28T16:37:43.409Z</time></trkpt><trkpt lat="44.4429527" lon="7.3367177"><ele>1082.4285714285716</ele><time>2026-04-28T16:37:50.412Z</time></trkpt><trkpt lat="44.442968" lon="7.336619"><ele>1084.5714285714287</ele><time>2026-04-28T16:37:55.406Z</time></trkpt><trkpt lat="44.4429289" lon="7.3365353"><ele>1086.7142857142858</ele><time>2026-04-28T16:38:01.415Z</time></trkpt><trkpt lat="44.4428724" lon="7.3364541"><ele>1088.857142857143</ele><time>2026-04-28T16:38:05.417Z</time></trkpt><trkpt lat="44.4428391" lon="7.3363746"><ele>1091.0</ele><time>2026-04-28T16:38:09.405Z</time></trkpt><trkpt lat="44.4427837" lon="7.3363212"><ele>1095.7142857142858</ele><time>2026-04-28T16:38:13.407Z</time></trkpt><trkpt lat="44.4427492" lon="7.336246"><ele>1100.4285714285716</ele><time>2026-04-28T16:38:16.391Z</time></trkpt><trkpt lat="44.4426917" lon="7.3361847"><ele>1105.1428571428573</ele><time>2026-04-28T16:38:20.398Z</time></trkpt><trkpt lat="44.4426409" lon="7.3361167"><ele>1109.857142857143</ele><time>2026-04-28T16:38:26.388Z</time></trkpt><trkpt lat="44.442575" lon="7.3360542"><ele>1114.5714285714287</ele><time>2026-04-28T16:38:32.5Z</time></trkpt><trkpt lat="44.442519" lon="7.3359946"><ele>1119.2857142857144</ele><time>2026-04-28T16:38:36.505Z</time></trkpt><trkpt lat="44.4424533" lon="7.3359768"><ele>1124.0</ele><time>2026-04-28T16:38:39.51Z</time></trkpt><trkpt lat="44.4423916" lon="7.3359493"><ele>1124.0</ele><time>2026-04-28T16:38:43.501Z</time></trkpt><trkpt lat="44.4423076" lon="7.3359295"><ele>1124.0</ele><time>2026-04-28T16:38:47.505Z</time></trkpt><trkpt lat="44.4422491" lon="7.3358753"><ele>1124.0</ele><time>2026-04-28T16:38:51.507Z</time></trkpt><trkpt lat="44.4421429" lon="7.3358438"><ele>1124.0</ele><time>2026-04-28T16:38:54.531Z</time></trkpt><trkpt lat="44.4420706" lon="7.335816"><ele>1124.0</ele><time>2026-04-28T16:38:57.507Z</time></trkpt><trkpt lat="44.4420205" lon="7.3357604"><ele>1124.0</ele><time>2026-04-28T16:39:01.517Z</time></trkpt><trkpt lat="44.4419269" lon="7.3357329"><ele>1122.5714285714287</ele><time>2026-04-28T16:39:05.493Z</time></trkpt><trkpt lat="44.4418726" lon="7.3356647"><ele>1121.142857142857</ele><time>2026-04-28T16:39:10.517Z</time></trkpt><trkpt lat="44.4418056" lon="7.3356405"><ele>1119.7142857142858</ele><time>2026-04-28T16:39:14.507Z</time></trkpt><trkpt lat="44.4417459" lon="7.3355746"><ele>1118.2857142857142</ele><time>2026-04-28T16:39:19.512Z</time></trkpt><trkpt lat="44.4416851" lon="7.3355194"><ele>1116.857142857143</ele><time>2026-04-28T16:39:23.513Z</time></trkpt><trkpt lat="44.4416232" lon="7.335483"><ele>1115.4285714285716</ele><time>2026-04-28T16:39:27.501Z</time></trkpt><trkpt lat="44.44157" lon="7.3354252"><ele>1114.0</ele><time>2026-04-28T16:39:33.515Z</time></trkpt><trkpt lat="44.4415038" lon="7.3354183"><ele>1116.8333333333333</ele><time>2026-04-28T16:39:38.516Z</time></trkpt><trkpt lat="44.4414272" lon="7.335418"><ele>1119.6666666666665</ele><time>2026-04-28T16:39:41.488Z</time></trkpt><trkpt lat="44.441352" lon="7.3353719"><ele>1122.5</ele><time>2026-04-28T16:39:44.52Z</time></trkpt><trkpt lat="44.4412903" lon="7.3353239"><ele>1125.3333333333333</ele><time>2026-04-28T16:39:46.535Z</time></trkpt><trkpt lat="44.4411897" lon="7.3352682"><ele>1128.1666666666667</ele><time>2026-04-28T16:39:48.52Z</time></trkpt><trkpt lat="44.4411141" lon="7.3352626"><ele>1131.0</ele><time>2026-04-28T16:39:50.504Z</time></trkpt><trkpt lat="44.4410502" lon="7.335245"><ele>1131.0</ele><time>2026-04-28T16:39:52.521Z</time></trkpt><trkpt lat="44.4409903" lon="7.3351776"><ele>1131.0</ele><time>2026-04-28T16:39:54.53Z</time></trkpt><trkpt lat="44.4409444" lon="7.3350948"><ele>1131.0</ele><time>2026-04-28T16:39:57.504Z</time></trkpt><trkpt lat="44.4409185" lon="7.3349946"><ele>1131.0</ele><time>2026-04-28T16:40:02.516Z</time></trkpt><trkpt lat="44.4409095" lon="7.3348752"><ele>1131.0</ele><time>2026-04-28T16:40:06.511Z</time></trkpt><trkpt lat="44.4408541" lon="7.3347992"><ele>1131.0</ele><time>2026-04-28T16:40:09.498Z</time></trkpt><trkpt lat="44.4408194" lon="7.3347136"><ele>1133.8333333333333</ele><time>2026-04-28T16:40:14.509Z</time></trkpt><trkpt lat="44.4408115" lon="7.3346149"><ele>1136.6666666666667</ele><time>2026-04-28T16:40:19.493Z</time></trkpt><trkpt lat="44.4407754" lon="7.3345404"><ele>1139.5</ele><time>2026-04-28T16:40:27.494Z</time></trkpt><trkpt lat="44.4407061" lon="7.3345371"><ele>1142.3333333333335</ele><time>2026-04-28T16:40:36.52Z</time></trkpt><trkpt lat="44.4406347" lon="7.3345514"><ele>1145.1666666666667</ele><time>2026-04-28T16:40:39.487Z</time></trkpt><trkpt lat="44.4405173" lon="7.3345462"><ele>1148.0</ele><time>2026-04-28T16:40:41.532Z</time></trkpt><trkpt lat="44.4404491" lon="7.3344813"><ele>1149.1666666666667</ele><time>2026-04-28T16:40:43.493Z</time></trkpt><trkpt lat="44.4403805" lon="7.3343981"><ele>1150.3333333333335</ele><time>2026-04-28T16:40:47.498Z</time></trkpt><trkpt lat="44.4403853" lon="7.3342786"><ele>1151.5</ele><time>2026-04-28T16:40:50.504Z</time></trkpt><trkpt lat="44.4403076" lon="7.334245"><ele>1152.6666666666667</ele><time>2026-04-28T16:40:59.508Z</time></trkpt><trkpt lat="44.4402332" lon="7.3343088"><ele>1153.8333333333333</ele><time>2026-04-28T16:41:05.521Z</time></trkpt><trkpt lat="44.4401655" lon="7.3343872"><ele>1155.0</ele><time>2026-04-28T16:41:08.519Z</time></trkpt><trkpt lat="44.4401061" lon="7.3344248"><ele>1155.0</ele><time>2026-04-28T16:41:11.516Z</time></trkpt><trkpt lat="44.4400496" lon="7.3344713"><ele>1155.0</ele><time>2026-04-28T16:41:17.511Z</time></trkpt><trkpt lat="44.4399703" lon="7.3344967"><ele>1155.0</ele><time>2026-04-28T16:41:20.532Z</time></trkpt><trkpt lat="44.4398885" lon="7.3344783"><ele>1155.0</ele><time>2026-04-28T16:41:23.511Z</time></trkpt><trkpt lat="44.4398128" lon="7.3344486"><ele>1155.0</ele><time>2026-04-28T16:41:25.515Z</time></trkpt><trkpt lat="44.4397499" lon="7.3345007"><ele>1155.0</ele><time>2026-04-28T16:41:29.515Z</time></trkpt><trkpt lat="44.4398034" lon="7.3344155"><ele>1155.0</ele><time>2026-04-28T16:41:50.519Z</time></trkpt><trkpt lat="44.4398317" lon="7.3342942"><ele>1155.0</ele><time>2026-04-28T16:41:53.516Z</time></trkpt><trkpt lat="44.4398738" lon="7.3342192"><ele>1155.0</ele><time>2026-04-28T16:41:57.514Z</time></trkpt><trkpt lat="44.4399152" lon="7.3341503"><ele>1155.0</ele><time>2026-04-28T16:42:01.496Z</time></trkpt><trkpt lat="44.439966" lon="7.3340837"><ele>1155.0</ele><time>2026-04-28T16:42:08.512Z</time></trkpt><trkpt lat="44.4400114" lon="7.3340178"><ele>1155.0</ele><time>2026-04-28T16:42:16.578Z</time></trkpt><trkpt lat="44.4400479" lon="7.3339318"><ele>1155.0</ele><time>2026-04-28T16:42:20.512Z</time></trkpt><trkpt lat="44.4400986" lon="7.3338302"><ele>1157.0</ele><time>2026-04-28T16:42:31.489Z</time></trkpt><trkpt lat="44.4401412" lon="7.333758"><ele>1159.0</ele><time>2026-04-28T16:42:35.491Z</time></trkpt><trkpt lat="44.4401932" lon="7.3337044"><ele>1161.0</ele><time>2026-04-28T16:42:39.479Z</time></trkpt><trkpt lat="44.4402488" lon="7.3336099"><ele>1163.0</ele><time>2026-04-28T16:42:43.51Z</time></trkpt><trkpt lat="44.4403131" lon="7.3335586"><ele>1165.0</ele><time>2026-04-28T16:42:46.503Z</time></trkpt><trkpt lat="44.44038" lon="7.3335317"><ele>1167.0</ele><time>2026-04-28T16:42:49.48Z</time></trkpt><trkpt lat="44.4404399" lon="7.3334734"><ele>1169.0</ele><time>2026-04-28T16:42:54.523Z</time></trkpt><trkpt lat="44.4405179" lon="7.3334158"><ele>1169.0</ele><time>2026-04-28T16:43:02.497Z</time></trkpt><trkpt lat="44.4405938" lon="7.3333806"><ele>1169.0</ele><time>2026-04-28T16:43:09.474Z</time></trkpt><trkpt lat="44.4408714" lon="7.3331599"><ele>1169.0</ele><time>2026-04-28T16:43:16.482Z</time></trkpt><trkpt lat="44.4409338" lon="7.3331443"><ele>1169.2857142857142</ele><time>2026-04-28T16:43:19.482Z</time></trkpt><trkpt lat="44.4409029" lon="7.3330434"><ele>1169.5714285714284</ele><time>2026-04-28T16:43:23.474Z</time></trkpt><trkpt lat="44.440858" lon="7.3329376"><ele>1169.857142857143</ele><time>2026-04-28T16:43:26.488Z</time></trkpt><trkpt lat="44.4407922" lon="7.3329084"><ele>1170.142857142857</ele><time>2026-04-28T16:43:30.514Z</time></trkpt><trkpt lat="44.4407724" lon="7.3328191"><ele>1170.4285714285713</ele><time>2026-04-28T16:43:40.497Z</time></trkpt><trkpt lat="44.4407063" lon="7.332777"><ele>1170.7142857142858</ele><time>2026-04-28T16:43:47.485Z</time></trkpt><trkpt lat="44.4406339" lon="7.3327765"><ele>1171.0</ele><time>2026-04-28T16:43:51.485Z</time></trkpt><trkpt lat="44.4405665" lon="7.3328033"><ele>1171.0</ele><time>2026-04-28T16:43:56.491Z</time></trkpt><trkpt lat="44.4404982" lon="7.3327687"><ele>1171.0</ele><time>2026-04-28T16:44:06.473Z</time></trkpt><trkpt lat="44.4404355" lon="7.3328036"><ele>1171.0</ele><time>2026-04-28T16:44:09.467Z</time></trkpt><trkpt lat="44.4403342" lon="7.3329149"><ele>1171.0</ele><time>2026-04-28T16:44:11.473Z</time></trkpt><trkpt lat="44.4402539" lon="7.3330073"><ele>1171.0</ele><time>2026-04-28T16:44:13.476Z</time></trkpt><trkpt lat="44.440196" lon="7.3330657"><ele>1171.0</ele><time>2026-04-28T16:44:15.481Z</time></trkpt><trkpt lat="44.4401349" lon="7.333108"><ele>1172.3333333333333</ele><time>2026-04-28T16:44:18.49Z</time></trkpt><trkpt lat="44.4400686" lon="7.333162"><ele>1173.6666666666665</ele><time>2026-04-28T16:44:21.467Z</time></trkpt><trkpt lat="44.4400118" lon="7.3332047"><ele>1175.0</ele><time>2026-04-28T16:44:24.504Z</time></trkpt><trkpt lat="44.4399388" lon="7.3332265"><ele>1176.3333333333333</ele><time>2026-04-28T16:44:28.492Z</time></trkpt><trkpt lat="44.4398698" lon="7.3331579"><ele>1177.6666666666667</ele><time>2026-04-28T16:44:32.5Z</time></trkpt><trkpt lat="44.4397935" lon="7.3331261"><ele>1179.0</ele><time>2026-04-28T16:44:35.471Z</time></trkpt><trkpt lat="44.4396999" lon="7.3330876"><ele>1182.5714285714284</ele><time>2026-04-28T16:44:38.486Z</time></trkpt><trkpt lat="44.4396262" lon="7.3330641"><ele>1186.142857142857</ele><time>2026-04-28T16:44:44.49Z</time></trkpt><trkpt lat="44.4395756" lon="7.3330062"><ele>1189.7142857142858</ele><time>2026-04-28T16:44:50.48Z</time></trkpt><trkpt lat="44.4394894" lon="7.3330291"><ele>1193.2857142857142</ele><time>2026-04-28T16:44:53.489Z</time></trkpt><trkpt lat="44.4394239" lon="7.3330393"><ele>1196.857142857143</ele><time>2026-04-28T16:44:56.491Z</time></trkpt><trkpt lat="44.4393672" lon="7.3330923"><ele>1200.4285714285713</ele><time>2026-04-28T16:45:02.491Z</time></trkpt><trkpt lat="44.4393096" lon="7.3331353"><ele>1204.0</ele><time>2026-04-28T16:45:05.492Z</time></trkpt><trkpt lat="44.4392313" lon="7.3331692"><ele>1204.0</ele><time>2026-04-28T16:45:09.47Z</time></trkpt><trkpt lat="44.4391747" lon="7.3332453"><ele>1204.0</ele><time>2026-04-28T16:45:12.492Z</time></trkpt><trkpt lat="44.439101" lon="7.3333222"><ele>1204.0</ele><time>2026-04-28T16:45:15.482Z</time></trkpt><trkpt lat="44.4390419" lon="7.3333799"><ele>1204.0</ele><time>2026-04-28T16:45:18.504Z</time></trkpt><trkpt lat="44.4390119" lon="7.333509"><ele>1204.0</ele><time>2026-04-28T16:45:21.488Z</time></trkpt><trkpt lat="44.4389752" lon="7.333673"><ele>1204.0</ele><time>2026-04-28T16:45:23.488Z</time></trkpt><trkpt lat="44.4389549" lon="7.3337604"><ele>1204.0</ele><time>2026-04-28T16:45:25.478Z</time></trkpt><trkpt lat="44.4388838" lon="7.3336851"><ele>1204.0</ele><time>2026-04-28T16:45:30.483Z</time></trkpt><trkpt lat="44.4388477" lon="7.3337868"><ele>1204.0</ele><time>2026-04-28T16:45:33.466Z</time></trkpt><trkpt lat="44.4388414" lon="7.3338826"><ele>1204.0</ele><time>2026-04-28T16:45:35.473Z</time></trkpt><trkpt lat="44.4387969" lon="7.3339572"><ele>1204.0</ele><time>2026-04-28T16:45:39.471Z</time></trkpt><trkpt lat="44.438735" lon="7.3340214"><ele>1205.5714285714287</ele><time>2026-04-28T16:45:43.468Z</time></trkpt><trkpt lat="44.4386566" lon="7.3340406"><ele>1207.142857142857</ele><time>2026-04-28T16:45:47.494Z</time></trkpt><trkpt lat="44.4385882" lon="7.3341067"><ele>1208.7142857142858</ele><time>2026-04-28T16:45:50.511Z</time></trkpt><trkpt lat="44.4385502" lon="7.33418"><ele>1210.2857142857142</ele><time>2026-04-28T16:45:52.511Z</time></trkpt><trkpt lat="44.4384947" lon="7.334228"><ele>1211.857142857143</ele><time>2026-04-28T16:45:58.51Z</time></trkpt><trkpt lat="44.4384307" lon="7.3342349"><ele>1213.4285714285716</ele><time>2026-04-28T16:46:03.504Z</time></trkpt><trkpt lat="44.4383666" lon="7.3342458"><ele>1215.0</ele><time>2026-04-28T16:46:13.479Z</time></trkpt><trkpt lat="44.4382855" lon="7.3342581"><ele>1215.0</ele><time>2026-04-28T16:46:17.477Z</time></trkpt><trkpt lat="44.4382168" lon="7.3343132"><ele>1215.0</ele><time>2026-04-28T16:46:20.51Z</time></trkpt><trkpt lat="44.4381258" lon="7.3343888"><ele>1215.0</ele><time>2026-04-28T16:46:22.493Z</time></trkpt><trkpt lat="44.4380503" lon="7.3344773"><ele>1215.0</ele><time>2026-04-28T16:46:24.511Z</time></trkpt><trkpt lat="44.4379865" lon="7.3345459"><ele>1215.0</ele><time>2026-04-28T16:46:26.503Z</time></trkpt><trkpt lat="44.437857" lon="7.3348191"><ele>1214.2</ele><time>2026-04-28T16:46:30.479Z</time></trkpt><trkpt lat="44.4377714" lon="7.3347883"><ele>1213.4</ele><time>2026-04-28T16:46:31.487Z</time></trkpt><trkpt lat="44.4376882" lon="7.3348095"><ele>1212.6</ele><time>2026-04-28T16:46:33.5Z</time></trkpt><trkpt lat="44.4376209" lon="7.334761"><ele>1211.8</ele><time>2026-04-28T16:46:36.477Z</time></trkpt><trkpt lat="44.4374778" lon="7.3349217"><ele>1211.0</ele><time>2026-04-28T16:46:46.504Z</time></trkpt><trkpt lat="44.437443" lon="7.3350016"><ele>1211.0</ele><time>2026-04-28T16:46:53.485Z</time></trkpt><trkpt lat="44.4373682" lon="7.335079"><ele>1211.0</ele><time>2026-04-28T16:46:57.499Z</time></trkpt><trkpt lat="44.4372862" lon="7.3351047"><ele>1211.0</ele><time>2026-04-28T16:47:00.501Z</time></trkpt><trkpt lat="44.4372083" lon="7.3351592"><ele>1211.0</ele><time>2026-04-28T16:47:03.5Z</time></trkpt><trkpt lat="44.4371249" lon="7.3352094"><ele>1211.0</ele><time>2026-04-28T16:47:07.489Z</time></trkpt><trkpt lat="44.4370542" lon="7.3352526"><ele>1211.0</ele><time>2026-04-28T16:47:09.507Z</time></trkpt><trkpt lat="44.4369873" lon="7.3352903"><ele>1211.3333333333335</ele><time>2026-04-28T16:47:11.495Z</time></trkpt><trkpt lat="44.4369325" lon="7.3353403"><ele>1211.6666666666667</ele><time>2026-04-28T16:47:14.496Z</time></trkpt><trkpt lat="44.4368664" lon="7.3354306"><ele>1212.0</ele><time>2026-04-28T16:47:18.531Z</time></trkpt><trkpt lat="44.4367967" lon="7.3354873"><ele>1212.3333333333333</ele><time>2026-04-28T16:47:20.506Z</time></trkpt><trkpt lat="44.4367299" lon="7.3355494"><ele>1212.6666666666665</ele><time>2026-04-28T16:47:22.519Z</time></trkpt><trkpt lat="44.4366559" lon="7.3356084"><ele>1213.0</ele><time>2026-04-28T16:47:25.503Z</time></trkpt><trkpt lat="44.4365968" lon="7.3356402"><ele>1213.0</ele><time>2026-04-28T16:47:27.511Z</time></trkpt><trkpt lat="44.4365341" lon="7.3356863"><ele>1213.0</ele><time>2026-04-28T16:47:29.51Z</time></trkpt><trkpt lat="44.4364755" lon="7.3357445"><ele>1213.0</ele><time>2026-04-28T16:47:31.523Z</time></trkpt><trkpt lat="44.4360627" lon="7.3359234"><ele>1213.3333333333333</ele><time>2026-04-28T16:47:35.489Z</time></trkpt><trkpt lat="44.4360711" lon="7.336049"><ele>1213.6666666666665</ele><time>2026-04-28T16:47:38.483Z</time></trkpt><trkpt lat="44.436036" lon="7.3361627"><ele>1214.0</ele><time>2026-04-28T16:47:42.511Z</time></trkpt><trkpt lat="44.4360132" lon="7.3362736"><ele>1214.3333333333333</ele><time>2026-04-28T16:47:44.512Z</time></trkpt><trkpt lat="44.4359935" lon="7.3363729"><ele>1214.6666666666667</ele><time>2026-04-28T16:47:48.517Z</time></trkpt><trkpt lat="44.4359537" lon="7.3364498"><ele>1215.0</ele><time>2026-04-28T16:47:52.532Z</time></trkpt><trkpt lat="44.4359439" lon="7.3365938"><ele>1214.3333333333333</ele><time>2026-04-28T16:47:57.503Z</time></trkpt><trkpt lat="44.4359264" lon="7.3366982"><ele>1213.6666666666667</ele><time>2026-04-28T16:48:00.521Z</time></trkpt><trkpt lat="44.4359188" lon="7.3367993"><ele>1213.0</ele><time>2026-04-28T16:48:03.517Z</time></trkpt><trkpt lat="44.4359076" lon="7.3368869"><ele>1212.3333333333335</ele><time>2026-04-28T16:48:07.498Z</time></trkpt><trkpt lat="44.4358808" lon="7.3369999"><ele>1211.6666666666667</ele><time>2026-04-28T16:48:11.509Z</time></trkpt><trkpt lat="44.4358695" lon="7.3371036"><ele>1211.0</ele><time>2026-04-28T16:48:14.511Z</time></trkpt><trkpt lat="44.4359056" lon="7.3372038"><ele>1212.1666666666667</ele><time>2026-04-28T16:48:19.496Z</time></trkpt><trkpt lat="44.4359425" lon="7.3373082"><ele>1213.3333333333335</ele><time>2026-04-28T16:48:22.532Z</time></trkpt><trkpt lat="44.4359712" lon="7.337439"><ele>1214.5</ele><time>2026-04-28T16:48:25.505Z</time></trkpt><trkpt lat="44.4359694" lon="7.3375397"><ele>1215.6666666666667</ele><time>2026-04-28T16:48:28.521Z</time></trkpt><trkpt lat="44.43594" lon="7.3376558"><ele>1216.8333333333333</ele><time>2026-04-28T16:48:31.495Z</time></trkpt><trkpt lat="44.4358995" lon="7.3377786"><ele>1218.0</ele><time>2026-04-28T16:48:33.503Z</time></trkpt><trkpt lat="44.4358595" lon="7.3378769"><ele>1218.0</ele><time>2026-04-28T16:48:35.498Z</time></trkpt><trkpt lat="44.4358318" lon="7.3379847"><ele>1218.0</ele><time>2026-04-28T16:48:38.515Z</time></trkpt><trkpt lat="44.4358149" lon="7.3380857"><ele>1218.0</ele><time>2026-04-28T16:48:41.497Z</time></trkpt><trkpt lat="44.4358003" lon="7.3381903"><ele>1218.0</ele><time>2026-04-28T16:48:46.526Z</time></trkpt><trkpt lat="44.4357719" lon="7.3382855"><ele>1218.0</ele><time>2026-04-28T16:48:49.51Z</time></trkpt><trkpt lat="44.4357581" lon="7.3383719"><ele>1218.0</ele><time>2026-04-28T16:48:52.515Z</time></trkpt><trkpt lat="44.435738" lon="7.3384825"><ele>1218.1666666666667</ele><time>2026-04-28T16:48:55.496Z</time></trkpt><trkpt lat="44.4357168" lon="7.3385737"><ele>1218.3333333333333</ele><time>2026-04-28T16:48:57.499Z</time></trkpt><trkpt lat="44.4356887" lon="7.3386627"><ele>1218.5</ele><time>2026-04-28T16:49:00.519Z</time></trkpt><trkpt lat="44.4356477" lon="7.3387313"><ele>1218.6666666666665</ele><time>2026-04-28T16:49:03.515Z</time></trkpt><trkpt lat="44.4356561" lon="7.3388518"><ele>1218.8333333333333</ele><time>2026-04-28T16:49:05.499Z</time></trkpt><trkpt lat="44.4356662" lon="7.3389825"><ele>1219.0</ele><time>2026-04-28T16:49:07.5Z</time></trkpt><trkpt lat="44.4356641" lon="7.3390849"><ele>1219.0</ele><time>2026-04-28T16:49:09.506Z</time></trkpt><trkpt lat="44.4356376" lon="7.3391666"><ele>1219.0</ele><time>2026-04-28T16:49:14.526Z</time></trkpt><trkpt lat="44.4355774" lon="7.3392927"><ele>1219.0</ele><time>2026-04-28T16:49:18.513Z</time></trkpt><trkpt lat="44.4355828" lon="7.3393975"><ele>1219.0</ele><time>2026-04-28T16:49:21.501Z</time></trkpt><trkpt lat="44.4355703" lon="7.3394852"><ele>1219.0</ele><time>2026-04-28T16:49:25.417Z</time></trkpt><trkpt lat="44.4355732" lon="7.3396092"><ele>1219.0</ele><time>2026-04-28T16:49:29.408Z</time></trkpt><trkpt lat="44.4356023" lon="7.3396889"><ele>1220.8333333333333</ele><time>2026-04-28T16:49:33.409Z</time></trkpt><trkpt lat="44.435624" lon="7.3398039"><ele>1222.6666666666665</ele><time>2026-04-28T16:49:37.428Z</time></trkpt><trkpt lat="44.4356859" lon="7.3399071"><ele>1224.5</ele><time>2026-04-28T16:49:40.406Z</time></trkpt><trkpt lat="44.4356907" lon="7.3400039"><ele>1226.3333333333333</ele><time>2026-04-28T16:49:44.41Z</time></trkpt><trkpt lat="44.4356828" lon="7.3400938"><ele>1228.1666666666667</ele><time>2026-04-28T16:49:48.435Z</time></trkpt><trkpt lat="44.4356683" lon="7.3402057"><ele>1230.0</ele><time>2026-04-28T16:49:55.408Z</time></trkpt><trkpt lat="44.4356829" lon="7.340308"><ele>1230.0</ele><time>2026-04-28T16:50:00.419Z</time></trkpt><trkpt lat="44.4356569" lon="7.3403984"><ele>1230.0</ele><time>2026-04-28T16:50:06.405Z</time></trkpt><trkpt lat="44.4356613" lon="7.3404996"><ele>1230.0</ele><time>2026-04-28T16:50:12.413Z</time></trkpt><trkpt lat="44.4356611" lon="7.3403963"><ele>1230.0</ele><time>2026-04-28T16:50:19.42Z</time></trkpt><trkpt lat="44.4356922" lon="7.340479"><ele>1230.0</ele><time>2026-04-28T16:50:23.401Z</time></trkpt><trkpt lat="44.4356839" lon="7.3406125"><ele>1230.0</ele><time>2026-04-28T16:50:27.411Z</time></trkpt><trkpt lat="44.4356834" lon="7.3407104"><ele>1230.0</ele><time>2026-04-28T16:50:28.404Z</time></trkpt><trkpt lat="44.4356631" lon="7.340817"><ele>1230.0</ele><time>2026-04-28T16:50:30.42Z</time></trkpt><trkpt lat="44.4356839" lon="7.3405463"><ele>1230.0</ele><time>2026-04-28T16:50:50.415Z</time></trkpt><trkpt lat="44.4356833" lon="7.3407023"><ele>1230.0</ele><time>2026-04-28T16:51:02.409Z</time></trkpt><trkpt lat="44.4356932" lon="7.3408405"><ele>1230.0</ele><time>2026-04-28T16:51:03.423Z</time></trkpt><trkpt lat="44.4357224" lon="7.34092"><ele>1232.2857142857142</ele><time>2026-04-28T16:51:11.41Z</time></trkpt><trkpt lat="44.4357463" lon="7.3410017"><ele>1234.5714285714287</ele><time>2026-04-28T16:51:17.391Z</time></trkpt><trkpt lat="44.4357155" lon="7.3410808"><ele>1236.857142857143</ele><time>2026-04-28T16:51:41.412Z</time></trkpt><trkpt lat="44.435693" lon="7.3411669"><ele>1239.142857142857</ele><time>2026-04-28T16:51:48.371Z</time></trkpt><trkpt lat="44.4357501" lon="7.3412077"><ele>1241.4285714285716</ele><time>2026-04-28T16:51:54.418Z</time></trkpt><trkpt lat="44.4357207" lon="7.341287"><ele>1243.7142857142858</ele><time>2026-04-28T16:52:04.423Z</time></trkpt><trkpt lat="44.4357773" lon="7.3413503"><ele>1246.0</ele><time>2026-04-28T16:52:09.431Z</time></trkpt><trkpt lat="44.4357859" lon="7.3414476"><ele>1247.6666666666665</ele><time>2026-04-28T16:52:25.401Z</time></trkpt><trkpt lat="44.4358151" lon="7.3415329"><ele>1249.3333333333333</ele><time>2026-04-28T16:52:28.44Z</time></trkpt><trkpt lat="44.4358749" lon="7.3415847"><ele>1251.0</ele><time>2026-04-28T16:52:34.423Z</time></trkpt><trkpt lat="44.4359558" lon="7.34169"><ele>1252.6666666666667</ele><time>2026-04-28T16:53:13.428Z</time></trkpt><trkpt lat="44.436025" lon="7.3416891"><ele>1254.3333333333335</ele><time>2026-04-28T16:53:14.428Z</time></trkpt><trkpt lat="44.4360271" lon="7.3415771"><ele>1256.0</ele><time>2026-04-28T16:53:15.413Z</time></trkpt><trkpt lat="44.4359668" lon="7.341539"><ele>1256.0</ele><time>2026-04-28T16:53:17.427Z</time></trkpt><trkpt lat="44.435937" lon="7.3416182"><ele>1256.0</ele><time>2026-04-28T16:53:22.418Z</time></trkpt><trkpt lat="44.4360237" lon="7.3416904"><ele>1256.0</ele><time>2026-04-28T16:53:24.416Z</time></trkpt><trkpt lat="44.435946" lon="7.3416552"><ele>1256.0</ele><time>2026-04-28T16:53:32.418Z</time></trkpt><trkpt lat="44.4359492" lon="7.3417687"><ele>1256.0</ele><time>2026-04-28T16:53:41.43Z</time></trkpt><trkpt lat="44.4359794" lon="7.3418507"><ele>1256.0</ele><time>2026-04-28T16:53:43.492Z</time></trkpt><trkpt lat="44.4360473" lon="7.3419772"><ele>1256.0</ele><time>2026-04-28T16:53:45.425Z</time></trkpt><trkpt lat="44.4361077" lon="7.3420642"><ele>1256.0</ele><time>2026-04-28T16:53:47.436Z</time></trkpt><trkpt lat="44.4361374" lon="7.3421684"><ele>1256.0</ele><time>2026-04-28T16:53:51.421Z</time></trkpt><trkpt lat="44.4361399" lon="7.3422591"><ele>1256.0</ele><time>2026-04-28T16:53:54.442Z</time></trkpt><trkpt lat="44.4361897" lon="7.3423603"><ele>1256.0</ele><time>2026-04-28T16:53:57.427Z</time></trkpt><trkpt lat="44.4362008" lon="7.3424901"><ele>1256.0</ele><time>2026-04-28T16:54:00.446Z</time></trkpt><trkpt lat="44.4361902" lon="7.3425958"><ele>1255.0</ele><time>2026-04-28T16:54:02.427Z</time></trkpt><trkpt lat="44.4361867" lon="7.3426954"><ele>1254.0</ele><time>2026-04-28T16:54:04.443Z</time></trkpt><trkpt lat="44.4361741" lon="7.3428127"><ele>1253.0</ele><time>2026-04-28T16:54:06.521Z</time></trkpt><trkpt lat="44.4361589" lon="7.3429122"><ele>1252.0</ele><time>2026-04-28T16:54:07.443Z</time></trkpt><trkpt lat="44.4361409" lon="7.3430345"><ele>1251.0</ele><time>2026-04-28T16:54:09.452Z</time></trkpt><trkpt lat="44.436148" lon="7.3431437"><ele>1250.0</ele><time>2026-04-28T16:54:12.426Z</time></trkpt><trkpt lat="44.4362047" lon="7.3431975"><ele>1248.5</ele><time>2026-04-28T16:54:14.428Z</time></trkpt><trkpt lat="44.436266" lon="7.3432522"><ele>1247.0</ele><time>2026-04-28T16:54:16.453Z</time></trkpt><trkpt lat="44.436352" lon="7.3432514"><ele>1245.5</ele><time>2026-04-28T16:54:19.409Z</time></trkpt><trkpt lat="44.4363797" lon="7.3433871"><ele>1244.0</ele><time>2026-04-28T16:54:23.429Z</time></trkpt><trkpt lat="44.4364152" lon="7.3434818"><ele>1242.5</ele><time>2026-04-28T16:54:25.436Z</time></trkpt><trkpt lat="44.4364707" lon="7.3435256"><ele>1241.0</ele><time>2026-04-28T16:54:27.431Z</time></trkpt><trkpt lat="44.4365578" lon="7.3434985"><ele>1240.857142857143</ele><time>2026-04-28T16:54:30.429Z</time></trkpt><trkpt lat="44.4366284" lon="7.3435143"><ele>1240.7142857142856</ele><time>2026-04-28T16:54:32.431Z</time></trkpt><trkpt lat="44.4366886" lon="7.3435921"><ele>1240.5714285714284</ele><time>2026-04-28T16:54:35.426Z</time></trkpt><trkpt lat="44.4367482" lon="7.3436611"><ele>1240.4285714285716</ele><time>2026-04-28T16:54:37.444Z</time></trkpt><trkpt lat="44.436805" lon="7.3437189"><ele>1240.2857142857142</ele><time>2026-04-28T16:54:39.443Z</time></trkpt><trkpt lat="44.4368649" lon="7.3437657"><ele>1240.142857142857</ele><time>2026-04-28T16:54:41.439Z</time></trkpt><trkpt lat="44.4369298" lon="7.3437639"><ele>1240.0</ele><time>2026-04-28T16:54:45.437Z</time></trkpt><trkpt lat="44.4369852" lon="7.343834"><ele>1236.1666666666665</ele><time>2026-04-28T16:54:49.441Z</time></trkpt><trkpt lat="44.4370332" lon="7.343926"><ele>1232.3333333333333</ele><time>2026-04-28T16:54:53.433Z</time></trkpt><trkpt lat="44.4371023" lon="7.3440237"><ele>1228.5</ele><time>2026-04-28T16:54:59.438Z</time></trkpt><trkpt lat="44.4371512" lon="7.3440894"><ele>1224.6666666666667</ele><time>2026-04-28T16:55:04.451Z</time></trkpt><trkpt lat="44.437206" lon="7.3441455"><ele>1220.8333333333335</ele><time>2026-04-28T16:55:10.466Z</time></trkpt><trkpt lat="44.4372482" lon="7.3442209"><ele>1217.0</ele><time>2026-04-28T16:55:15.442Z</time></trkpt><trkpt lat="44.437303" lon="7.3442998"><ele>1211.0</ele><time>2026-04-28T16:55:19.424Z</time></trkpt><trkpt lat="44.4373197" lon="7.3443917"><ele>1205.0</ele><time>2026-04-28T16:55:28.42Z</time></trkpt><trkpt lat="44.4373852" lon="7.3440392"><ele>1199.0</ele><time>2026-04-28T16:55:31.422Z</time></trkpt><trkpt lat="44.4373715" lon="7.3441383"><ele>1193.0</ele><time>2026-04-28T16:55:33.436Z</time></trkpt><trkpt lat="44.4373357" lon="7.344307"><ele>1192.9999999999998</ele><time>2026-04-28T16:55:34.443Z</time></trkpt><trkpt lat="44.4373028" lon="7.3444401"><ele>1193.0</ele><time>2026-04-28T16:55:35.423Z</time></trkpt><trkpt lat="44.4373006" lon="7.3445398"><ele>1193.0</ele><time>2026-04-28T16:55:40.424Z</time></trkpt><trkpt lat="44.437337" lon="7.3446336"><ele>1193.0</ele><time>2026-04-28T16:55:47.415Z</time></trkpt><trkpt lat="44.4373846" lon="7.3446914"><ele>1193.0</ele><time>2026-04-28T16:55:52.404Z</time></trkpt><trkpt lat="44.4374041" lon="7.3447858"><ele>1192.9999999999998</ele><time>2026-04-28T16:55:57.431Z</time></trkpt><trkpt lat="44.4373972" lon="7.344876"><ele>1193.0</ele><time>2026-04-28T16:56:09.403Z</time></trkpt><trkpt lat="44.4374091" lon="7.3449683"><ele>1189.5</ele><time>2026-04-28T16:56:19.402Z</time></trkpt><trkpt lat="44.437452" lon="7.3450482"><ele>1186.0</ele><time>2026-04-28T16:56:28.228Z</time></trkpt><trkpt lat="44.4374737" lon="7.3451402"><ele>1182.5</ele><time>2026-04-28T16:56:38.513Z</time></trkpt><trkpt lat="44.4375202" lon="7.3452124"><ele>1179.0</ele><time>2026-04-28T16:56:46.539Z</time></trkpt><trkpt lat="44.4376717" lon="7.3455492"><ele>1176.8571428571427</ele><time>2026-04-28T16:56:47.512Z</time></trkpt><trkpt lat="44.4376908" lon="7.3456594"><ele>1174.7142857142858</ele><time>2026-04-28T16:56:50.529Z</time></trkpt><trkpt lat="44.4377106" lon="7.3457478"><ele>1172.5714285714284</ele><time>2026-04-28T16:56:52.527Z</time></trkpt><trkpt lat="44.4377583" lon="7.3458268"><ele>1170.4285714285713</ele><time>2026-04-28T16:56:56.508Z</time></trkpt><trkpt lat="44.4377817" lon="7.3459309"><ele>1168.2857142857142</ele><time>2026-04-28T16:57:00.511Z</time></trkpt><trkpt lat="44.4377848" lon="7.346032"><ele>1166.142857142857</ele><time>2026-04-28T16:57:03.509Z</time></trkpt><trkpt lat="44.4377953" lon="7.346123"><ele>1164.0</ele><time>2026-04-28T16:57:05.509Z</time></trkpt><trkpt lat="44.437848" lon="7.3462019"><ele>1164.0</ele><time>2026-04-28T16:57:14.504Z</time></trkpt><trkpt lat="44.4379118" lon="7.3461288"><ele>1164.0</ele><time>2026-04-28T16:57:16.498Z</time></trkpt><trkpt lat="44.4379353" lon="7.3463046"><ele>1164.0</ele><time>2026-04-28T16:57:35.489Z</time></trkpt><trkpt lat="44.4379573" lon="7.3464153"><ele>1164.0</ele><time>2026-04-28T16:57:36.513Z</time></trkpt><trkpt lat="44.4379755" lon="7.3465407"><ele>1164.0</ele><time>2026-04-28T16:57:37.505Z</time></trkpt><trkpt lat="44.4379928" lon="7.3466287"><ele>1164.0</ele><time>2026-04-28T16:57:40.459Z</time></trkpt><trkpt lat="44.4380177" lon="7.3467233"><ele>1165.4</ele><time>2026-04-28T16:57:43.493Z</time></trkpt><trkpt lat="44.4380759" lon="7.3468142"><ele>1166.8000000000002</ele><time>2026-04-28T16:57:46.51Z</time></trkpt><trkpt lat="44.4381321" lon="7.3468624"><ele>1168.1999999999998</ele><time>2026-04-28T16:57:49.498Z</time></trkpt><trkpt lat="44.4382051" lon="7.3469043"><ele>1169.6</ele><time>2026-04-28T16:57:52.563Z</time></trkpt><trkpt lat="44.4383058" lon="7.3471201"><ele>1171.0</ele><time>2026-04-28T16:57:54.499Z</time></trkpt><trkpt lat="44.4383441" lon="7.3472784"><ele>1168.6666666666665</ele><time>2026-04-28T16:57:55.495Z</time></trkpt><trkpt lat="44.438343" lon="7.3474073"><ele>1166.3333333333333</ele><time>2026-04-28T16:57:57.49Z</time></trkpt><trkpt lat="44.4382884" lon="7.3474603"><ele>1164.0</ele><time>2026-04-28T16:57:59.484Z</time></trkpt><trkpt lat="44.4382282" lon="7.347548"><ele>1161.6666666666667</ele><time>2026-04-28T16:58:02.504Z</time></trkpt><trkpt lat="44.4381743" lon="7.3476281"><ele>1159.3333333333335</ele><time>2026-04-28T16:58:05.482Z</time></trkpt><trkpt lat="44.438136" lon="7.3477148"><ele>1157.0</ele><time>2026-04-28T16:58:08.496Z</time></trkpt><trkpt lat="44.438085" lon="7.3478025"><ele>1157.0</ele><time>2026-04-28T16:58:11.492Z</time></trkpt><trkpt lat="44.4380678" lon="7.3479223"><ele>1157.0</ele><time>2026-04-28T16:58:14.484Z</time></trkpt><trkpt lat="44.4380171" lon="7.3480194"><ele>1157.0</ele><time>2026-04-28T16:58:17.492Z</time></trkpt><trkpt lat="44.4379677" lon="7.3480754"><ele>1157.0</ele><time>2026-04-28T16:58:19.48Z</time></trkpt><trkpt lat="44.4379124" lon="7.348135"><ele>1157.0</ele><time>2026-04-28T16:58:21.499Z</time></trkpt><trkpt lat="44.4378296" lon="7.3482504"><ele>1157.0</ele><time>2026-04-28T16:58:23.556Z</time></trkpt><trkpt lat="44.4377643" lon="7.3483553"><ele>1151.0</ele><time>2026-04-28T16:58:25.474Z</time></trkpt><trkpt lat="44.4377008" lon="7.3484579"><ele>1145.0</ele><time>2026-04-28T16:58:27.475Z</time></trkpt><trkpt lat="44.4376364" lon="7.3485923"><ele>1139.0</ele><time>2026-04-28T16:58:29.502Z</time></trkpt><trkpt lat="44.4375733" lon="7.3487111"><ele>1133.0</ele><time>2026-04-28T16:58:31.495Z</time></trkpt><trkpt lat="44.4375264" lon="7.3488733"><ele>1127.0</ele><time>2026-04-28T16:58:33.501Z</time></trkpt><trkpt lat="44.4375163" lon="7.3489775"><ele>1126.6666666666667</ele><time>2026-04-28T16:58:34.504Z</time></trkpt><trkpt lat="44.4375018" lon="7.3490712"><ele>1126.3333333333335</ele><time>2026-04-28T16:58:35.482Z</time></trkpt><trkpt lat="44.4374873" lon="7.3491983"><ele>1126.0</ele><time>2026-04-28T16:58:37.487Z</time></trkpt><trkpt lat="44.437517" lon="7.3493011"><ele>1125.6666666666667</ele><time>2026-04-28T16:58:40.495Z</time></trkpt><trkpt lat="44.4375555" lon="7.3493737"><ele>1125.3333333333333</ele><time>2026-04-28T16:58:43.485Z</time></trkpt><trkpt lat="44.437618" lon="7.3494383"><ele>1125.0</ele><time>2026-04-28T16:58:48.511Z</time></trkpt><trkpt lat="44.4376826" lon="7.3495047"><ele>1125.0</ele><time>2026-04-28T16:58:52.503Z</time></trkpt><trkpt lat="44.4377569" lon="7.3495712"><ele>1125.0</ele><time>2026-04-28T16:58:55.473Z</time></trkpt><trkpt lat="44.4378059" lon="7.3496551"><ele>1125.0</ele><time>2026-04-28T16:58:59.482Z</time></trkpt><trkpt lat="44.4378636" lon="7.3497164"><ele>1125.0</ele><time>2026-04-28T16:59:03.486Z</time></trkpt><trkpt lat="44.4379296" lon="7.3497411"><ele>1125.0</ele><time>2026-04-28T16:59:06.479Z</time></trkpt><trkpt lat="44.4379719" lon="7.3498367"><ele>1125.0</ele><time>2026-04-28T16:59:09.481Z</time></trkpt><trkpt lat="44.4379704" lon="7.3499379"><ele>1124.3333333333333</ele><time>2026-04-28T16:59:12.482Z</time></trkpt><trkpt lat="44.4379608" lon="7.3500686"><ele>1123.6666666666667</ele><time>2026-04-28T16:59:15.476Z</time></trkpt><trkpt lat="44.4379425" lon="7.3501723"><ele>1123.0</ele><time>2026-04-28T16:59:17.468Z</time></trkpt><trkpt lat="44.4379235" lon="7.3502734"><ele>1122.3333333333335</ele><time>2026-04-28T16:59:20.483Z</time></trkpt><trkpt lat="44.4378965" lon="7.3503607"><ele>1121.6666666666667</ele><time>2026-04-28T16:59:22.476Z</time></trkpt><trkpt lat="44.4378876" lon="7.3504604"><ele>1121.0</ele><time>2026-04-28T16:59:24.497Z</time></trkpt><trkpt lat="44.4378877" lon="7.3505548"><ele>1119.4285714285716</ele><time>2026-04-28T16:59:26.473Z</time></trkpt><trkpt lat="44.4378746" lon="7.350648"><ele>1117.857142857143</ele><time>2026-04-28T16:59:28.476Z</time></trkpt><trkpt lat="44.4378729" lon="7.3507363"><ele>1116.2857142857142</ele><time>2026-04-28T16:59:32.491Z</time></trkpt><trkpt lat="44.4378522" lon="7.3508434"><ele>1114.7142857142858</ele><time>2026-04-28T16:59:35.476Z</time></trkpt><trkpt lat="44.4378131" lon="7.350944"><ele>1113.142857142857</ele><time>2026-04-28T16:59:38.477Z</time></trkpt><trkpt lat="44.4377661" lon="7.3510433"><ele>1111.5714285714287</ele><time>2026-04-28T16:59:42.493Z</time></trkpt><trkpt lat="44.4377748" lon="7.3511364"><ele>1110.0</ele><time>2026-04-28T16:59:45.47Z</time></trkpt><trkpt lat="44.437828" lon="7.3512214"><ele>1110.0000000000002</ele><time>2026-04-28T16:59:47.45Z</time></trkpt><trkpt lat="44.437872" lon="7.3512946"><ele>1110.0</ele><time>2026-04-28T16:59:49.467Z</time></trkpt><trkpt lat="44.4379196" lon="7.3513815"><ele>1110.0</ele><time>2026-04-28T16:59:52.463Z</time></trkpt><trkpt lat="44.4379807" lon="7.3514458"><ele>1110.0</ele><time>2026-04-28T16:59:55.494Z</time></trkpt><trkpt lat="44.4380204" lon="7.3515163"><ele>1110.0</ele><time>2026-04-28T16:59:57.475Z</time></trkpt><trkpt lat="44.4380434" lon="7.3516153"><ele>1110.0000000000002</ele><time>2026-04-28T16:59:59.465Z</time></trkpt><trkpt lat="44.4380813" lon="7.3517206"><ele>1110.0</ele><time>2026-04-28T17:00:01.473Z</time></trkpt><trkpt lat="44.4380929" lon="7.3518443"><ele>1105.0000000000002</ele><time>2026-04-28T17:00:04.49Z</time></trkpt><trkpt lat="44.4381139" lon="7.3519465"><ele>1100.0</ele><time>2026-04-28T17:00:07.463Z</time></trkpt><trkpt lat="44.4381784" lon="7.3519749"><ele>1095.0</ele><time>2026-04-28T17:00:15.487Z</time></trkpt><trkpt lat="44.4382398" lon="7.3519412"><ele>1090.0</ele><time>2026-04-28T17:00:24.464Z</time></trkpt><trkpt lat="44.4383035" lon="7.3519471"><ele>1085.0</ele><time>2026-04-28T17:00:28.475Z</time></trkpt><trkpt lat="44.438386" lon="7.3519211"><ele>1080.0000000000002</ele><time>2026-04-28T17:00:35.464Z</time></trkpt><trkpt lat="44.4384513" lon="7.3519133"><ele>1075.0</ele><time>2026-04-28T17:00:39.464Z</time></trkpt><trkpt lat="44.4385169" lon="7.3519454"><ele>1075.0</ele><time>2026-04-28T17:00:42.448Z</time></trkpt><trkpt lat="44.4385837" lon="7.3519197"><ele>1075.0</ele><time>2026-04-28T17:00:46.46Z</time></trkpt><trkpt lat="44.4386398" lon="7.3518675"><ele>1075.0</ele><time>2026-04-28T17:00:53.433Z</time></trkpt><trkpt lat="44.4387084" lon="7.351819"><ele>1075.0</ele><time>2026-04-28T17:00:57.45Z</time></trkpt><trkpt lat="44.4387738" lon="7.3517546"><ele>1075.0</ele><time>2026-04-28T17:01:00.447Z</time></trkpt><trkpt lat="44.4388454" lon="7.3516819"><ele>1075.0</ele><time>2026-04-28T17:01:05.471Z</time></trkpt><trkpt lat="44.4389156" lon="7.3516626"><ele>1069.6666666666665</ele><time>2026-04-28T17:01:09.444Z</time></trkpt><trkpt lat="44.4389971" lon="7.3516684"><ele>1064.3333333333333</ele><time>2026-04-28T17:01:12.529Z</time></trkpt><trkpt lat="44.4390854" lon="7.3516582"><ele>1059.0</ele><time>2026-04-28T17:01:15.459Z</time></trkpt><trkpt lat="44.4391492" lon="7.3516306"><ele>1053.6666666666667</ele><time>2026-04-28T17:01:17.546Z</time></trkpt><trkpt lat="44.4392242" lon="7.3516039"><ele>1048.3333333333335</ele><time>2026-04-28T17:01:19.468Z</time></trkpt><trkpt lat="44.4392912" lon="7.3515702"><ele>1043.0</ele><time>2026-04-28T17:01:21.457Z</time></trkpt><trkpt lat="44.4393565" lon="7.3515455"><ele>1043.0</ele><time>2026-04-28T17:01:23.516Z</time></trkpt><trkpt lat="44.4394361" lon="7.3515235"><ele>1043.0</ele><time>2026-04-28T17:01:25.455Z</time></trkpt><trkpt lat="44.4395055" lon="7.3515058"><ele>1043.0</ele><time>2026-04-28T17:01:27.452Z</time></trkpt><trkpt lat="44.4395846" lon="7.351504"><ele>1043.0</ele><time>2026-04-28T17:01:30.434Z</time></trkpt><trkpt lat="44.4396794" lon="7.351482"><ele>1043.0</ele><time>2026-04-28T17:01:33.448Z</time></trkpt><trkpt lat="44.4397597" lon="7.3514689"><ele>1043.0</ele><time>2026-04-28T17:01:35.456Z</time></trkpt><trkpt lat="44.4398486" lon="7.3514572"><ele>1042.142857142857</ele><time>2026-04-28T17:01:37.442Z</time></trkpt><trkpt lat="44.4399257" lon="7.3514514"><ele>1041.2857142857142</ele><time>2026-04-28T17:01:39.452Z</time></trkpt><trkpt lat="44.4399916" lon="7.3514294"><ele>1040.4285714285716</ele><time>2026-04-28T17:01:41.45Z</time></trkpt><trkpt lat="44.4400806" lon="7.3514097"><ele>1039.5714285714284</ele><time>2026-04-28T17:01:44.431Z</time></trkpt><trkpt lat="44.4401455" lon="7.3513936"><ele>1038.7142857142858</ele><time>2026-04-28T17:01:46.441Z</time></trkpt><trkpt lat="44.440207" lon="7.3513724"><ele>1037.857142857143</ele><time>2026-04-28T17:01:48.443Z</time></trkpt><trkpt lat="44.4402843" lon="7.3513502"><ele>1037.0</ele><time>2026-04-28T17:01:51.449Z</time></trkpt><trkpt lat="44.4403573" lon="7.3513379"><ele>1037.0</ele><time>2026-04-28T17:01:54.494Z</time></trkpt><trkpt lat="44.440441" lon="7.3513286"><ele>1037.0</ele><time>2026-04-28T17:01:57.45Z</time></trkpt><trkpt lat="44.4405326" lon="7.351338"><ele>1037.0</ele><time>2026-04-28T17:02:00.447Z</time></trkpt><trkpt lat="44.4405953" lon="7.3513493"><ele>1037.0</ele><time>2026-04-28T17:02:02.454Z</time></trkpt><trkpt lat="44.440662" lon="7.3513648"><ele>1037.0</ele><time>2026-04-28T17:02:04.447Z</time></trkpt><trkpt lat="44.4407255" lon="7.3513827"><ele>1037.0</ele><time>2026-04-28T17:02:06.478Z</time></trkpt><trkpt lat="44.4408152" lon="7.3514024"><ele>1030.1666666666667</ele><time>2026-04-28T17:02:09.424Z</time></trkpt><trkpt lat="44.4408953" lon="7.3514458"><ele>1023.3333333333334</ele><time>2026-04-28T17:02:12.445Z</time></trkpt><trkpt lat="44.4409737" lon="7.3514884"><ele>1016.5</ele><time>2026-04-28T17:02:15.449Z</time></trkpt><trkpt lat="44.4410467" lon="7.3515382"><ele>1009.6666666666667</ele><time>2026-04-28T17:02:18.445Z</time></trkpt><trkpt lat="44.4411078" lon="7.3515859"><ele>1002.8333333333334</ele><time>2026-04-28T17:02:21.443Z</time></trkpt><trkpt lat="44.4411702" lon="7.351655"><ele>996.0</ele><time>2026-04-28T17:02:24.515Z</time></trkpt><trkpt lat="44.4412298" lon="7.3517014"><ele>993.6666666666666</ele><time>2026-04-28T17:02:27.448Z</time></trkpt><trkpt lat="44.4413022" lon="7.3517336"><ele>991.3333333333333</ele><time>2026-04-28T17:02:30.435Z</time></trkpt><trkpt lat="44.4413848" lon="7.3517743"><ele>989.0</ele><time>2026-04-28T17:02:33.446Z</time></trkpt><trkpt lat="44.4414441" lon="7.3518088"><ele>986.6666666666666</ele><time>2026-04-28T17:02:35.435Z</time></trkpt><trkpt lat="44.4415052" lon="7.351855"><ele>984.3333333333333</ele><time>2026-04-28T17:02:37.453Z</time></trkpt><trkpt lat="44.4415881" lon="7.3519011"><ele>982.0</ele><time>2026-04-28T17:02:40.452Z</time></trkpt><trkpt lat="44.4416708" lon="7.351914"><ele>981.9999999999999</ele><time>2026-04-28T17:02:42.443Z</time></trkpt><trkpt lat="44.4417539" lon="7.3519243"><ele>982.0</ele><time>2026-04-28T17:02:44.449Z</time></trkpt><trkpt lat="44.4418352" lon="7.3519314"><ele>982.0</ele><time>2026-04-28T17:02:46.443Z</time></trkpt><trkpt lat="44.4419053" lon="7.3519447"><ele>982.0</ele><time>2026-04-28T17:02:48.436Z</time></trkpt><trkpt lat="44.4419751" lon="7.3519518"><ele>981.9999999999999</ele><time>2026-04-28T17:02:50.449Z</time></trkpt><trkpt lat="44.4420545" lon="7.3519799"><ele>982.0</ele><time>2026-04-28T17:02:53.434Z</time></trkpt><trkpt lat="44.4421196" lon="7.3519939"><ele>980.9999999999999</ele><time>2026-04-28T17:02:57.425Z</time></trkpt><trkpt lat="44.4422017" lon="7.3520369"><ele>980.0</ele><time>2026-04-28T17:03:02.437Z</time></trkpt><trkpt lat="44.4422679" lon="7.352096"><ele>979.0</ele><time>2026-04-28T17:03:05.428Z</time></trkpt><trkpt lat="44.4423383" lon="7.3521491"><ele>978.0</ele><time>2026-04-28T17:03:09.413Z</time></trkpt><trkpt lat="44.4424238" lon="7.352178"><ele>976.9999999999999</ele><time>2026-04-28T17:03:14.432Z</time></trkpt><trkpt lat="44.4425001" lon="7.3522072"><ele>976.0</ele><time>2026-04-28T17:03:17.433Z</time></trkpt><trkpt lat="44.4425657" lon="7.3522248"><ele>971.4999999999999</ele><time>2026-04-28T17:03:20.441Z</time></trkpt><trkpt lat="44.442676" lon="7.3522607"><ele>967.0</ele><time>2026-04-28T17:03:26.438Z</time></trkpt><trkpt lat="44.4427512" lon="7.3522859"><ele>962.5</ele><time>2026-04-28T17:03:30.418Z</time></trkpt><trkpt lat="44.4428302" lon="7.3523154"><ele>958.0</ele><time>2026-04-28T17:03:34.482Z</time></trkpt><trkpt lat="44.4429235" lon="7.3523666"><ele>953.4999999999999</ele><time>2026-04-28T17:03:39.43Z</time></trkpt><trkpt lat="44.4429828" lon="7.3524102"><ele>949.0</ele><time>2026-04-28T17:03:43.405Z</time></trkpt><trkpt lat="44.4430161" lon="7.3524874"><ele>947.0000000000001</ele><time>2026-04-28T17:03:47.424Z</time></trkpt><trkpt lat="44.4430696" lon="7.3525584"><ele>945.0</ele><time>2026-04-28T17:03:57.441Z</time></trkpt><trkpt lat="44.4431162" lon="7.3526257"><ele>943.0000000000001</ele><time>2026-04-28T17:04:02.417Z</time></trkpt><trkpt lat="44.4431523" lon="7.3526999"><ele>941.0000000000001</ele><time>2026-04-28T17:04:06.428Z</time></trkpt><trkpt lat="44.4432109" lon="7.352768"><ele>939.0</ele><time>2026-04-28T17:04:09.412Z</time></trkpt><trkpt lat="44.4432472" lon="7.3528676"><ele>937.0000000000001</ele><time>2026-04-28T17:04:13.425Z</time></trkpt><trkpt lat="44.4433087" lon="7.3529544"><ele>935.0000000000001</ele><time>2026-04-28T17:04:16.419Z</time></trkpt><trkpt lat="44.443364" lon="7.3530496"><ele>931.6666666666667</ele><time>2026-04-28T17:04:19.428Z</time></trkpt><trkpt lat="44.4434121" lon="7.3531154"><ele>928.3333333333334</ele><time>2026-04-28T17:04:23.422Z</time></trkpt><trkpt lat="44.443477" lon="7.3531897"><ele>925.0</ele><time>2026-04-28T17:04:26.425Z</time></trkpt><trkpt lat="44.4435373" lon="7.3532194"><ele>921.6666666666667</ele><time>2026-04-28T17:04:28.403Z</time></trkpt><trkpt lat="44.4436055" lon="7.353287"><ele>918.3333333333334</ele><time>2026-04-28T17:04:31.422Z</time></trkpt><trkpt lat="44.4436717" lon="7.3533413"><ele>915.0</ele><time>2026-04-28T17:04:34.41Z</time></trkpt><trkpt lat="44.4437503" lon="7.3533618"><ele>913.0</ele><time>2026-04-28T17:04:37.452Z</time></trkpt><trkpt lat="44.4438422" lon="7.3534003"><ele>911.0</ele><time>2026-04-28T17:04:41.425Z</time></trkpt><trkpt lat="44.4439124" lon="7.3534234"><ele>909.0</ele><time>2026-04-28T17:04:45.508Z</time></trkpt><trkpt lat="44.4439898" lon="7.3534934"><ele>907.0</ele><time>2026-04-28T17:04:56.474Z</time></trkpt><trkpt lat="44.4440205" lon="7.3535821"><ele>905.0</ele><time>2026-04-28T17:05:02.53Z</time></trkpt><trkpt lat="44.4440929" lon="7.3536046"><ele>903.0</ele><time>2026-04-28T17:05:08.53Z</time></trkpt><trkpt lat="44.4441744" lon="7.3536183"><ele>903.0</ele><time>2026-04-28T17:05:18.451Z</time></trkpt><trkpt lat="44.4442337" lon="7.3536515"><ele>903.0</ele><time>2026-04-28T17:05:21.54Z</time></trkpt><trkpt lat="44.4442933" lon="7.3536133"><ele>903.0</ele><time>2026-04-28T17:05:28.552Z</time></trkpt><trkpt lat="44.4445374" lon="7.353828"><ele>903.0</ele><time>2026-04-28T17:05:35.507Z</time></trkpt><trkpt lat="44.4446166" lon="7.3538435"><ele>900.0</ele><time>2026-04-28T17:05:39.491Z</time></trkpt><trkpt lat="44.4447073" lon="7.3538633"><ele>897.0</ele><time>2026-04-28T17:05:42.51Z</time></trkpt><trkpt lat="44.4447734" lon="7.3538489"><ele>894.0</ele><time>2026-04-28T17:05:44.509Z</time></trkpt><trkpt lat="44.4448396" lon="7.3538302"><ele>891.0</ele><time>2026-04-28T17:05:46.509Z</time></trkpt><trkpt lat="44.444924" lon="7.353837"><ele>888.0</ele><time>2026-04-28T17:05:49.499Z</time></trkpt><trkpt lat="44.4450011" lon="7.3538219"><ele>885.0</ele><time>2026-04-28T17:05:51.506Z</time></trkpt><trkpt lat="44.4450861" lon="7.353826"><ele>885.0</ele><time>2026-04-28T17:05:53.493Z</time></trkpt><trkpt lat="44.445163" lon="7.3538104"><ele>885.0</ele><time>2026-04-28T17:05:55.503Z</time></trkpt><trkpt lat="44.4452348" lon="7.3538095"><ele>885.0</ele><time>2026-04-28T17:05:58.525Z</time></trkpt><trkpt lat="44.4453181" lon="7.3538447"><ele>885.0</ele><time>2026-04-28T17:06:03.517Z</time></trkpt><trkpt lat="44.445403" lon="7.3538673"><ele>885.0</ele><time>2026-04-28T17:06:06.511Z</time></trkpt><trkpt lat="44.4454753" lon="7.3538849"><ele>885.0</ele><time>2026-04-28T17:06:08.502Z</time></trkpt><trkpt lat="44.4455423" lon="7.3539265"><ele>881.1666666666666</ele><time>2026-04-28T17:06:10.514Z</time></trkpt><trkpt lat="44.4456177" lon="7.3539471"><ele>877.3333333333333</ele><time>2026-04-28T17:06:12.536Z</time></trkpt><trkpt lat="44.4456986" lon="7.3539721"><ele>873.5</ele><time>2026-04-28T17:06:14.491Z</time></trkpt><trkpt lat="44.4457779" lon="7.353996"><ele>869.6666666666666</ele><time>2026-04-28T17:06:16.503Z</time></trkpt><trkpt lat="44.4458629" lon="7.3540304"><ele>865.8333333333333</ele><time>2026-04-28T17:06:18.579Z</time></trkpt><trkpt lat="44.4459271" lon="7.3540841"><ele>862.0</ele><time>2026-04-28T17:06:21.493Z</time></trkpt><trkpt lat="44.446034" lon="7.354114"><ele>861.9999999999999</ele><time>2026-04-28T17:06:28.513Z</time></trkpt><trkpt lat="44.4461146" lon="7.3541658"><ele>862.0</ele><time>2026-04-28T17:06:31.519Z</time></trkpt><trkpt lat="44.4461841" lon="7.3542041"><ele>862.0</ele><time>2026-04-28T17:06:33.487Z</time></trkpt><trkpt lat="44.4462608" lon="7.3542071"><ele>862.0</ele><time>2026-04-28T17:06:35.478Z</time></trkpt><trkpt lat="44.4463397" lon="7.3542114"><ele>861.9999999999999</ele><time>2026-04-28T17:06:37.478Z</time></trkpt><trkpt lat="44.4464045" lon="7.3542181"><ele>862.0</ele><time>2026-04-28T17:06:39.477Z</time></trkpt><trkpt lat="44.4464735" lon="7.3542374"><ele>860.3333333333333</ele><time>2026-04-28T17:06:41.477Z</time></trkpt><trkpt lat="44.4465491" lon="7.3542477"><ele>858.6666666666666</ele><time>2026-04-28T17:06:43.493Z</time></trkpt><trkpt lat="44.446634" lon="7.3542823"><ele>857.0</ele><time>2026-04-28T17:06:45.479Z</time></trkpt><trkpt lat="44.4467194" lon="7.3542999"><ele>855.3333333333333</ele><time>2026-04-28T17:06:47.481Z</time></trkpt><trkpt lat="44.4468045" lon="7.35433"><ele>853.6666666666666</ele><time>2026-04-28T17:06:49.471Z</time></trkpt><trkpt lat="44.4468829" lon="7.3543557"><ele>852.0</ele><time>2026-04-28T17:06:51.48Z</time></trkpt><trkpt lat="44.4469515" lon="7.3543697"><ele>852.0</ele><time>2026-04-28T17:06:53.476Z</time></trkpt><trkpt lat="44.4470381" lon="7.354358"><ele>852.0</ele><time>2026-04-28T17:06:56.483Z</time></trkpt><trkpt lat="44.4471152" lon="7.3543305"><ele>852.0</ele><time>2026-04-28T17:06:58.49Z</time></trkpt><trkpt lat="44.4471858" lon="7.3543062"><ele>852.0</ele><time>2026-04-28T17:07:00.475Z</time></trkpt><trkpt lat="44.447286" lon="7.3542916"><ele>852.0</ele><time>2026-04-28T17:07:03.475Z</time></trkpt><trkpt lat="44.4473621" lon="7.3542804"><ele>852.0</ele><time>2026-04-28T17:07:05.468Z</time></trkpt><trkpt lat="44.4474528" lon="7.3542682"><ele>849.8333333333334</ele><time>2026-04-28T17:07:07.473Z</time></trkpt><trkpt lat="44.4475359" lon="7.3542765"><ele>847.6666666666667</ele><time>2026-04-28T17:07:09.464Z</time></trkpt><trkpt lat="44.4476045" lon="7.354279"><ele>845.5</ele><time>2026-04-28T17:07:11.48Z</time></trkpt><trkpt lat="44.4477007" lon="7.3542552"><ele>843.3333333333334</ele><time>2026-04-28T17:07:14.486Z</time></trkpt><trkpt lat="44.4477642" lon="7.3542309"><ele>841.1666666666667</ele><time>2026-04-28T17:07:16.5Z</time></trkpt><trkpt lat="44.4478424" lon="7.3541996"><ele>839.0</ele><time>2026-04-28T17:07:18.483Z</time></trkpt><trkpt lat="44.4479311" lon="7.3541606"><ele>837.0000000000001</ele><time>2026-04-28T17:07:20.493Z</time></trkpt><trkpt lat="44.4480212" lon="7.3541481"><ele>835.0</ele><time>2026-04-28T17:07:22.489Z</time></trkpt><trkpt lat="44.4481106" lon="7.3541389"><ele>833.0</ele><time>2026-04-28T17:07:24.492Z</time></trkpt><trkpt lat="44.4482011" lon="7.3541378"><ele>831.0</ele><time>2026-04-28T17:07:26.478Z</time></trkpt><trkpt lat="44.4483004" lon="7.3541014"><ele>829.0000000000001</ele><time>2026-04-28T17:07:28.469Z</time></trkpt><trkpt lat="44.4483681" lon="7.3540782"><ele>827.0</ele><time>2026-04-28T17:07:29.472Z</time></trkpt><trkpt lat="44.4484319" lon="7.3540686"><ele>827.0</ele><time>2026-04-28T17:07:30.484Z</time></trkpt><trkpt lat="44.4485229" lon="7.3540293"><ele>827.0</ele><time>2026-04-28T17:07:32.553Z</time></trkpt><trkpt lat="44.4486154" lon="7.3540033"><ele>827.0</ele><time>2026-04-28T17:07:34.485Z</time></trkpt><trkpt lat="44.4487174" lon="7.3539859"><ele>827.0</ele><time>2026-04-28T17:07:36.476Z</time></trkpt><trkpt lat="44.448819" lon="7.353962"><ele>827.0</ele><time>2026-04-28T17:07:38.48Z</time></trkpt><trkpt lat="44.4489184" lon="7.3539481"><ele>826.0</ele><time>2026-04-28T17:07:40.49Z</time></trkpt><trkpt lat="44.4490392" lon="7.3539057"><ele>825.0</ele><time>2026-04-28T17:07:42.48Z</time></trkpt><trkpt lat="44.4491594" lon="7.3538787"><ele>824.0</ele><time>2026-04-28T17:07:44.472Z</time></trkpt><trkpt lat="44.4492438" lon="7.3538538"><ele>823.0</ele><time>2026-04-28T17:07:46.477Z</time></trkpt><trkpt lat="44.4493288" lon="7.3538213"><ele>822.0</ele><time>2026-04-28T17:07:48.473Z</time></trkpt><trkpt lat="44.4494295" lon="7.3538047"><ele>821.0</ele><time>2026-04-28T17:07:50.536Z</time></trkpt><trkpt lat="44.4495195" lon="7.3537988"><ele>820.0</ele><time>2026-04-28T17:07:52.472Z</time></trkpt><trkpt lat="44.4495978" lon="7.3537945"><ele>819.0</ele><time>2026-04-28T17:07:54.473Z</time></trkpt><trkpt lat="44.4496771" lon="7.3537913"><ele>818.0</ele><time>2026-04-28T17:07:56.521Z</time></trkpt><trkpt lat="44.4497408" lon="7.3537835"><ele>817.0</ele><time>2026-04-28T17:07:58.461Z</time></trkpt><trkpt lat="44.4498118" lon="7.3537788"><ele>816.0</ele><time>2026-04-28T17:08:00.467Z</time></trkpt><trkpt lat="44.4498975" lon="7.3537817"><ele>814.1666666666666</ele><time>2026-04-28T17:08:02.477Z</time></trkpt><trkpt lat="44.4499868" lon="7.3537661"><ele>812.3333333333333</ele><time>2026-04-28T17:08:04.458Z</time></trkpt><trkpt lat="44.4500661" lon="7.353738"><ele>810.5</ele><time>2026-04-28T17:08:06.477Z</time></trkpt><trkpt lat="44.4501493" lon="7.3537452"><ele>808.6666666666666</ele><time>2026-04-28T17:08:08.469Z</time></trkpt><trkpt lat="44.4502234" lon="7.3537433"><ele>806.8333333333333</ele><time>2026-04-28T17:08:10.461Z</time></trkpt><trkpt lat="44.4503001" lon="7.353738"><ele>805.0</ele><time>2026-04-28T17:08:12.466Z</time></trkpt><trkpt lat="44.4503827" lon="7.353731"><ele>801.4999999999999</ele><time>2026-04-28T17:08:14.466Z</time></trkpt><trkpt lat="44.4504718" lon="7.3537339"><ele>798.0</ele><time>2026-04-28T17:08:16.458Z</time></trkpt><trkpt lat="44.4505658" lon="7.3537311"><ele>794.5</ele><time>2026-04-28T17:08:18.454Z</time></trkpt><trkpt lat="44.4506342" lon="7.3537549"><ele>791.0</ele><time>2026-04-28T17:08:20.458Z</time></trkpt><trkpt lat="44.4507076" lon="7.3537752"><ele>787.4999999999999</ele><time>2026-04-28T17:08:23.472Z</time></trkpt><trkpt lat="44.4507583" lon="7.3537191"><ele>784.0</ele><time>2026-04-28T17:08:27.443Z</time></trkpt><trkpt lat="44.4508439" lon="7.3537138"><ele>784.0</ele><time>2026-04-28T17:08:31.451Z</time></trkpt><trkpt lat="44.4509165" lon="7.3537618"><ele>784.0</ele><time>2026-04-28T17:08:33.466Z</time></trkpt><trkpt lat="44.451097" lon="7.3537419"><ele>784.0</ele><time>2026-04-28T17:08:37.455Z</time></trkpt><trkpt lat="44.4511477" lon="7.353828"><ele>784.0</ele><time>2026-04-28T17:08:38.463Z</time></trkpt><trkpt lat="44.4513071" lon="7.3539385"><ele>783.6</ele><time>2026-04-28T17:08:43.452Z</time></trkpt><trkpt lat="44.4514077" lon="7.3539508"><ele>783.2</ele><time>2026-04-28T17:08:46.451Z</time></trkpt><trkpt lat="44.4514902" lon="7.3539391"><ele>782.8000000000001</ele><time>2026-04-28T17:08:48.523Z</time></trkpt><trkpt lat="44.4515922" lon="7.3539751"><ele>782.4000000000001</ele><time>2026-04-28T17:08:51.45Z</time></trkpt><trkpt lat="44.4516817" lon="7.3539915"><ele>782.0</ele><time>2026-04-28T17:08:53.501Z</time></trkpt><trkpt lat="44.4517584" lon="7.3539891"><ele>782.0</ele><time>2026-04-28T17:08:55.457Z</time></trkpt><trkpt lat="44.4518588" lon="7.3540024"><ele>782.0</ele><time>2026-04-28T17:08:58.446Z</time></trkpt><trkpt lat="44.4519737" lon="7.3540013"><ele>782.0</ele><time>2026-04-28T17:09:00.442Z</time></trkpt><trkpt lat="44.4521098" lon="7.3539649"><ele>782.0</ele><time>2026-04-28T17:09:02.457Z</time></trkpt><trkpt lat="44.4521811" lon="7.3539513"><ele>782.0</ele><time>2026-04-28T17:09:03.52Z</time></trkpt><trkpt lat="44.4522597" lon="7.3539354"><ele>779.4000000000001</ele><time>2026-04-28T17:09:04.461Z</time></trkpt><trkpt lat="44.4523826" lon="7.3539085"><ele>776.8000000000001</ele><time>2026-04-28T17:09:06.451Z</time></trkpt><trkpt lat="44.4524582" lon="7.353874"><ele>774.2</ele><time>2026-04-28T17:09:07.452Z</time></trkpt><trkpt lat="44.4525212" lon="7.3538498"><ele>771.6</ele><time>2026-04-28T17:09:08.535Z</time></trkpt><trkpt lat="44.452642" lon="7.3538248"><ele>769.0</ele><time>2026-04-28T17:09:10.441Z</time></trkpt><trkpt lat="44.4527629" lon="7.3538389"><ele>766.9999999999999</ele><time>2026-04-28T17:09:12.448Z</time></trkpt><trkpt lat="44.4528348" lon="7.3538249"><ele>765.0</ele><time>2026-04-28T17:09:14.455Z</time></trkpt><trkpt lat="44.4528978" lon="7.3538188"><ele>763.0</ele><time>2026-04-28T17:09:18.465Z</time></trkpt><trkpt lat="44.4529464" lon="7.3537503"><ele>761.0</ele><time>2026-04-28T17:09:20.469Z</time></trkpt><trkpt lat="44.4529944" lon="7.3536586"><ele>759.0</ele><time>2026-04-28T17:09:22.465Z</time></trkpt><trkpt lat="44.4530819" lon="7.3535816"><ele>757.0</ele><time>2026-04-28T17:09:24.448Z</time></trkpt><trkpt lat="44.453202" lon="7.3535608"><ele>754.2</ele><time>2026-04-28T17:09:26.452Z</time></trkpt><trkpt lat="44.4532757" lon="7.3535328"><ele>751.4000000000001</ele><time>2026-04-28T17:09:27.451Z</time></trkpt><trkpt lat="44.4533903" lon="7.3534615"><ele>748.5999999999999</ele><time>2026-04-28T17:09:29.48Z</time></trkpt><trkpt lat="44.4534768" lon="7.3534075"><ele>745.8</ele><time>2026-04-28T17:09:30.448Z</time></trkpt><trkpt lat="44.4535612" lon="7.3533519"><ele>743.0</ele><time>2026-04-28T17:09:31.442Z</time></trkpt><trkpt lat="44.4536303" lon="7.3533224"><ele>743.0</ele><time>2026-04-28T17:09:32.451Z</time></trkpt><trkpt lat="44.4536881" lon="7.353277"><ele>743.0</ele><time>2026-04-28T17:09:33.434Z</time></trkpt><trkpt lat="44.45377" lon="7.3532018"><ele>743.0</ele><time>2026-04-28T17:09:35.442Z</time></trkpt><trkpt lat="44.4538794" lon="7.3531477"><ele>743.0</ele><time>2026-04-28T17:09:37.453Z</time></trkpt><trkpt lat="44.453954" lon="7.3531223"><ele>743.0</ele><time>2026-04-28T17:09:39.436Z</time></trkpt><trkpt lat="44.4540436" lon="7.3530752"><ele>740.6666666666666</ele><time>2026-04-28T17:09:42.444Z</time></trkpt><trkpt lat="44.4541505" lon="7.3530415"><ele>738.3333333333333</ele><time>2026-04-28T17:09:44.443Z</time></trkpt><trkpt lat="44.4542134" lon="7.3529994"><ele>736.0</ele><time>2026-04-28T17:09:45.467Z</time></trkpt><trkpt lat="44.4543112" lon="7.35294"><ele>733.6666666666666</ele><time>2026-04-28T17:09:47.435Z</time></trkpt><trkpt lat="44.4543788" lon="7.3529189"><ele>731.3333333333334</ele><time>2026-04-28T17:09:48.437Z</time></trkpt><trkpt lat="44.4544574" lon="7.3528931"><ele>729.0</ele><time>2026-04-28T17:09:50.436Z</time></trkpt><trkpt lat="44.4545168" lon="7.3528537"><ele>729.0</ele><time>2026-04-28T17:09:52.438Z</time></trkpt><trkpt lat="44.4546067" lon="7.352849"><ele>729.0</ele><time>2026-04-28T17:09:54.445Z</time></trkpt><trkpt lat="44.454732" lon="7.3528549"><ele>729.0</ele><time>2026-04-28T17:09:56.432Z</time></trkpt><trkpt lat="44.4548191" lon="7.3528634"><ele>729.0</ele><time>2026-04-28T17:09:58.443Z</time></trkpt><trkpt lat="44.454939" lon="7.3528584"><ele>729.0</ele><time>2026-04-28T17:10:00.442Z</time></trkpt><trkpt lat="44.4550277" lon="7.3528538"><ele>724.8333333333334</ele><time>2026-04-28T17:10:02.437Z</time></trkpt><trkpt lat="44.4551333" lon="7.352838"><ele>720.6666666666666</ele><time>2026-04-28T17:10:04.451Z</time></trkpt><trkpt lat="44.4552121" lon="7.3528256"><ele>716.5</ele><time>2026-04-28T17:10:06.447Z</time></trkpt><trkpt lat="44.4552727" lon="7.3527551"><ele>712.3333333333333</ele><time>2026-04-28T17:10:09.423Z</time></trkpt><trkpt lat="44.4553623" lon="7.3527176"><ele>708.1666666666666</ele><time>2026-04-28T17:10:12.42Z</time></trkpt><trkpt lat="44.4554284" lon="7.3526951"><ele>704.0</ele><time>2026-04-28T17:10:15.43Z</time></trkpt><trkpt lat="44.4556316" lon="7.3525842"><ele>702.3333333333333</ele><time>2026-04-28T17:10:22.438Z</time></trkpt><trkpt lat="44.4557032" lon="7.3525815"><ele>700.6666666666666</ele><time>2026-04-28T17:10:23.437Z</time></trkpt><trkpt lat="44.455773" lon="7.3525747"><ele>699.0</ele><time>2026-04-28T17:10:24.426Z</time></trkpt><trkpt lat="44.4558402" lon="7.352586"><ele>697.3333333333334</ele><time>2026-04-28T17:10:25.463Z</time></trkpt><trkpt lat="44.4559595" lon="7.3526251"><ele>695.6666666666667</ele><time>2026-04-28T17:10:27.433Z</time></trkpt><trkpt lat="44.4560613" lon="7.3526319"><ele>694.0</ele><time>2026-04-28T17:10:29.439Z</time></trkpt><trkpt lat="44.4561552" lon="7.3526331"><ele>694.0</ele><time>2026-04-28T17:10:31.428Z</time></trkpt><trkpt lat="44.4562367" lon="7.3526313"><ele>694.0</ele><time>2026-04-28T17:10:33.43Z</time></trkpt><trkpt lat="44.456334" lon="7.3526194"><ele>694.0</ele><time>2026-04-28T17:10:35.431Z</time></trkpt><trkpt lat="44.4564175" lon="7.3526214"><ele>694.0</ele><time>2026-04-28T17:10:37.442Z</time></trkpt><trkpt lat="44.456493" lon="7.3526097"><ele>694.0</ele><time>2026-04-28T17:10:39.429Z</time></trkpt><trkpt lat="44.4566186" lon="7.3526081"><ele>693.0</ele><time>2026-04-28T17:10:41.431Z</time></trkpt><trkpt lat="44.4566907" lon="7.3525998"><ele>692.0</ele><time>2026-04-28T17:10:42.45Z</time></trkpt><trkpt lat="44.4567666" lon="7.3525847"><ele>691.0</ele><time>2026-04-28T17:10:43.421Z</time></trkpt><trkpt lat="44.4568435" lon="7.3525747"><ele>690.0</ele><time>2026-04-28T17:10:44.433Z</time></trkpt><trkpt lat="44.4569186" lon="7.3525675"><ele>689.0</ele><time>2026-04-28T17:10:45.429Z</time></trkpt><trkpt lat="44.4570162" lon="7.352533"><ele>688.0</ele><time>2026-04-28T17:10:47.434Z</time></trkpt><trkpt lat="44.4571024" lon="7.3524856"><ele>684.0</ele><time>2026-04-28T17:10:49.415Z</time></trkpt><trkpt lat="44.4571863" lon="7.352431"><ele>680.0</ele><time>2026-04-28T17:10:51.43Z</time></trkpt><trkpt lat="44.4572678" lon="7.3523937"><ele>676.0</ele><time>2026-04-28T17:10:53.43Z</time></trkpt><trkpt lat="44.4573708" lon="7.3524029"><ele>672.0</ele><time>2026-04-28T17:10:55.427Z</time></trkpt><trkpt lat="44.4574793" lon="7.3524383"><ele>668.0</ele><time>2026-04-28T17:10:57.434Z</time></trkpt><trkpt lat="44.4575571" lon="7.3524746"><ele>668.0</ele><time>2026-04-28T17:10:58.44Z</time></trkpt><trkpt lat="44.4576296" lon="7.3525242"><ele>668.0</ele><time>2026-04-28T17:10:59.444Z</time></trkpt><trkpt lat="44.4576995" lon="7.3525953"><ele>668.0</ele><time>2026-04-28T17:11:00.425Z</time></trkpt><trkpt lat="44.4577699" lon="7.3526802"><ele>668.0</ele><time>2026-04-28T17:11:01.469Z</time></trkpt><trkpt lat="44.4578384" lon="7.3527807"><ele>668.0</ele><time>2026-04-28T17:11:02.435Z</time></trkpt><trkpt lat="44.4578922" lon="7.3528816"><ele>668.0</ele><time>2026-04-28T17:11:03.448Z</time></trkpt><trkpt lat="44.4579414" lon="7.3529857"><ele>664.6666666666666</ele><time>2026-04-28T17:11:04.436Z</time></trkpt><trkpt lat="44.4579894" lon="7.3530865"><ele>661.3333333333333</ele><time>2026-04-28T17:11:05.438Z</time></trkpt><trkpt lat="44.4580346" lon="7.3531836"><ele>658.0</ele><time>2026-04-28T17:11:06.484Z</time></trkpt><trkpt lat="44.4580712" lon="7.3532962"><ele>654.6666666666666</ele><time>2026-04-28T17:11:07.463Z</time></trkpt><trkpt lat="44.4581049" lon="7.353411"><ele>651.3333333333334</ele><time>2026-04-28T17:11:08.442Z</time></trkpt><trkpt lat="44.4581469" lon="7.3535355"><ele>648.0</ele><time>2026-04-28T17:11:09.448Z</time></trkpt><trkpt lat="44.4582057" lon="7.3536518"><ele>648.0</ele><time>2026-04-28T17:11:10.427Z</time></trkpt><trkpt lat="44.4582588" lon="7.3537533"><ele>648.0</ele><time>2026-04-28T17:11:11.493Z</time></trkpt><trkpt lat="44.4583083" lon="7.3538513"><ele>648.0</ele><time>2026-04-28T17:11:12.417Z</time></trkpt><trkpt lat="44.4583594" lon="7.3539375"><ele>648.0</ele><time>2026-04-28T17:11:13.419Z</time></trkpt><trkpt lat="44.458398" lon="7.3540187"><ele>648.0</ele><time>2026-04-28T17:11:14.44Z</time></trkpt><trkpt lat="44.4584283" lon="7.354101"><ele>648.0</ele><time>2026-04-28T17:11:15.442Z</time></trkpt><trkpt lat="44.4584443" lon="7.3541937"><ele>647.1666666666666</ele><time>2026-04-28T17:11:16.51Z</time></trkpt><trkpt lat="44.4584569" lon="7.3542881"><ele>646.3333333333334</ele><time>2026-04-28T17:11:17.433Z</time></trkpt><trkpt lat="44.4584623" lon="7.3543864"><ele>645.5</ele><time>2026-04-28T17:11:18.444Z</time></trkpt><trkpt lat="44.4584617" lon="7.35449"><ele>644.6666666666667</ele><time>2026-04-28T17:11:19.435Z</time></trkpt><trkpt lat="44.4584626" lon="7.3546004"><ele>643.8333333333334</ele><time>2026-04-28T17:11:20.418Z</time></trkpt><trkpt lat="44.4584571" lon="7.3547142"><ele>643.0</ele><time>2026-04-28T17:11:21.434Z</time></trkpt><trkpt lat="44.458458" lon="7.3548215"><ele>642.5</ele><time>2026-04-28T17:11:22.432Z</time></trkpt><trkpt lat="44.4584599" lon="7.3549291"><ele>642.0</ele><time>2026-04-28T17:11:23.443Z</time></trkpt><trkpt lat="44.4584567" lon="7.3550449"><ele>641.5</ele><time>2026-04-28T17:11:24.44Z</time></trkpt><trkpt lat="44.4584403" lon="7.3551655"><ele>641.0</ele><time>2026-04-28T17:11:25.442Z</time></trkpt><trkpt lat="44.4584238" lon="7.3552697"><ele>640.5</ele><time>2026-04-28T17:11:26.516Z</time></trkpt><trkpt lat="44.4584281" lon="7.3554103"><ele>640.0</ele><time>2026-04-28T17:11:28.426Z</time></trkpt><trkpt lat="44.4584776" lon="7.355468"><ele>640.0</ele><time>2026-04-28T17:11:29.431Z</time></trkpt><trkpt lat="44.4585378" lon="7.3555144"><ele>640.0</ele><time>2026-04-28T17:11:30.422Z</time></trkpt><trkpt lat="44.4586007" lon="7.355559"><ele>640.0</ele><time>2026-04-28T17:11:31.429Z</time></trkpt><trkpt lat="44.4586691" lon="7.3555972"><ele>640.0</ele><time>2026-04-28T17:11:32.426Z</time></trkpt><trkpt lat="44.4587456" lon="7.355639"><ele>640.0</ele><time>2026-04-28T17:11:33.54Z</time></trkpt><trkpt lat="44.4588805" lon="7.3556955"><ele>640.0</ele><time>2026-04-28T17:11:35.437Z</time></trkpt><trkpt lat="44.458952" lon="7.3557257"><ele>637.8333333333334</ele><time>2026-04-28T17:11:36.428Z</time></trkpt><trkpt lat="44.4590213" lon="7.355753"><ele>635.6666666666667</ele><time>2026-04-28T17:11:37.415Z</time></trkpt><trkpt lat="44.4590992" lon="7.3557846"><ele>633.5</ele><time>2026-04-28T17:11:38.426Z</time></trkpt><trkpt lat="44.4591776" lon="7.3558082"><ele>631.3333333333334</ele><time>2026-04-28T17:11:39.423Z</time></trkpt><trkpt lat="44.4592593" lon="7.3558399"><ele>629.1666666666666</ele><time>2026-04-28T17:11:40.431Z</time></trkpt><trkpt lat="44.4593411" lon="7.3558741"><ele>627.0</ele><time>2026-04-28T17:11:41.421Z</time></trkpt><trkpt lat="44.4594227" lon="7.355907"><ele>627.0</ele><time>2026-04-28T17:11:42.5Z</time></trkpt><trkpt lat="44.4594967" lon="7.3559498"><ele>627.0</ele><time>2026-04-28T17:11:43.413Z</time></trkpt><trkpt lat="44.4595652" lon="7.3559939"><ele>627.0</ele><time>2026-04-28T17:11:44.428Z</time></trkpt><trkpt lat="44.4596334" lon="7.3560436"><ele>627.0</ele><time>2026-04-28T17:11:45.422Z</time></trkpt><trkpt lat="44.4597001" lon="7.3560959"><ele>627.0</ele><time>2026-04-28T17:11:46.419Z</time></trkpt><trkpt lat="44.4597689" lon="7.3561531"><ele>627.0</ele><time>2026-04-28T17:11:47.492Z</time></trkpt><trkpt lat="44.4598314" lon="7.3562189"><ele>626.5</ele><time>2026-04-28T17:11:48.417Z</time></trkpt><trkpt lat="44.4598865" lon="7.3563"><ele>626.0</ele><time>2026-04-28T17:11:49.432Z</time></trkpt><trkpt lat="44.4599256" lon="7.3563858"><ele>625.5</ele><time>2026-04-28T17:11:50.423Z</time></trkpt><trkpt lat="44.4599532" lon="7.3564787"><ele>625.0</ele><time>2026-04-28T17:11:51.418Z</time></trkpt><trkpt lat="44.4599716" lon="7.3565834"><ele>624.5</ele><time>2026-04-28T17:11:52.425Z</time></trkpt><trkpt lat="44.4599881" lon="7.3566869"><ele>624.0</ele><time>2026-04-28T17:11:53.427Z</time></trkpt><trkpt lat="44.4600032" lon="7.3567918"><ele>623.6</ele><time>2026-04-28T17:11:54.476Z</time></trkpt><trkpt lat="44.460022" lon="7.3568855"><ele>623.2</ele><time>2026-04-28T17:11:55.432Z</time></trkpt><trkpt lat="44.4600449" lon="7.3570761"><ele>622.8000000000001</ele><time>2026-04-28T17:11:57.446Z</time></trkpt><trkpt lat="44.4600567" lon="7.3572228"><ele>622.4</ele><time>2026-04-28T17:11:58.433Z</time></trkpt><trkpt lat="44.4600648" lon="7.3573547"><ele>622.0</ele><time>2026-04-28T17:11:59.429Z</time></trkpt><trkpt lat="44.4600783" lon="7.357467"><ele>621.8571428571428</ele><time>2026-04-28T17:12:00.428Z</time></trkpt><trkpt lat="44.4600928" lon="7.3575651"><ele>621.7142857142858</ele><time>2026-04-28T17:12:01.419Z</time></trkpt><trkpt lat="44.4601032" lon="7.3576637"><ele>621.5714285714286</ele><time>2026-04-28T17:12:02.425Z</time></trkpt><trkpt lat="44.4601158" lon="7.3577594"><ele>621.4285714285713</ele><time>2026-04-28T17:12:03.427Z</time></trkpt><trkpt lat="44.4601326" lon="7.3578552"><ele>621.2857142857142</ele><time>2026-04-28T17:12:04.42Z</time></trkpt><trkpt lat="44.4601534" lon="7.357943"><ele>621.1428571428571</ele><time>2026-04-28T17:12:05.5Z</time></trkpt><trkpt lat="44.4601792" lon="7.3580258"><ele>621.0</ele><time>2026-04-28T17:12:06.43Z</time></trkpt><trkpt lat="44.4602268" lon="7.3581783"><ele>621.0</ele><time>2026-04-28T17:12:08.431Z</time></trkpt><trkpt lat="44.4602905" lon="7.3583197"><ele>621.0</ele><time>2026-04-28T17:12:10.468Z</time></trkpt><trkpt lat="44.460356" lon="7.3584567"><ele>621.0</ele><time>2026-04-28T17:12:12.429Z</time></trkpt><trkpt lat="44.4604066" lon="7.358584"><ele>621.0</ele><time>2026-04-28T17:12:14.439Z</time></trkpt><trkpt lat="44.4604608" lon="7.3587065"><ele>621.0</ele><time>2026-04-28T17:12:16.435Z</time></trkpt><trkpt lat="44.4605154" lon="7.3588304"><ele>620.8333333333334</ele><time>2026-04-28T17:12:18.414Z</time></trkpt><trkpt lat="44.4605929" lon="7.3589189"><ele>620.6666666666666</ele><time>2026-04-28T17:12:20.418Z</time></trkpt><trkpt lat="44.4606716" lon="7.358981"><ele>620.5</ele><time>2026-04-28T17:12:22.411Z</time></trkpt><trkpt lat="44.4607387" lon="7.3590422"><ele>620.3333333333333</ele><time>2026-04-28T17:12:24.459Z</time></trkpt><trkpt lat="44.4608018" lon="7.3591127"><ele>620.1666666666666</ele><time>2026-04-28T17:12:26.425Z</time></trkpt><trkpt lat="44.4608555" lon="7.3591839"><ele>620.0</ele><time>2026-04-28T17:12:28.397Z</time></trkpt><trkpt lat="44.4609058" lon="7.359265"><ele>620.0</ele><time>2026-04-28T17:12:30.428Z</time></trkpt><trkpt lat="44.4609402" lon="7.3593622"><ele>620.0</ele><time>2026-04-28T17:12:32.411Z</time></trkpt><trkpt lat="44.4609688" lon="7.359451"><ele>620.0</ele><time>2026-04-28T17:12:34.54Z</time></trkpt><trkpt lat="44.461003" lon="7.3595685"><ele>620.0</ele><time>2026-04-28T17:12:36.569Z</time></trkpt><trkpt lat="44.4609858" lon="7.3596727"><ele>620.0</ele><time>2026-04-28T17:12:39.517Z</time></trkpt><trkpt lat="44.4609365" lon="7.3597473"><ele>620.0</ele><time>2026-04-28T17:12:42.506Z</time></trkpt><trkpt lat="44.4609237" lon="7.3598571"><ele>620.2</ele><time>2026-04-28T17:12:44.509Z</time></trkpt><trkpt lat="44.4609249" lon="7.3599592"><ele>620.4</ele><time>2026-04-28T17:12:46.524Z</time></trkpt><trkpt lat="44.460926" lon="7.360084"><ele>620.6</ele><time>2026-04-28T17:12:48.533Z</time></trkpt><trkpt lat="44.4609226" lon="7.3602234"><ele>620.8</ele><time>2026-04-28T17:12:50.524Z</time></trkpt><trkpt lat="44.4609362" lon="7.3603576"><ele>621.0</ele><time>2026-04-28T17:12:52.52Z</time></trkpt><trkpt lat="44.4609614" lon="7.3604835"><ele>621.0</ele><time>2026-04-28T17:12:54.52Z</time></trkpt><trkpt lat="44.4609764" lon="7.3606026"><ele>621.0</ele><time>2026-04-28T17:12:56.508Z</time></trkpt><trkpt lat="44.4609654" lon="7.3607364"><ele>621.0</ele><time>2026-04-28T17:12:58.524Z</time></trkpt><trkpt lat="44.4609821" lon="7.3608941"><ele>621.0</ele><time>2026-04-28T17:13:00.509Z</time></trkpt><trkpt lat="44.461" lon="7.3610356"><ele>621.0</ele><time>2026-04-28T17:13:02.502Z</time></trkpt><trkpt lat="44.4610172" lon="7.3611828"><ele>621.0</ele><time>2026-04-28T17:13:04.557Z</time></trkpt><trkpt lat="44.4610309" lon="7.3613249"><ele>621.0</ele><time>2026-04-28T17:13:06.534Z</time></trkpt><trkpt lat="44.4610434" lon="7.3614619"><ele>621.0</ele><time>2026-04-28T17:13:08.489Z</time></trkpt><trkpt lat="44.461043" lon="7.3616032"><ele>621.0</ele><time>2026-04-28T17:13:10.515Z</time></trkpt><trkpt lat="44.4610199" lon="7.3617307"><ele>621.0</ele><time>2026-04-28T17:13:12.517Z</time></trkpt><trkpt lat="44.461015" lon="7.3618936"><ele>621.0</ele><time>2026-04-28T17:13:14.514Z</time></trkpt><trkpt lat="44.4610261" lon="7.3620264"><ele>621.0</ele><time>2026-04-28T17:13:16.516Z</time></trkpt><trkpt lat="44.4610536" lon="7.3621492"><ele>621.0</ele><time>2026-04-28T17:13:18.52Z</time></trkpt><trkpt lat="44.461062" lon="7.3622737"><ele>621.0</ele><time>2026-04-28T17:13:20.548Z</time></trkpt><trkpt lat="44.461069" lon="7.3623985"><ele>621.0</ele><time>2026-04-28T17:13:22.53Z</time></trkpt><trkpt lat="44.4610802" lon="7.3625436"><ele>620.4</ele><time>2026-04-28T17:13:24.526Z</time></trkpt><trkpt lat="44.4610892" lon="7.3626864"><ele>619.8</ele><time>2026-04-28T17:13:26.499Z</time></trkpt><trkpt lat="44.4610936" lon="7.3628321"><ele>619.1999999999999</ele><time>2026-04-28T17:13:28.51Z</time></trkpt><trkpt lat="44.4610984" lon="7.3629834"><ele>618.6</ele><time>2026-04-28T17:13:30.518Z</time></trkpt><trkpt lat="44.4611064" lon="7.3631251"><ele>618.0</ele><time>2026-04-28T17:13:32.497Z</time></trkpt><trkpt lat="44.4611298" lon="7.3632582"><ele>617.8333333333334</ele><time>2026-04-28T17:13:34.584Z</time></trkpt><trkpt lat="44.4611692" lon="7.3633448"><ele>617.6666666666666</ele><time>2026-04-28T17:13:36.522Z</time></trkpt><trkpt lat="44.4612151" lon="7.3634138"><ele>617.5</ele><time>2026-04-28T17:13:38.533Z</time></trkpt><trkpt lat="44.4613145" lon="7.3633967"><ele>617.3333333333333</ele><time>2026-04-28T17:13:40.515Z</time></trkpt><trkpt lat="44.4614041" lon="7.3633727"><ele>617.1666666666666</ele><time>2026-04-28T17:13:42.508Z</time></trkpt><trkpt lat="44.4615046" lon="7.363379"><ele>617.0</ele><time>2026-04-28T17:13:44.495Z</time></trkpt><trkpt lat="44.4615988" lon="7.3633656"><ele>617.4</ele><time>2026-04-28T17:13:46.519Z</time></trkpt><trkpt lat="44.4616906" lon="7.363361"><ele>617.8000000000001</ele><time>2026-04-28T17:13:48.545Z</time></trkpt><trkpt lat="44.4617944" lon="7.3633422"><ele>618.2</ele><time>2026-04-28T17:13:50.51Z</time></trkpt><trkpt lat="44.4618973" lon="7.3633333"><ele>618.6</ele><time>2026-04-28T17:13:52.522Z</time></trkpt><trkpt lat="44.4620006" lon="7.3633268"><ele>619.0</ele><time>2026-04-28T17:13:54.508Z</time></trkpt><trkpt lat="44.4620985" lon="7.3633149"><ele>619.2</ele><time>2026-04-28T17:13:56.502Z</time></trkpt><trkpt lat="44.4622057" lon="7.3633048"><ele>619.4</ele><time>2026-04-28T17:13:58.523Z</time></trkpt><trkpt lat="44.4623078" lon="7.3633014"><ele>619.6</ele><time>2026-04-28T17:14:00.522Z</time></trkpt><trkpt lat="44.4623949" lon="7.3633004"><ele>619.8</ele><time>2026-04-28T17:14:02.528Z</time></trkpt><trkpt lat="44.4625019" lon="7.363322"><ele>620.0</ele><time>2026-04-28T17:14:04.526Z</time></trkpt><trkpt lat="44.4626016" lon="7.3633068"><ele>620.0</ele><time>2026-04-28T17:14:06.586Z</time></trkpt><trkpt lat="44.4626624" lon="7.3632835"><ele>620.0</ele><time>2026-04-28T17:14:07.499Z</time></trkpt><trkpt lat="44.4627613" lon="7.363218"><ele>620.0</ele><time>2026-04-28T17:14:09.504Z</time></trkpt><trkpt lat="44.4628241" lon="7.3632053"><ele>620.0</ele><time>2026-04-28T17:14:11.498Z</time></trkpt><trkpt lat="44.4628941" lon="7.3632302"><ele>620.0</ele><time>2026-04-28T17:14:14.512Z</time></trkpt><trkpt lat="44.4629203" lon="7.363061"><ele>620.0</ele><time>2026-04-28T17:14:17.481Z</time></trkpt><trkpt lat="44.4629298" lon="7.3628948"><ele>619.75</ele><time>2026-04-28T17:14:19.494Z</time></trkpt><trkpt lat="44.4629292" lon="7.3627214"><ele>619.5</ele><time>2026-04-28T17:14:21.504Z</time></trkpt><trkpt lat="44.462906" lon="7.3625516"><ele>619.25</ele><time>2026-04-28T17:14:23.513Z</time></trkpt><trkpt lat="44.4629005" lon="7.3623881"><ele>619.0</ele><time>2026-04-28T17:14:25.49Z</time></trkpt><trkpt lat="44.4628961" lon="7.3622415"><ele>618.8</ele><time>2026-04-28T17:14:27.505Z</time></trkpt><trkpt lat="44.4629013" lon="7.3621335"><ele>618.5999999999999</ele><time>2026-04-28T17:14:29.503Z</time></trkpt><trkpt lat="44.4629766" lon="7.3620387"><ele>618.4</ele><time>2026-04-28T17:14:32.488Z</time></trkpt><trkpt lat="44.4630669" lon="7.3619987"><ele>618.1999999999999</ele><time>2026-04-28T17:14:34.498Z</time></trkpt><trkpt lat="44.4631554" lon="7.3619491"><ele>618.0</ele><time>2026-04-28T17:14:36.518Z</time></trkpt><trkpt lat="44.4632412" lon="7.3618966"><ele>617.1999999999999</ele><time>2026-04-28T17:14:38.495Z</time></trkpt><trkpt lat="44.4633317" lon="7.3618716"><ele>616.4</ele><time>2026-04-28T17:14:40.509Z</time></trkpt><trkpt lat="44.4634292" lon="7.3618408"><ele>615.5999999999999</ele><time>2026-04-28T17:14:42.53Z</time></trkpt><trkpt lat="44.4635105" lon="7.3618025"><ele>614.8</ele><time>2026-04-28T17:14:44.502Z</time></trkpt><trkpt lat="44.4636053" lon="7.361779"><ele>614.0</ele><time>2026-04-28T17:14:46.524Z</time></trkpt><trkpt lat="44.4636939" lon="7.3617663"><ele>613.8</ele><time>2026-04-28T17:14:48.495Z</time></trkpt><trkpt lat="44.4637867" lon="7.3617477"><ele>613.5999999999999</ele><time>2026-04-28T17:14:50.503Z</time></trkpt><trkpt lat="44.4638805" lon="7.3617268"><ele>613.4</ele><time>2026-04-28T17:14:52.52Z</time></trkpt><trkpt lat="44.4639794" lon="7.3617093"><ele>613.1999999999999</ele><time>2026-04-28T17:14:54.5Z</time></trkpt><trkpt lat="44.4640837" lon="7.3616912"><ele>613.0</ele><time>2026-04-28T17:14:56.496Z</time></trkpt><trkpt lat="44.4641695" lon="7.3616704"><ele>613.0</ele><time>2026-04-28T17:14:58.511Z</time></trkpt><trkpt lat="44.464229" lon="7.3617149"><ele>613.0</ele><time>2026-04-28T17:15:02.478Z</time></trkpt><trkpt lat="44.464248" lon="7.3618456"><ele>613.0</ele><time>2026-04-28T17:15:05.475Z</time></trkpt><trkpt lat="44.4642228" lon="7.3619594"><ele>613.0</ele><time>2026-04-28T17:15:07.479Z</time></trkpt><trkpt lat="44.4642158" lon="7.3620729"><ele>613.0</ele><time>2026-04-28T17:15:09.48Z</time></trkpt><trkpt lat="44.4642138" lon="7.3621916"><ele>613.0</ele><time>2026-04-28T17:15:11.486Z</time></trkpt><trkpt lat="44.4642061" lon="7.3623043"><ele>612.8</ele><time>2026-04-28T17:15:13.481Z</time></trkpt><trkpt lat="44.4642039" lon="7.362416"><ele>612.5999999999999</ele><time>2026-04-28T17:15:15.497Z</time></trkpt><trkpt lat="44.4641771" lon="7.3625441"><ele>612.4000000000001</ele><time>2026-04-28T17:15:17.476Z</time></trkpt><trkpt lat="44.4641748" lon="7.3626819"><ele>612.2</ele><time>2026-04-28T17:15:19.477Z</time></trkpt><trkpt lat="44.464171" lon="7.3628004"><ele>612.0</ele><time>2026-04-28T17:15:21.477Z</time></trkpt><trkpt lat="44.4641604" lon="7.3629303"><ele>612.2</ele><time>2026-04-28T17:15:23.484Z</time></trkpt><trkpt lat="44.4641704" lon="7.3630381"><ele>612.4000000000001</ele><time>2026-04-28T17:15:25.477Z</time></trkpt><trkpt lat="44.4641751" lon="7.3631474"><ele>612.5999999999999</ele><time>2026-04-28T17:15:27.478Z</time></trkpt><trkpt lat="44.4641671" lon="7.3632778"><ele>612.8</ele><time>2026-04-28T17:15:29.476Z</time></trkpt><trkpt lat="44.4641922" lon="7.363438"><ele>613.0</ele><time>2026-04-28T17:15:31.474Z</time></trkpt><trkpt lat="44.4642226" lon="7.36358"><ele>613.0</ele><time>2026-04-28T17:15:33.467Z</time></trkpt><trkpt lat="44.4642602" lon="7.3637164"><ele>613.0</ele><time>2026-04-28T17:15:35.453Z</time></trkpt><trkpt lat="44.4642947" lon="7.3638662"><ele>613.0</ele><time>2026-04-28T17:15:37.471Z</time></trkpt><trkpt lat="44.4643215" lon="7.3640176"><ele>613.0</ele><time>2026-04-28T17:15:39.472Z</time></trkpt><trkpt lat="44.464329" lon="7.3641638"><ele>613.0</ele><time>2026-04-28T17:15:41.482Z</time></trkpt><trkpt lat="44.4643357" lon="7.3643385"><ele>613.0</ele><time>2026-04-28T17:15:43.481Z</time></trkpt><trkpt lat="44.464336" lon="7.3644277"><ele>613.0</ele><time>2026-04-28T17:15:44.471Z</time></trkpt><trkpt lat="44.4643372" lon="7.3645229"><ele>613.0</ele><time>2026-04-28T17:15:45.457Z</time></trkpt><trkpt lat="44.4643297" lon="7.364614"><ele>613.0</ele><time>2026-04-28T17:15:46.467Z</time></trkpt><trkpt lat="44.4643085" lon="7.3647757"><ele>613.0</ele><time>2026-04-28T17:15:48.466Z</time></trkpt><trkpt lat="44.464286" lon="7.3648882"><ele>613.0</ele><time>2026-04-28T17:15:50.466Z</time></trkpt><trkpt lat="44.4643224" lon="7.3649751"><ele>612.8</ele><time>2026-04-28T17:15:53.482Z</time></trkpt><trkpt lat="44.4644053" lon="7.3650046"><ele>612.5999999999999</ele><time>2026-04-28T17:15:55.475Z</time></trkpt><trkpt lat="44.4645007" lon="7.3649854"><ele>612.4000000000001</ele><time>2026-04-28T17:15:57.469Z</time></trkpt><trkpt lat="44.4646051" lon="7.3649618"><ele>612.2</ele><time>2026-04-28T17:15:59.464Z</time></trkpt><trkpt lat="44.464719" lon="7.3649663"><ele>612.0</ele><time>2026-04-28T17:16:01.482Z</time></trkpt><trkpt lat="44.4647824" lon="7.3649607"><ele>609.8000000000001</ele><time>2026-04-28T17:16:02.477Z</time></trkpt><trkpt lat="44.4648887" lon="7.3649631"><ele>607.6</ele><time>2026-04-28T17:16:04.469Z</time></trkpt><trkpt lat="44.4649859" lon="7.3649789"><ele>605.4000000000001</ele><time>2026-04-28T17:16:06.48Z</time></trkpt><trkpt lat="44.4650838" lon="7.3650322"><ele>603.2</ele><time>2026-04-28T17:16:08.512Z</time></trkpt><trkpt lat="44.4651784" lon="7.3650793"><ele>601.0</ele><time>2026-04-28T17:16:10.457Z</time></trkpt><trkpt lat="44.4652767" lon="7.3651301"><ele>601.0</ele><time>2026-04-28T17:16:12.474Z</time></trkpt><trkpt lat="44.4653643" lon="7.3651584"><ele>601.0</ele><time>2026-04-28T17:16:14.466Z</time></trkpt><trkpt lat="44.4654295" lon="7.3651222"><ele>601.0</ele><time>2026-04-28T17:16:16.459Z</time></trkpt><trkpt lat="44.465479" lon="7.3650475"><ele>601.0</ele><time>2026-04-28T17:16:18.463Z</time></trkpt><trkpt lat="44.4655675" lon="7.3649628"><ele>601.0</ele><time>2026-04-28T17:16:20.462Z</time></trkpt><trkpt lat="44.4656593" lon="7.3648922"><ele>601.0</ele><time>2026-04-28T17:16:22.487Z</time></trkpt><trkpt lat="44.4657353" lon="7.3648295"><ele>600.6666666666667</ele><time>2026-04-28T17:16:24.487Z</time></trkpt><trkpt lat="44.4658126" lon="7.3647875"><ele>600.3333333333334</ele><time>2026-04-28T17:16:26.481Z</time></trkpt><trkpt lat="44.4658911" lon="7.3647707"><ele>600.0</ele><time>2026-04-28T17:16:28.489Z</time></trkpt><trkpt lat="44.4659645" lon="7.364776"><ele>599.6666666666666</ele><time>2026-04-28T17:16:30.457Z</time></trkpt><trkpt lat="44.4660293" lon="7.3647948"><ele>599.3333333333333</ele><time>2026-04-28T17:16:32.457Z</time></trkpt><trkpt lat="44.4661119" lon="7.3647891"><ele>599.0</ele><time>2026-04-28T17:16:35.456Z</time></trkpt><trkpt lat="44.4661651" lon="7.3646668"><ele>599.0</ele><time>2026-04-28T17:16:38.452Z</time></trkpt><trkpt lat="44.4662182" lon="7.3645818"><ele>599.0</ele><time>2026-04-28T17:16:39.463Z</time></trkpt><trkpt lat="44.4662636" lon="7.3645018"><ele>599.0</ele><time>2026-04-28T17:16:40.476Z</time></trkpt><trkpt lat="44.4663064" lon="7.3643666"><ele>599.0</ele><time>2026-04-28T17:16:42.468Z</time></trkpt><trkpt lat="44.4663524" lon="7.3642343"><ele>599.0</ele><time>2026-04-28T17:16:44.469Z</time></trkpt><trkpt lat="44.4664002" lon="7.3640924"><ele>602.0</ele><time>2026-04-28T17:16:46.476Z</time></trkpt><trkpt lat="44.466483" lon="7.3639963"><ele>605.0</ele><time>2026-04-28T17:16:48.455Z</time></trkpt><trkpt lat="44.4665634" lon="7.3638897"><ele>608.0</ele><time>2026-04-28T17:16:50.47Z</time></trkpt><trkpt lat="44.4666194" lon="7.3637939"><ele>611.0</ele><time>2026-04-28T17:16:52.452Z</time></trkpt><trkpt lat="44.4666788" lon="7.3636966"><ele>614.0</ele><time>2026-04-28T17:16:54.472Z</time></trkpt><trkpt lat="44.4667207" lon="7.3635875"><ele>614.0</ele><time>2026-04-28T17:16:56.467Z</time></trkpt><trkpt lat="44.4667687" lon="7.3634987"><ele>614.0</ele><time>2026-04-28T17:16:58.471Z</time></trkpt><trkpt lat="44.4667996" lon="7.3633893"><ele>614.0</ele><time>2026-04-28T17:17:00.46Z</time></trkpt><trkpt lat="44.4668118" lon="7.3632796"><ele>614.0</ele><time>2026-04-28T17:17:02.457Z</time></trkpt><trkpt lat="44.4668388" lon="7.3631949"><ele>614.0</ele><time>2026-04-28T17:17:04.47Z</time></trkpt><trkpt lat="44.4668918" lon="7.3631089"><ele>614.0</ele><time>2026-04-28T17:17:06.462Z</time></trkpt><trkpt lat="44.4669431" lon="7.3630301"><ele>614.8333333333333</ele><time>2026-04-28T17:17:08.473Z</time></trkpt><trkpt lat="44.4670042" lon="7.3629547"><ele>615.6666666666666</ele><time>2026-04-28T17:17:10.475Z</time></trkpt><trkpt lat="44.467085" lon="7.3628714"><ele>616.5</ele><time>2026-04-28T17:17:12.467Z</time></trkpt><trkpt lat="44.46716" lon="7.3628215"><ele>617.3333333333334</ele><time>2026-04-28T17:17:15.467Z</time></trkpt><trkpt lat="44.4672215" lon="7.362745"><ele>618.1666666666667</ele><time>2026-04-28T17:17:17.467Z</time></trkpt><trkpt lat="44.4672778" lon="7.3626897"><ele>619.0</ele><time>2026-04-28T17:17:19.439Z</time></trkpt><trkpt lat="44.4673613" lon="7.3626607"><ele>619.0</ele><time>2026-04-28T17:17:22.462Z</time></trkpt><trkpt lat="44.4674135" lon="7.3626104"><ele>619.0</ele><time>2026-04-28T17:17:36.457Z</time></trkpt><trkpt lat="44.4673978" lon="7.362519"><ele>619.0</ele><time>2026-04-28T17:17:52.437Z</time></trkpt><trkpt lat="44.4674351" lon="7.3625929"><ele>619.0</ele><time>2026-04-28T17:18:03.455Z</time></trkpt><trkpt lat="44.4673763" lon="7.3625564"><ele>619.0</ele><time>2026-04-28T17:18:07.434Z</time></trkpt><trkpt lat="44.4674394" lon="7.3624845"><ele>619.0</ele><time>2026-04-28T17:18:11.439Z</time></trkpt><trkpt lat="44.4674743" lon="7.3624093"><ele>619.0</ele><time>2026-04-28T17:18:13.433Z</time></trkpt><trkpt lat="44.4675375" lon="7.362291"><ele>618.2</ele><time>2026-04-28T17:18:16.479Z</time></trkpt><trkpt lat="44.4675662" lon="7.362175"><ele>617.4</ele><time>2026-04-28T17:18:18.454Z</time></trkpt><trkpt lat="44.467588" lon="7.3620406"><ele>616.6</ele><time>2026-04-28T17:18:21.447Z</time></trkpt><trkpt lat="44.467616" lon="7.3618755"><ele>615.8</ele><time>2026-04-28T17:18:23.473Z</time></trkpt><trkpt lat="44.4676361" lon="7.3617593"><ele>615.0</ele><time>2026-04-28T17:18:25.473Z</time></trkpt><trkpt lat="44.4676623" lon="7.3616748"><ele>615.0</ele><time>2026-04-28T17:18:26.471Z</time></trkpt><trkpt lat="44.4676758" lon="7.3615848"><ele>615.0</ele><time>2026-04-28T17:18:27.462Z</time></trkpt><trkpt lat="44.4676907" lon="7.361445"><ele>615.0</ele><time>2026-04-28T17:18:29.472Z</time></trkpt><trkpt lat="44.4676747" lon="7.3612845"><ele>615.0</ele><time>2026-04-28T17:18:31.478Z</time></trkpt><trkpt lat="44.4676515" lon="7.3611289"><ele>615.0</ele><time>2026-04-28T17:18:33.453Z</time></trkpt><trkpt lat="44.4676479" lon="7.3609888"><ele>615.6</ele><time>2026-04-28T17:18:35.45Z</time></trkpt><trkpt lat="44.4676475" lon="7.3608653"><ele>616.2</ele><time>2026-04-28T17:18:37.442Z</time></trkpt><trkpt lat="44.4676432" lon="7.3607186"><ele>616.8</ele><time>2026-04-28T17:18:39.441Z</time></trkpt><trkpt lat="44.4676549" lon="7.3605829"><ele>617.4</ele><time>2026-04-28T17:18:41.458Z</time></trkpt><trkpt lat="44.4676664" lon="7.3604505"><ele>618.0</ele><time>2026-04-28T17:18:43.486Z</time></trkpt><trkpt lat="44.4676565" lon="7.360316"><ele>618.8</ele><time>2026-04-28T17:18:45.454Z</time></trkpt><trkpt lat="44.4676277" lon="7.3601805"><ele>619.5999999999999</ele><time>2026-04-28T17:18:47.458Z</time></trkpt><trkpt lat="44.4676199" lon="7.3600436"><ele>620.4000000000001</ele><time>2026-04-28T17:18:49.489Z</time></trkpt><trkpt lat="44.4675933" lon="7.3599235"><ele>621.2</ele><time>2026-04-28T17:18:51.432Z</time></trkpt><trkpt lat="44.4675445" lon="7.3598235"><ele>622.0</ele><time>2026-04-28T17:18:53.445Z</time></trkpt><trkpt lat="44.467532" lon="7.3596985"><ele>622.6666666666667</ele><time>2026-04-28T17:18:55.451Z</time></trkpt><trkpt lat="44.4675101" lon="7.3595779"><ele>623.3333333333334</ele><time>2026-04-28T17:18:57.456Z</time></trkpt><trkpt lat="44.4674664" lon="7.3594397"><ele>624.0</ele><time>2026-04-28T17:18:59.428Z</time></trkpt><trkpt lat="44.4674424" lon="7.3593252"><ele>624.6666666666666</ele><time>2026-04-28T17:19:01.438Z</time></trkpt><trkpt lat="44.4674454" lon="7.3592241"><ele>625.3333333333333</ele><time>2026-04-28T17:19:03.46Z</time></trkpt><trkpt lat="44.467466" lon="7.3590947"><ele>626.0</ele><time>2026-04-28T17:19:06.468Z</time></trkpt><trkpt lat="44.4675261" lon="7.3589688"><ele>626.0</ele><time>2026-04-28T17:19:07.445Z</time></trkpt><trkpt lat="44.4675472" lon="7.3588738"><ele>626.0</ele><time>2026-04-28T17:19:08.439Z</time></trkpt><trkpt lat="44.4675686" lon="7.3587657"><ele>626.0</ele><time>2026-04-28T17:19:09.445Z</time></trkpt><trkpt lat="44.4675872" lon="7.3586767"><ele>626.0</ele><time>2026-04-28T17:19:10.442Z</time></trkpt><trkpt lat="44.4675945" lon="7.3585346"><ele>626.0</ele><time>2026-04-28T17:19:12.439Z</time></trkpt><trkpt lat="44.4675988" lon="7.3583671"><ele>626.0</ele><time>2026-04-28T17:19:14.452Z</time></trkpt><trkpt lat="44.4676023" lon="7.3582201"><ele>626.2</ele><time>2026-04-28T17:19:16.426Z</time></trkpt><trkpt lat="44.4676464" lon="7.3580615"><ele>626.4000000000001</ele><time>2026-04-28T17:19:18.433Z</time></trkpt><trkpt lat="44.4676932" lon="7.3579191"><ele>626.6</ele><time>2026-04-28T17:19:20.436Z</time></trkpt><trkpt lat="44.4677383" lon="7.357796"><ele>626.8000000000001</ele><time>2026-04-28T17:19:22.446Z</time></trkpt><trkpt lat="44.467807" lon="7.3576836"><ele>627.0</ele><time>2026-04-28T17:19:24.469Z</time></trkpt><trkpt lat="44.4678511" lon="7.3575962"><ele>627.0</ele><time>2026-04-28T17:19:26.44Z</time></trkpt><trkpt lat="44.4678351" lon="7.3574898"><ele>627.0</ele><time>2026-04-28T17:19:28.432Z</time></trkpt><trkpt lat="44.4677992" lon="7.3573477"><ele>627.0</ele><time>2026-04-28T17:19:30.414Z</time></trkpt><trkpt lat="44.4677906" lon="7.3571992"><ele>627.0</ele><time>2026-04-28T17:19:32.427Z</time></trkpt><trkpt lat="44.4677925" lon="7.3570924"><ele>627.0</ele><time>2026-04-28T17:19:34.434Z</time></trkpt><trkpt lat="44.4678191" lon="7.356994"><ele>627.0</ele><time>2026-04-28T17:19:36.459Z</time></trkpt><trkpt lat="44.4678328" lon="7.3568873"><ele>627.2</ele><time>2026-04-28T17:19:38.436Z</time></trkpt><trkpt lat="44.4678349" lon="7.3567793"><ele>627.4000000000001</ele><time>2026-04-28T17:19:41.444Z</time></trkpt><trkpt lat="44.4678596" lon="7.3566501"><ele>627.5999999999999</ele><time>2026-04-28T17:19:44.435Z</time></trkpt><trkpt lat="44.4678604" lon="7.3565368"><ele>627.8</ele><time>2026-04-28T17:19:46.437Z</time></trkpt><trkpt lat="44.4678663" lon="7.3564032"><ele>628.0</ele><time>2026-04-28T17:19:48.433Z</time></trkpt><trkpt lat="44.4678806" lon="7.3562624"><ele>628.1999999999999</ele><time>2026-04-28T17:19:50.441Z</time></trkpt><trkpt lat="44.4678858" lon="7.3561632"><ele>628.4</ele><time>2026-04-28T17:19:51.432Z</time></trkpt><trkpt lat="44.4679023" lon="7.3560755"><ele>628.5999999999999</ele><time>2026-04-28T17:19:52.444Z</time></trkpt><trkpt lat="44.4679093" lon="7.3559187"><ele>628.8</ele><time>2026-04-28T17:19:54.464Z</time></trkpt><trkpt lat="44.4679177" lon="7.3557673"><ele>629.0</ele><time>2026-04-28T17:19:56.437Z</time></trkpt><trkpt lat="44.467902" lon="7.3555836"><ele>629.2</ele><time>2026-04-28T17:19:58.44Z</time></trkpt><trkpt lat="44.4678897" lon="7.3554197"><ele>629.4</ele><time>2026-04-28T17:20:00.431Z</time></trkpt><trkpt lat="44.4678698" lon="7.3552723"><ele>629.6</ele><time>2026-04-28T17:20:02.425Z</time></trkpt><trkpt lat="44.467854" lon="7.355151"><ele>629.8</ele><time>2026-04-28T17:20:04.439Z</time></trkpt><trkpt lat="44.4678286" lon="7.3550241"><ele>630.0</ele><time>2026-04-28T17:20:06.479Z</time></trkpt><trkpt lat="44.467827" lon="7.3548965"><ele>630.0</ele><time>2026-04-28T17:20:08.421Z</time></trkpt><trkpt lat="44.4678327" lon="7.3547802"><ele>630.0</ele><time>2026-04-28T17:20:10.417Z</time></trkpt><trkpt lat="44.4678254" lon="7.3546632"><ele>630.0</ele><time>2026-04-28T17:20:12.423Z</time></trkpt><trkpt lat="44.4678041" lon="7.3545504"><ele>630.0</ele><time>2026-04-28T17:20:14.418Z</time></trkpt><trkpt lat="44.4677939" lon="7.3544517"><ele>630.0</ele><time>2026-04-28T17:20:16.441Z</time></trkpt><trkpt lat="44.4677793" lon="7.354338"><ele>630.0</ele><time>2026-04-28T17:20:18.473Z</time></trkpt><trkpt lat="44.4677652" lon="7.3541977"><ele>630.1666666666666</ele><time>2026-04-28T17:20:20.429Z</time></trkpt><trkpt lat="44.4677385" lon="7.3540687"><ele>630.3333333333334</ele><time>2026-04-28T17:20:22.425Z</time></trkpt><trkpt lat="44.4677064" lon="7.3539575"><ele>630.5</ele><time>2026-04-28T17:20:25.425Z</time></trkpt><trkpt lat="44.467688" lon="7.353826"><ele>630.6666666666667</ele><time>2026-04-28T17:20:28.451Z</time></trkpt><trkpt lat="44.4676642" lon="7.3537216"><ele>630.8333333333334</ele><time>2026-04-28T17:20:30.425Z</time></trkpt><trkpt lat="44.4676528" lon="7.3536317"><ele>631.0</ele><time>2026-04-28T17:20:32.435Z</time></trkpt><trkpt lat="44.4677021" lon="7.3535124"><ele>631.1666666666667</ele><time>2026-04-28T17:20:34.428Z</time></trkpt><trkpt lat="44.4677378" lon="7.3533778"><ele>631.3333333333334</ele><time>2026-04-28T17:20:36.455Z</time></trkpt><trkpt lat="44.4677283" lon="7.3532725"><ele>631.5</ele><time>2026-04-28T17:20:38.455Z</time></trkpt><trkpt lat="44.4677206" lon="7.3531699"><ele>631.6666666666666</ele><time>2026-04-28T17:20:40.436Z</time></trkpt><trkpt lat="44.4677194" lon="7.3530427"><ele>631.8333333333333</ele><time>2026-04-28T17:20:42.422Z</time></trkpt><trkpt lat="44.4677036" lon="7.3529181"><ele>632.0</ele><time>2026-04-28T17:20:44.429Z</time></trkpt><trkpt lat="44.4677133" lon="7.3527989"><ele>632.1666666666666</ele><time>2026-04-28T17:20:46.429Z</time></trkpt><trkpt lat="44.4677238" lon="7.3526719"><ele>632.3333333333333</ele><time>2026-04-28T17:20:48.425Z</time></trkpt><trkpt lat="44.4677362" lon="7.3525621"><ele>632.5</ele><time>2026-04-28T17:20:50.458Z</time></trkpt><trkpt lat="44.4677416" lon="7.3524548"><ele>632.6666666666666</ele><time>2026-04-28T17:20:52.429Z</time></trkpt><trkpt lat="44.4677287" lon="7.3523402"><ele>632.8333333333334</ele><time>2026-04-28T17:20:54.428Z</time></trkpt><trkpt lat="44.4677108" lon="7.3522025"><ele>633.0</ele><time>2026-04-28T17:20:56.424Z</time></trkpt><trkpt lat="44.4677046" lon="7.3520772"><ele>633.1999999999999</ele><time>2026-04-28T17:20:58.426Z</time></trkpt><trkpt lat="44.4676764" lon="7.3519288"><ele>633.4</ele><time>2026-04-28T17:21:00.42Z</time></trkpt><trkpt lat="44.4676389" lon="7.3517777"><ele>633.5999999999999</ele><time>2026-04-28T17:21:02.415Z</time></trkpt><trkpt lat="44.4676144" lon="7.3516322"><ele>633.8</ele><time>2026-04-28T17:21:04.419Z</time></trkpt><trkpt lat="44.4675937" lon="7.3514894"><ele>634.0</ele><time>2026-04-28T17:21:06.527Z</time></trkpt><trkpt lat="44.4675786" lon="7.3513533"><ele>634.0</ele><time>2026-04-28T17:21:08.415Z</time></trkpt><trkpt lat="44.4675526" lon="7.3512251"><ele>634.0</ele><time>2026-04-28T17:21:10.549Z</time></trkpt><trkpt lat="44.4675401" lon="7.3510956"><ele>634.0</ele><time>2026-04-28T17:21:12.526Z</time></trkpt><trkpt lat="44.4675378" lon="7.350895"><ele>634.0</ele><time>2026-04-28T17:21:15.559Z</time></trkpt><trkpt lat="44.4675444" lon="7.3507564"><ele>634.0</ele><time>2026-04-28T17:21:17.522Z</time></trkpt><trkpt lat="44.4675597" lon="7.3506138"><ele>634.0</ele><time>2026-04-28T17:21:19.513Z</time></trkpt><trkpt lat="44.4675654" lon="7.3504631"><ele>634.0</ele><time>2026-04-28T17:21:21.508Z</time></trkpt><trkpt lat="44.467536" lon="7.3503088"><ele>634.0</ele><time>2026-04-28T17:21:23.509Z</time></trkpt><trkpt lat="44.4675213" lon="7.3501925"><ele>634.0</ele><time>2026-04-28T17:21:25.513Z</time></trkpt><trkpt lat="44.4674985" lon="7.3500655"><ele>634.0</ele><time>2026-04-28T17:21:27.532Z</time></trkpt><trkpt lat="44.4674886" lon="7.349974"><ele>634.0</ele><time>2026-04-28T17:21:29.517Z</time></trkpt><trkpt lat="44.4674515" lon="7.3498757"><ele>634.0</ele><time>2026-04-28T17:21:32.582Z</time></trkpt><trkpt lat="44.4673912" lon="7.3498335"><ele>634.0</ele><time>2026-04-28T17:21:37.506Z</time></trkpt><trkpt lat="44.4673101" lon="7.3497538"><ele>634.0</ele><time>2026-04-28T17:21:40.54Z</time></trkpt><trkpt lat="44.4672275" lon="7.3497078"><ele>634.0</ele><time>2026-04-28T17:21:42.513Z</time></trkpt><trkpt lat="44.4671102" lon="7.3497062"><ele>634.0</ele><time>2026-04-28T17:21:44.497Z</time></trkpt><trkpt lat="44.4670438" lon="7.3497194"><ele>634.0</ele><time>2026-04-28T17:21:45.489Z</time></trkpt><trkpt lat="44.4669795" lon="7.3497361"><ele>634.0</ele><time>2026-04-28T17:21:46.528Z</time></trkpt><trkpt lat="44.4669088" lon="7.3497428"><ele>634.0</ele><time>2026-04-28T17:21:47.515Z</time></trkpt><trkpt lat="44.4668403" lon="7.3497395"><ele>634.0</ele><time>2026-04-28T17:21:48.564Z</time></trkpt><trkpt lat="44.4667226" lon="7.3497751"><ele>634.0</ele><time>2026-04-28T17:21:50.498Z</time></trkpt><trkpt lat="44.4666136" lon="7.3498052"><ele>634.0</ele><time>2026-04-28T17:21:52.518Z</time></trkpt><trkpt lat="44.4665044" lon="7.3498281"><ele>634.0</ele><time>2026-04-28T17:21:54.519Z</time></trkpt><trkpt lat="44.4663941" lon="7.3498514"><ele>634.0</ele><time>2026-04-28T17:21:56.511Z</time></trkpt><trkpt lat="44.4662784" lon="7.3499061"><ele>634.0</ele><time>2026-04-28T17:21:58.521Z</time></trkpt><trkpt lat="44.4661652" lon="7.3499404"><ele>634.0</ele><time>2026-04-28T17:22:00.523Z</time></trkpt><trkpt lat="44.4660602" lon="7.3499741"><ele>634.0</ele><time>2026-04-28T17:22:02.51Z</time></trkpt><trkpt lat="44.4659445" lon="7.3500258"><ele>634.0</ele><time>2026-04-28T17:22:04.517Z</time></trkpt><trkpt lat="44.4658813" lon="7.3500424"><ele>634.0</ele><time>2026-04-28T17:22:05.483Z</time></trkpt><trkpt lat="44.465819" lon="7.3500602"><ele>634.0</ele><time>2026-04-28T17:22:06.501Z</time></trkpt><trkpt lat="44.465752" lon="7.3500688"><ele>634.0</ele><time>2026-04-28T17:22:07.5Z</time></trkpt><trkpt lat="44.465646" lon="7.3500636"><ele>634.0</ele><time>2026-04-28T17:22:09.539Z</time></trkpt><trkpt lat="44.4655318" lon="7.3500738"><ele>634.0</ele><time>2026-04-28T17:22:11.486Z</time></trkpt><trkpt lat="44.4654181" lon="7.3500879"><ele>634.0</ele><time>2026-04-28T17:22:13.475Z</time></trkpt><trkpt lat="44.4653093" lon="7.3501202"><ele>634.0</ele><time>2026-04-28T17:22:15.488Z</time></trkpt><trkpt lat="44.4652131" lon="7.3501429"><ele>634.0</ele><time>2026-04-28T17:22:17.495Z</time></trkpt><trkpt lat="44.4651118" lon="7.3501471"><ele>633.8333333333334</ele><time>2026-04-28T17:22:19.506Z</time></trkpt><trkpt lat="44.4650165" lon="7.3501327"><ele>633.6666666666667</ele><time>2026-04-28T17:22:21.499Z</time></trkpt><trkpt lat="44.4649456" lon="7.3500816"><ele>633.5</ele><time>2026-04-28T17:22:23.49Z</time></trkpt><trkpt lat="44.4649079" lon="7.3499611"><ele>633.3333333333334</ele><time>2026-04-28T17:22:26.486Z</time></trkpt><trkpt lat="44.4648842" lon="7.3498542"><ele>633.1666666666666</ele><time>2026-04-28T17:22:28.522Z</time></trkpt><trkpt lat="44.4648934" lon="7.3497658"><ele>633.0</ele><time>2026-04-28T17:22:31.487Z</time></trkpt><trkpt lat="44.4649571" lon="7.349843"><ele>633.0</ele><time>2026-04-28T17:22:48.492Z</time></trkpt><trkpt lat="44.4650193" lon="7.3499132"><ele>633.0</ele><time>2026-04-28T17:22:54.481Z</time></trkpt><trkpt lat="44.4650796" lon="7.3499422"><ele>633.0</ele><time>2026-04-28T17:23:08.475Z</time></trkpt><trkpt lat="44.465005" lon="7.3499274"><ele>633.0</ele><time>2026-04-28T17:24:23.46Z</time></trkpt><trkpt lat="44.4649392" lon="7.3499164"><ele>633.0</ele><time>2026-04-28T17:24:44.469Z</time></trkpt><trkpt lat="44.4649628" lon="7.3498224"><ele>633.0</ele><time>2026-04-28T17:24:50.444Z</time></trkpt><trkpt lat="44.4649848" lon="7.3499162"><ele>633.0</ele><time>2026-04-28T17:24:58.391Z</time></trkpt><trkpt lat="44.4649805" lon="7.3498131"><ele>633.0</ele><time>2026-04-28T17:25:16.446Z</time></trkpt><trkpt lat="44.4650175" lon="7.3499147"><ele>633.0</ele><time>2026-04-28T17:25:36.445Z</time></trkpt><trkpt lat="44.4650801" lon="7.3499459"><ele>633.0</ele><time>2026-04-28T17:25:46.426Z</time></trkpt><trkpt lat="44.4651256" lon="7.3498828"><ele>633.0</ele><time>2026-04-28T17:25:51.453Z</time></trkpt><trkpt lat="44.4650555" lon="7.3498793"><ele>633.0</ele><time>2026-04-28T17:26:14.433Z</time></trkpt><trkpt lat="44.4651259" lon="7.3499471"><ele>633.0</ele><time>2026-04-28T17:26:58.408Z</time></trkpt><trkpt lat="44.4652488" lon="7.3500546"><ele>633.0</ele><time>2026-04-28T17:27:03.415Z</time></trkpt><trkpt lat="44.4650823" lon="7.3499812"><ele>633.0</ele><time>2026-04-28T17:27:15.413Z</time></trkpt><trkpt lat="44.465015" lon="7.3499316"><ele>633.0</ele><time>2026-04-28T17:27:47.362Z</time></trkpt><trkpt lat="44.4649012" lon="7.3500906"><ele>633.0</ele><time>2026-04-28T17:27:49.416Z</time></trkpt><trkpt lat="44.4648103" lon="7.3502164"><ele>633.0</ele><time>2026-04-28T17:27:50.392Z</time></trkpt><trkpt lat="44.4647345" lon="7.3503345"><ele>633.0</ele><time>2026-04-28T17:27:51.393Z</time></trkpt><trkpt lat="44.4646807" lon="7.3504331"><ele>633.0</ele><time>2026-04-28T17:27:52.391Z</time></trkpt><trkpt lat="44.4646236" lon="7.350521"><ele>633.0</ele><time>2026-04-28T17:27:54.383Z</time></trkpt></trkseg></trk></gpx>